-1 Query Result

LUMCON's Bayouside Classroom: Query Results


Try Another Query    Instructions for saving Query Results    View Delimited Text File for this Query   
UserNameUserIDGroupNumberLocationLocationIDSampleDateSampleTimeBottomTempTopTempBottomSalinityTopSalinityBottomDOTopDOBottompHToppHBottomTurbidityTopTurbidityDepth
Lumcon NA LUMCONBayou 1/1/1900  NA NA NA NA NA NA NA NA NA NA NA 
Lumcon NA LUMCONBayou 1/1/1900 11 NA NA NA NA NA NA NA NA NA NA NA 
Lumcon 10 LUMCONBayou 1/1/1900 9:50 12 15 12 13 6.8 7.2 8.1 8.3  25 43 
Lumcon LUMCONBayou 1/1/1900 10.15 14 15 11 13 7.4 16.6 8.1 8.1  21.3 NA 
hhebert 84 NA LUMCONBayou 1/1/1900  NA NA NA NA NA NA NA NA  NA NA 
Lumcon LUMCONBayou 1/1/1900  13 15 9.6 10 8.4 8.5  18 >90 
Lumcon LUMCONBayou 1/1/1900  13 15 9.6 10 8.4 8.5  18 >90 
Lumcon LUMCONBayou 1/1/1900  13 15 9.6 10 8.4 8.5  18 >90 
Lumcon LUMCONBayou 1/1/1900 0955 NA 21 NA 19 10 NA NA  18.8 932 
Lumcon LUMCONBayou 1/1/1900 0955 NA 21 NA 19 10 NA NA  18.8 93 
Lumcon NA LUMCONBayou 1/1/1900 1024 26 NA 1.015 NA 4.5 NA 7.8 NA  15.4 NA 
Lumcon LUMCONBayou 1/1/1900 1045 18 19 10 10 20 20 7.8 7.7  NA NA 
Lumcon LUMCONBayou 1/1/1900 10:05 24 23 12 13 NA 7.5 7.6  37.4 NA 
Lumcon NA LUMCONBayou 1/1/1900 10:01 17 17 7.8 7.8  NA NA 
Lumcon LUMCONBayou 1/1/1900 10:07 22 22 15/1000 12/1000 5.5 7.6 7.7  NA NA 
Lumcon NA LUMCONBayou 1/1/1900 10:30 NA 28 NA 14 NA 3.2 NA 7.6  30  
Lumcon NA LUMCONBayou 1/1/1900 10:30 NA 29 NA 13 NA 3.4 NA 7.7  26 NA 
Lumcon LUMCONBayou 1/1/1900 1:25:00 AM 10:30 19 18 10 10 8.1 6.7 7.7 7.7  29.4 NA 
Lumcon LUMCONBayou 4/20/2001 9:47 19.5 20 16 16 NA NA   188 
Lumcon LUMCONBayou 4/26/2001 10:22 22 22 12 13 NA NA   199 
Lumcon LUMCONBayou 5/4/2001 9:24 25 25 24 24 NA    196 
Lumcon LUMCONBayou 5/11/2001 10:33 26 26.5 20 20 NA    201 
Lumcon LUMCONBayou 5/31/2001 1:52 28.5 34 12 10 NA    195 
Lumcon LUMCONBayou 6/7/2001 11:14 25 27.5 20 20     229.5 
Lumcon LUMCONBayou 6/14/2001 11:09 28 28     202 
Lumcon LUMCONBayou 6/21/2001 11:30 29.5 29.5     205 
Lumcon LUMCONBayou 6/29/2001 11:19 28.5 29.5     182 
Lumcon LUMCONBayou 7/5/2001 11:20 NA NA NA NA NA NA na na NA NA NA 
Lumcon LUMCONBayou 7/11/2001 11:34 30.5 30.5 na na NA NA 179 
Lumcon LUMCONBayou 7/19/2001 11:52 30 30 12 10 na na NA NA 210 
Lumcon LUMCONBayou 7/26/2001 11:11 28 28 13 13     187 
Lumcon LUMCONBayou 8/2/2001 11:10 28.5 28.5 na na NA NA 173 
Lumcon LUMCONBayou 8/23/2001 11:32 29 30 11 11     170 
Lumcon LUMCONBayou 8/30/2001 11:23 27 27 14 14     211 
Lumcon LUMCONBayou 9/7/2001 11:15 30.5 30.5     192 
Lumcon LUMCONBayou 9/13/2001 11:20 28 28 15 14     209 
Lumcon LUMCONBayou 9/21/2001 12:35 30 30 14 15     186 
Lumcon LUMCONBayou 9/27/2001 11:23 22 22 20 20     201 
Lumcon LUMCONBayou 10/4/2001 11:58 24 24 22 21     183 
Lumcon LUMCONBayou 10/11/2001 11:44 24.5 24.5 26 26     222 
Lumcon LUMCONBayou 10/18/2001 10:54 17 17 21 21     176 
Lumcon LUMCONBayou 10/25/2001 11:07 23.5 24 21 22     193.5 
Lumcon LUMCONBayou 11/1/2001 11:02 20 21 25 25     186 
Lumcon LUMCONBayou 11/8/2001 10:35 22 21.5 26 27     189 
Lumcon LUMCONBayou 11/16/2001 10:50 20 20 27 28     171 
Lumcon LUMCONBayou 11/21/2001 11:06 16.5 17 18 18     173 
Lumcon LUMCONBayou 11/29/2001 10:48 21 21.5 19 19 NA     172 
Lumcon LUMCONBayou 12/6/2001 10:40 21.5 21.5 15 15     181 
Lumcon LUMCONBayou 12/13/2001 11:10 21 21 15 15     171 
Lumcon LUMCONBayou 12/20/2001 10:53 14 15 15 15     125 
Lumcon LUMCONBayou 12/20/2001 11:19 14 14 11 11     162 
Lumcon LUMCONBayou 1/3/2002 10:54 12 11     144 
Lumcon LUMCONBayou 1/10/2002 11:02 12 12     155 
Lumcon LUMCONBayou 1/17/2002 10:58 14 14     157 
Lumcon LUMCONBayou 1/24/2002 12:55 21.5 21.5     181 
Lumcon LUMCONBayou 1/31/2002 10:52 22.5 22.5 10 10     167 
Lumcon LUMCONBayou 2/7/2002 11:34 11 11     152 
Lumcon LUMCONBayou 2/14/2002 10:58 11 11 10 10     155 
Lumcon LUMCONBayou 2/28/2002 11:15 8.5 8.5 10 10     138 
Lumcon LUMCONBayou 3/7/2002 11:10 15 14 10     175 
Lumcon LUMCONBayou 3/14/2002 10:37 17 17 10 10     183 
Lumcon LUMCONBayou 3/21/2002 10:15 22 22 15 15     176 
KenP 50 LUMCONBayou 3/28/2002 10:40 21 21 12 13 6.8 6.8     76 
KenP 50 LUMCONBayou 3/28/2002 10:06 20 21 11 10 6.4 6.8 na na NA NA 108 
KenP 50 LUMCONBayou 3/28/2002 10:40 20 21 10 11 N/A na na NA NA 119 
KenP 50 LUMCONBayou 3/28/2002 10:10 20 20 13 14 6.4 na na NA NA 80 
KenP 50 LUMCONBayou 3/28/2002 10:40 21 21 13 12 7.9 7.3 na na NA NA 114.5 
Lumcon LUMCONBayou 4/3/2002 11:17 20 20 10 10     183 
Lumcon LUMCONBayou 4/11/2002 14:10 23 23 13 13 na na NA NA 201 
Lumcon LUMCONBayou 4/18/2002 10:46 26 26 na na NA NA 190 
nancyb 51 LUMCONBayou 4/25/2002 11:05 28 28 4.6 4.2 na na NA NA 47 
nancyb 51 LUMCONBayou 4/25/2002 10:53 27 28 4.2     150 
nancyb 51 LUMCONBayou 4/25/2002 10:53 29 28 4.6 na na NA NA 189 
nancyb 51 LUMCONBayou 4/25/2002 10:00 26 26 4.8 4.8 na na NA NA 185 
nancyb 51 LUMCONBayou 4/25/2002 10:00 27 27 5.4 na na NA NA NA 
Lumcon LUMCONBayou 5/2/2002 11:15 27 27 na na NA NA 209 
Lumcon LUMCONBayou 5/9/2002 10:46 28 28 na na NA NA 202 
Lumcon LUMCONBayou 5/23/2002 10:25 22 23 16 16 na na NA NA 202 
Lumcon LUMCONBayou 5/30/2002 10:35 28 28 11 11 na na NA NA 216 
Lumcon LUMCONBayou 6/7/2002 10:38 27.5 28 na na NA NA 208 
Lumcon LUMCONBayou 6/13/2002 11:22 30 30 na na NA NA 213.5 
Lumcon LUMCONBayou 6/13/2002 11:22 30 30     213.5 
Lumcon LUMCONBayou 6/29/2002 11:25 28 28     121 
Lumcon LUMCONBayou 7/5/2002 11:20 31.5 31 na na NA NA 181 
Lumcon LUMCONBayou 7/12/2002 13:15 32 32 na na NA NA 216 
Lumcon LUMCONBayou 7/18/2002 11:20 34 34 na na NA NA 216 
Lumcon LUMCONBayou 7/26/2002 10:35 29 29 na na NA NA 195 
Lumcon LUMCONBayou 8/1/2002 10:48 29.5 29.5 3.5 3.5 na na NA NA 188 
Lumcon LUMCONBayou 8/8/2002 8:40 30 31 10 10 3.5 3.2 na na NA NA 207 
Lumcon LUMCONBayou 8/15/2002 11:05 28 28 13 13 na na NA NA 213 
Lumcon LUMCONBayou 8/16/2002 11:43 30 30 11 11 na na NA NA 206 
Lumcon LUMCONBayou 8/22/2002 11:40 30 31 10 10 na na NA NA 210 
Lumcon LUMCONBayou 8/29/2002 10:35 29 28.5 na na NA NA 186 
Lumcon LUMCONBayou 9/5/2002 11:20 26 26.5 16 16 4.1 4.1 na na NA NA 175 
Lumcon LUMCONBayou 9/12/2002 11:10 29.5 29.5 13 15 2.4 2.6 na na NA NA 166 
Lumcon LUMCONBayou 9/19/2002 10:41 29 29 13 13 4.7 4.4 na na NA NA 232 
Lumcon LUMCONBayou 9/27/2002 10:25 24 24 18 15 3.2 3.2 na na NA NA 212 
Cfinelli LUMCONBayou 10/8/2002 11:32 28.5 28.5 15 15 2.8     210 
Cfinelli LUMCONBayou 10/18/2002 11:10 22 22 12 12 7.2 6.6     207 
Cfinelli LUMCONBayou 10/27/2002 11:12 24 24 12 12     211 
Lumcon LUMCONBayou 11/7/2002 11:12 18 18 11 11 6.9 7.1 na na NA NA 160 
ginar 16 LUMCONBayou 11/14/2002 09:50 19 19 6.2 6.1 na na NA NA 215 
ginar 16 LUMCONBayou 11/14/2002 9:05 17 17 6.0 6.2 na na NA NA 16.6 
ginar 16 LUMCONBayou 11/14/2002 09:50 17 18 6.8 6.6 na na NA NA 185 
ginar 16 LUMCONBayou 11/14/2002 09:50 19 19.5 6.2 5.8 na na NA NA 174 
ginar 16 LUMCONBayou 11/14/2002 10:30 18 18 6.6 6.9 na na NA NA 177 
chriss 52 LUMCONBayou 11/21/2002 11:12 17 17 7.4 na na NA NA 151 
timh 14 LUMCONBayou 12/5/2002 09:50 12 12 15 15 7.8 na na NA NA 169 
timh 14 LUMCONBayou 12/5/2002 9:56 13.5 13.5 10 11.5 7.2 7.4 na na NA NA 100 
timh 14 LUMCONBayou 12/5/2002 11:05 13 13 12 11 7.6 8.6 na na NA NA 146 
timh 14 LUMCONBayou 12/5/2002 11:05 14 13 15 15 7.6 na na NA NA 146 
lauram 18 LUMCONBayou 1/2/2003 11:30 NA 16 NA NA na na NA NA 10 
Cfinelli LUMCONBayou 1/9/2003 10:35 11 11.5 8.2 8.2 na na NA NA 167 
Jkastler LUMCONBayou 2/8/2003 10:20 NA 11 NA 15 NA 9.5 na na NA NA 137.0 
Jkastler LUMCONBayou 2/8/2003 10:16 NA 12 NA 15 NA na na NA NA 137 
Jkastler LUMCONBayou 2/8/2003 10:22 NA 12 NA 15 NA 8.3 na na NA NA 137 
Jkastler LUMCONBayou 2/8/2003 10:20 NA 11.5 NA 15 NA 8.6 na na NA NA 127 
Jkastler LUMCONBayou 2/8/2003 10:20 NA 12 NA 15 NA NA na na NA NA 137 
Jkastler LUMCONBayou 2/8/2003 14:50 NA 12 NA 16 NA 5.2 na na NA NA 172 
Jkastler LUMCONBayou 2/8/2003 15:00 NA 11 NA 17 NA     101 
Jkastler LUMCONBayou 2/8/2003 14:52 NA 11 NA 16 NA 8.4 na na NA NA 160 
Jkastler LUMCONBayou 2/8/2003 14:53 NA 11 NA 17 NA 9.8 na na NA NA 152 
Jkastler LUMCONBayou 2/8/2003 15:00 NA NA 17 NA 8.4 na na NA NA 176 
Jkastler LUMCONBayou 2/8/2003 14:52 NA 10.0 NA 17 NA 9.1 na na NA NA 176 
Jkastler LUMCONBayou 2/8/2003 10:20 NA 10 NA 15 NA 9.5 na na NA NA 77 
Cfinelli LUMCONBayou 2/13/2003 11:02 15 15 18 18 7.1 7.2     173 
Jkastler LUMCONBayou 2/20/2003 10:30 18.5 17 13 14 6.6 6.1 na na NA NA 111.5 
Cfinelli LUMCONBayou 2/27/2003 10:55 15 15 15 15 NA NA na na NA NA 153 
Cfinelli LUMCONBayou 3/6/2003 12:45 18 19 16 16 5.8 6.2 na na NA NA 180 
Lumcon LUMCONBayou 3/13/2003 10:06 22 22 18 17 5.2 5.4 na na NA NA 210 
chriss 52 LUMCONBayou 3/20/2003 11:14 21 21 17 17 5.1 5.1     211.8 
Lumcon LUMCONBayou 4/3/2003 10:30 21 22 17 17 7.2 7.0 na na NA NA 224 
Lumcon LUMCONBayou 4/3/2003 10:10 21 22 17 17 7.2 7.0 na na NA NA 224 
Lumcon LUMCONBayou 4/17/2003 10:21 24 24 14 14 5.6 5.5 na na NA NA NA 
Lumcon LUMCONBayou 4/17/2003 10:22 25 25 5.1 5.3 na na NA NA 170 
Lumcon LUMCONBayou 4/17/2003 10:21 25 24.5 6.6 5.8 na na NA NA 229 
Lumcon LUMCONBayou 4/17/2003 11:20 26 26 5.4 8.6 na na NA NA 242.5 
Lumcon LUMCONBayou 4/17/2003 11:18 25 27 6.9 5.8 na na NA NA 163.5 
Lumcon LUMCONBayou 4/17/2003 11:18 25 25 10 8.4 6.6 na na NA NA 199 
chriss 52 LUMCONBayou 5/1/2003 11:20 26 26 13 13 3.5 4.4 na na NA NA 200 
Jkastler LUMCONBayou 5/7/2003 15:00 30 30 17 17 5.4 4.6 na na NA NA 250 
Jkastler LUMCONBayou 5/8/2003 09:50 30 28 16 16 4.2 4.2 na na NA NA 218 
chriss 52 LUMCONBayou 5/8/2003 12:59 29 29 17 17 3.9 3.7 na na NA NA 218 
Lumcon LUMCONBayou 5/8/2003 12:59 29 29 17 17 3.9 3.7 na na NA NA 218 
Jkastler LUMCONBayou 5/10/2003 14:25 30 30 16 20 4.9 6.4 na na NA NA 250 
Jkastler LUMCONBayou 5/10/2003 14:10 29 30 14 15 5.0 5.7 na na NA NA 241 
Lumcon LUMCONBayou 5/15/2003 10:57 28 28 5.4 5.7 na na NA NA 202 
Lumcon LUMCONBayou 5/22/2003 10:50 27 27 5.4 5.8 na na NA NA 171.5 
Lumcon LUMCONBayou 5/29/2003 15:00 29 29.5 10 7.0 6.9 na na NA NA 187 
Lumcon LUMCONBayou 6/5/2003 11:20 28 29 5.0 4.9 na na NA NA 201 
Lumcon LUMCONBayou 6/12/2003 11:11 29 30 na na NA NA 232 
Lumcon LUMCONBayou 6/12/2003 11:11 30 30 5.2 5.3 na na NA NA NA 
Lumcon LUMCONBayou 6/19/2003 12:10 29.5 30 4.2 4.6 na na NA NA 201 
Lumcon LUMCONBayou 6/26/2003 10:28 30 29.5 4.9 5.6 na na NA NA 209 
judyc 24 10 LUMCONBayou 7/9/2003 15:15 33 34 4.2 3.7 na na NA NA 
judyc 24 LUMCONBayou 7/9/2003 13:30 32 36 4.4 4.4 na na NA NA 
judyc 24 11 LUMCONBayou 7/9/2003 14:45 34 35 3.7 4.3 na na NA NA 
judyc 24 LUMCONBayou 7/9/2003 14:45 34 35 3.7 4.3 na na NA NA 
judyc 24 LUMCONBayou 7/9/2003 14:45 34 35 3.7 4.3 na na NA NA 
judyc 24 LUMCONBayou 7/9/2003 15:30 32 36 4.4 4.4 na na NA NA 
judyc 24 09 LUMCONBayou 7/9/2003 15:30 32 36 4.4 4.4 na na NA NA 
judyc 24 LUMCONBayou 7/9/2003 15:15 33 34 4.2 3.7 na na NA NA 
judyc 24 LUMCONBayou 7/9/2003 14:45 34 35 3.7 4.3 na na NA NA 
Lumcon LUMCONBayou 7/24/2003 10:50 27.5 27.5 5.4 5.4 na na NA NA 190 
Lumcon LUMCONBayou 7/31/2003 10:43 29 27 4.8 4.6 na na NA NA 190 
Lumcon LUMCONBayou 8/7/2003 10:44 30 30 5.2 5.2 na na NA NA 190 
Lumcon 02 LUMCONBayou 8/9/2003 12:00 29 29.5 10 17 4.1 4.9 na na NA NA 218 
Lumcon LUMCONBayou 8/14/2003 10:50 28 28 4.4 4.2 na na NA NA 199 
Lumcon LUMCONBayou 8/21/2003 10:48 30 29.5 4.4 4.7 na na NA NA 191 
Lumcon LUMCONBayou 8/28/2003 10:45 30 30 10 10 4.2 4.2 na na NA NA 211 
Lumcon LUMCONBayou 9/4/2003 11:02 31 32 11 11 2.6 2.6 na na NA NA 211 
timh 14 LUMCONBayou 9/8/2003 12:25 29 30 12 13 4.1 4.6 na na NA NA 218 
Lumcon 05 LUMCONBayou 9/8/2003 12:25 30 30 3.8 4.2 na na NA NA 218 
Lumcon LUMCONBayou 9/8/2003 12:00 30 31 11 11 4.4 4.4 na na NA NA 218 
kellyh 12 LUMCONBayou 9/8/2003 12:25 29 30 12 13 4.1 4.6 na na NA NA 218 
paigea 15 LUMCONBayou 9/8/2003 12:00 30 31 11 11 4.4 4.4 na na NA NA 218 
AnneK 53 LUMCONBayou 9/8/2003 12:00 30 31 11 11 4.4 4.4 na na NA NA 218 
jenniferp 13 LUMCONBayou 9/8/2003 12:00 30 30 13 12 3.8 4.2 na na NA NA 218 
Lumcon LUMCONBayou 9/8/2003 12:25 30 30 3.8 4.2 na na NA NA 218 
Lumcon LUMCONBayou 9/8/2003 12:00 29 29.5 10 11 4.1 4.9 na na NA NA 218 
ginar 16 LUMCONBayou 9/8/2003 12:25 29 29.5 11 12 4.0 4.9 na na NA NA 21.8 
Lumcon LUMCONBayou 9/8/2003 10:30 30 30 13 12 3.8 4.2 na na NA NA 318 
Lumcon LUMCONBayou 9/11/2003 10:57 28 28 13 13 3.6 4.0 na na NA NA 210 
Lumcon LUMCONBayou 9/18/2003 11:07 29 29 12 12 3.0 3.0 7.2 7.1   198 
Dchauvin 29 LUMCONBayou 9/25/2003 11:35 27 28 10 10 3.4 4.0 na na NA NA 228 
timh 14 LUMCONBayou 10/2/2003 09:28 21 21 16 16 6.4 6.4 na na NA NA 164 
timh 14 LUMCONBayou 10/2/2003 09:28 21 20 16 16 5.5 6.2 na na NA NA 206 
timh 14 LUMCONBayou 10/2/2003 10:17 21 20 15 15 5.4 5.4 na na NA NA NA 
timh 14 LUMCONBayou 10/2/2003 09:55 20 19 17 17 5.6 na na NA NA NA 
ginar 16 LUMCONBayou 10/9/2003 10:30 27 26.5 17 16 4.3 3.8 na na NA NA 195 
ginar 16 LUMCONBayou 10/9/2003 10:30 26 27 15 15 4.2 4.0 na na NA NA 203 
ginar 16 LUMCONBayou 10/9/2003 10:30 27 27 15 14 4.2 4.3 na na NA NA 203 
ginar 16 LUMCONBayou 10/9/2003 09:39 27 27 17 17 4.2 5.0 na na NA NA 232 
ginar 16 LUMCONBayou 10/9/2003 09:39 27 26 17 17 3.8 3.9 na na NA NA 192.5 
ginar 16 LUMCONBayou 10/9/2003 09:40 28 28 17 17 5.4 4.9 na na NA NA 211 
Dchauvin 29 LUMCONBayou 10/16/2003 11:15 23 23 16 16 4.8 5.0 na na NA NA 192 
paigea 15 LUMCONBayou 10/23/2003 11:06 25 24 10 10 7.2 6.5 na na NA NA 175 
paigea 15 LUMCONBayou 10/23/2003 11:06 25 25 10 2.4 4.4 na na NA NA 175 
paigea 15 LUMCONBayou 10/23/2003 11:06 25.0 25.0 10 11 5.6 5.6 na na NA NA 175 
paigea 15 LUMCONBayou 10/23/2003 10:05 24.0 26.0 10 11 4.2 3.0 na na NA NA 196 
paigea 15 LUMCONBayou 10/23/2003 10:05 23 29 10 10     157 
paigea 15 LUMCONBayou 10/23/2003 10:05 24.0 26.0 10 11 4.2 3.0 na na NA NA 196 
paigea 15 LUMCONBayou 10/23/2003 10:05 25 25 11 11 3.9 4.9 na na NA NA 196 
paigea 15 LUMCONBayou 10/24/2003 11:00 25 25 11 12 3.3 4.4 na na NA NA 182.5 
paigea 15 LUMCONBayou 10/24/2003 10:57 26 26 12 11 2.8 4.4     182.5 
paigea 15 LUMCONBayou 10/24/2003 10:58 26 25 12 13 3.8 na na NA NA 182.5 
paigea 15 LUMCONBayou 10/24/2003 10:00 25 25 12 3.8 3.8 na na NA NA 183 
paigea 15 LUMCONBayou 10/24/2003 9:56 26 26 17 12 3.8 3.8 na na NA NA 161 
paigea 15 LUMCONBayou 10/24/2003 10:00 26 26 12 10.5 3.2 na na NA NA 168.5 
Dchauvin 29 LUMCONBayou 10/30/2003 10:30 22 22 17 17 4.7 4.6 na na NA NA 190 
jennifera 26 LUMCONBayou 11/4/2003 10:30 21.0 25.0 20.0 20.0 5.0 5.2 na na NA NA 182 
jennifera 26 LUMCONBayou 11/4/2003 10:35 25.0 25.0 17 19 5.2 5.1 na na NA NA 189 
jennifera 26 LUMCONBayou 11/4/2003 11:19 25.8 25 19 18 4.6 5.7 na na NA NA 197 
jennifera 26 LUMCONBayou 11/4/2003 11:19 25.0 25.0 19.0 19.0 4.4 4.8 na na NA NA 187 
Dchauvin 29 LUMCONBayou 11/6/2003 11:50 26 26 18 17 4.4 4.6 na na NA NA 184 
Dchauvin 29 LUMCONBayou 11/13/2003 11:15 24 24 22 22 6.0 6.0 na na NA NA 170 
Dchauvin 29 LUMCONBayou 11/20/2003 10:57 19 19 19.8 20.1 5.9 6.0 na na NA NA 184 
Jprerost 30 LUMCONBayou 11/27/2003 9:15 18.0 17.5 18 15 6.3 6.1 na na NA NA 194 
Dchauvin 29 LUMCONBayou 12/4/2003 11:00 18 18.5 17 14 7.8 7.8 na na NA NA 177 
AnneK 53 LUMCONBayou 12/11/2003 11:00 10 10 17 15 8.2 0.6     160 
AnneK 53 LUMCONBayou 12/11/2003 11:00 13 12 16 15 5.6 6.4 na na NA NA 160 
AnneK 53 LUMCONBayou 12/11/2003 11:00 13 12 16 15 5.6 6.4 na na NA NA 160 
AnneK 53 LUMCONBayou 12/11/2003 09:53 11 12 16 15 8.2 8.1 na na NA NA 155.5 
AnneK 53 LUMCONBayou 12/11/2003 9:50 12 10 15 13 8.5 na na NA NA 151 
AnneK 53 LUMCONBayou 12/11/2003 9:50 10.0 10.0 17 15 9.0 7.4 na na NA NA 155 
Dchauvin 29 LUMCONBayou 12/18/2003 11:00 11 11 9.2 9.4 na na NA NA 170 
jcahill 33 LUMCONBayou 12/25/2003 10:45 10 11 10 8.5 8.8 8.5 8.3   158 
jcahill 33 LUMCONBayou 12/30/2003 10:49 10 11 11 8.6 8.8 na na NA NA 164 
Dchauvin 29 LUMCONBayou 1/8/2004 10:55 13 12 9.4 10.0 na na NA NA 171 
simonnel 27 LUMCONBayou 1/15/2004 10:10 17 17 14 12 5.1 NA     180 
simonnel 27 LUMCONBayou 1/15/2004 10:10 15 16 13 12 7.2 8.2 na na NA NA 160 
simonnel 27 05 LUMCONBayou 1/15/2004 10:06 13 13 15 15 7.2 NA     160 
simonnel 27 LUMCONBayou 1/15/2004 11:12 16 17 10 10 6.8 7.6 NA NA NA NA 172 
simonnel 27 LUMCONBayou 1/15/2004 11:12 16 16 10 15 6.5 7.8 NA NA NA NA 172 
Lumcon LUMCONBayou 1/22/2004 10:32 11 11 10 10 8.6 8.2 NA NA   120 
Lumcon LUMCONBayou 1/22/2004 10:30 12 12 10 10 7.8 NA NA NA NA 120 
Lumcon LUMCONBayou 1/22/2004 10:45 12.8 12.0 9.5 10.5 7.8 8.3 NA NA NA NA 143 
Lumcon LUMCONBayou 1/22/2004 9:27 10 12 7.8 8.2 NA NA NA NA 153 
Lumcon LUMCONBayou 1/22/2004 9:27 12 12.5 10 7.2 6.8 NA NA NA NA 153 
Lumcon LUMCONBayou 1/22/2004 9:30 11 10.5 10 10 7.4 NA NA NA NA 124 
Lumcon LUMCONBayou 1/23/2004 10:24 13 13 8.6 NA NA NA NA 59 
Lumcon LUMCONBayou 1/23/2004 10:30 12 13 6.2 NA NA NA NA 140 
Lumcon LUMCONBayou 1/23/2004 10:30 13 12 10 10 6.6 7.4 NA NA NA NA 152 
Lumcon LUMCONBayou 1/23/2004 10:25 13 13 11 10 7.7 7.6 NA NA NA NA 135.5 
Lumcon LUMCONBayou 1/24/2004 10:30 14 13 10 10 5.6 7.6 NA NA NA NA 135.5 
Dchauvin 29 LUMCONBayou 1/29/2004 10:50 10 10 9.9 9.6 NA NA NA NA 177 
switkin 34 LUMCONBayou 1/30/2004 14:00 28 12 NA NA 60 
timh 14 LUMCONBayou 2/5/2004 9:30 12.5 12 14 15 7.4 4.1 NA NA NA NA 204 
timh 14 LUMCONBayou 2/5/2004 9:25 17 18 15 15 6.8 7.4 NA NA NA NA 178 
timh 14 LUMCONBayou 2/5/2004 09:50 17 17 16 16.5 6.6 NA NA NA NA 192.5 
Dchauvin 29 LUMCONBayou 2/12/2004 13:50 15 16 10 10 7.8 8.4 NA NA NA NA 176 
Workshop LUMCONBayou 2/14/2004 9:35 NA 11 NA NA NA 7.6   191 
Workshop LUMCONBayou 2/14/2004 09:40 NA 11 NA 10 NA 9.2 NA 7.7   202 
Workshop LUMCONBayou 2/14/2004 09:40 NA 10.8 NA NA 9.8 NA 7.6   150 
Workshop LUMCONBayou 2/14/2004 09:38 NA 11 NA NA NA 7.3   190 
Workshop LUMCONBayou 2/14/2004 09:36 NA 11 NA 10 NA 10 NA 7.8   217 
Workshop LUMCONBayou 2/14/2004 09:40 NA 11.5 NA 10 NA 9.4 NA 7.8   77.5 
Workshop LUMCONBayou 2/14/2004 13:30 NA 12 NA 30 NA NA 7.8   84 
Workshop LUMCONBayou 2/14/2004 13:45 NA 12 NA 10 NA 7.4 NA 7.8 NA NA 205 
Workshop LUMCONBayou 2/14/2004 14:00 NA 13 NA 10 NA 8.8 NA 7.9 NA NA 90 
Workshop LUMCONBayou 2/14/2004 13:00 NA 11.0 NA 30 NA 11 NA 7.8 NA NA 36 
Workshop LUMCONBayou 2/14/2004 13:15 NA 12 NA NA 6.2 NA 7.8 NA NA 79 
Workshop LUMCONBayou 2/14/2004 13:45 NA 10 NA 10 NA 8.8 NA 7.8   99 
Workshop LUMCONBayou 2/14/2004 13:42 NA 10 NA 10 NA 9.2 NA NA NA 141.0 
jcahill 33 LUMCONBayou 2/19/2004 10:17 12 13 4.6 4.4 8.1 8.0 NA NA 148 
Dchauvin 29 LUMCONBayou 2/26/2004 11:00 14 13 11 10 8.6 9.0 8.0 7.9 NA NA 178 
renen 28 LUMCONBayou 3/4/2004 9:22 23 22 10 10 5.8 5.8 NA NA NA NA 160.5 
renen 28 LUMCONBayou 3/4/2004 9:25 22 23 10 10 4.2 3.6 NA NA NA NA 160.5 
renen 28 LUMCONBayou 3/4/2004 09:24 21 21 11 11 5.1 NA NA NA NA 183.5 
renen 28 LUMCONBayou 3/4/2004 10:20 24 22 12.5 13 5.6 4.4 NA NA NA NA 167 
renen 28 LUMCONBayou 3/4/2004 10:25 23 23 10 10 6.2 NA NA NA NA 167 
renen 28 LUMCONBayou 3/4/2004 10:03 21 23 12 12 6.2 7.1 NA NA   167 
Lumcon LUMCONBayou 3/11/2004 10:00 18.5 18 7.4 7.7 NA NA NA NA 167.5 
Lumcon LUMCONBayou 3/18/2004 10:00 20 20 3.4 5.3 8.1 7.8 NA NA 123 
Lumcon LUMCONBayou 3/18/2004 9:48 22 21 6.8 7.2 7.3 7.8 NA NA 123.4 
Lumcon LUMCONBayou 3/18/2004 10:00 20 22 12.3 10 7.6 8.1 8.1 NA NA 123.4 
Lumcon LUMCONBayou 3/18/2004 10:00 20 20 3.4 5.3 8.1 7.8 NA NA 123 
switkin 34 LUMCONBayou 3/30/2004 14:00 29 10 6.5 NA NA 
switkin 34 LUMCONBayou 3/30/2004 14:00 28 12 00 NA NA 60 
Murt NA LUMCONBayou 4/1/2004 10:38 20 20 7.2 6.4 8.1 7.2   135 
jennifera 26 LUMCONBayou 4/8/2004 10:12 24 24 10 6.6 7.0 NA NA NA NA 193 
jennifera 26 LUMCONBayou 4/8/2004 10:07 24 26 7.5 5.8 6.4 NA NA NA NA 179 
jennifera 26 LUMCONBayou 4/8/2004 10:10 24 24 6.3 6.5 NA NA NA NA 198 
jennifera 26 LUMCONBayou 4/8/2004 10:50 23 23 6.2 NA NA NA NA 190 
jennifera 26 LUMCONBayou 4/8/2004 12:28 26 26 6.8 6.4 NA NA NA NA 180.5 
Murt NA LUMCONBayou 4/15/2004 12:32 22 22 10 7.2 6.8 NA NA NA NA 138 
Jprerost 30 LUMCONBayou 4/22/2004 10:28 25 25 12 15 6.4 6.2 NA NA   213 
Jprerost 30 LUMCONBayou 4/22/2004 10:27 24 24 13 13 6.4 5.8 NA NA NA NA 208 
Jprerost 30 LUMCONBayou 4/22/2004 10:27 27 27 13 14 NA NA NA NA 208 
Jprerost 30 LUMCONBayou 4/22/2004 9:35 26 26 14 15 5.8 NA NA NA NA 214 
Jprerost 30 LUMCONBayou 4/22/2004 9:37 25 25 10 11 6.8 6.4 NA NA NA NA 199 
Jprerost 30 LUMCONBayou 4/22/2004 9:35 23 23 15 15 6.4 NA NA NA NA 214 
rachelb 20 LUMCONBayou 4/29/2004 09:44 26.0 25.0 12 10 5.7 NA NA NA NA 166.0 
rachelb 20 LUMCONBayou 4/29/2004 9:45 25 25 10 10 8.6 6.0 NA NA NA NA 181 
rachelb 20 LUMCONBayou 4/29/2004 9:50 23 23 13 10 5.4 5.7 NA NA NA NA 183.5 
rachelb 20 LUMCONBayou 4/29/2004 10:40 24 24 10 10 4.8 5.2 NA NA   187.5 
rachelb 20 LUMCONBayou 4/29/2004 10:45 26 26 11 10 5.0 5.8 NA NA   191 
rachelb 20 LUMCONBayou 4/29/2004 10:45 23 23.5 10 12 5.2 5.8 NA NA NA NA 189 
Dchauvin 29 LUMCONBayou 5/6/2004 11:05 NA NA 5.4 6.0 7.9 7.8 NA NA 201 
Dchauvin 29 LUMCONBayou 5/27/2004 11:00 28 28 6.3 6.4 8.1 8.0 NA NA 197 
Dchauvin 29 LUMCONBayou 6/3/2004 10:43 29 29 5.0 5.8 8.0 7.8 NA NA 209 
Dchauvin 29 LUMCONBayou 6/17/2004 12:00 30 30 5.2 4.0 7.9 7.9 NA NA 209 
Dchauvin 29 LUMCONBayou 6/24/2004 11:00 30 30 5.4 5.8 8.1 7.9 NA NA 198 
Dchauvin 29 LUMCONBayou 7/1/2004 10:55 30 31 6.1 6.0 8.3 8.2 NA NA 213 
Murt LUMCONBayou 7/15/2004 9:40 31 31 4.6 4.8 NA NA NA NA 208 
Dchauvin 29 LUMCONBayou 7/22/2004 10:52 31 31.5 4.4 6.2 8.1 8.1 NA NA NA 
Dchauvin 29 LUMCONBayou 8/5/2004 10:50 31.5 31 4.8 4.6 6.6 6.5 NA NA NA 
Dchauvin 29 LUMCONBayou 8/12/2004 11:05 30 30 10 11 4.6 5.2 7.8 7.8 NA NA NA 
Dchauvin 29 LUMCONBayou 8/19/2004 10:50 29 30 12 17 3.8 4.2 8.0 7.9 NA NA NA 
Dchauvin 29 LUMCONBayou 8/26/2004 11:05 31 31 4.6 4.6 7.8 7.7 NA NA 194 
Dchauvin 29 LUMCONBayou 9/2/2004 11:05 30 30 12 3.5 3.3 7.7 7.6 NA NA 171 
Dchauvin 29 LUMCONBayou 9/9/2004 10:55 29.5 31 14 11 4.7 6.7 8.1 8.1 NA NA NA 
Dchauvin 29 LUMCONBayou 9/23/2004 13:55 27 28 24 23 4.8 4.8 7.7 7.7 NA NA 225 
Murt LUMCONBayou 9/30/2004 09:50 26 26 14 15 4.4 4.4 NA NA NA NA 209 
Jkastler LUMCONBayou 10/4/2004 14:54 NA 31 NA 13.5 NA 4.8 NA NA NA NA NA 
Dchauvin 29 LUMCONBayou 10/14/2004 11:35 23 23 4.6 5.0 4.6 5.0 7.7 7.5 NA NA NA 
Dchauvin 29 LUMCONBayou 10/21/2004 12:15 28 28.5 3.4 3.8 NA NA NA NA NA 
Dchauvin 29 LUMCONBayou 10/28/2004 11:05 26.5 27 4.6 4.8 7.7 7.5 NA NA 168 
Dchauvin 29 LUMCONBayou 11/4/2004 11:03 20 21 12 13 6.8 6.8 7.7 7.7 NA NA 170 
Dchauvin 29 LUMCONBayou 11/11/2004 10:50 22 NA 15 13 4.6 5.6 7.6 7.8 na na 190 
Dchauvin 29 LUMCONBayou 11/18/2004 10:35 21 21 17 17 5.8 5.6 7.7 7.6 na na 210 
kmarcantel 45 LUMCONBayou 12/1/2004 11:04 15 15 10 10 7.2 8.1 8.1 na na 95 
kmarcantel 45 LUMCONBayou 12/1/2004 11:04 16 17 15 12 7.6 8.1 8.1 7.9 na na 136 
kmarcantel 45 LUMCONBayou 12/1/2004 11:03 14 14 11 10 7.6 7.9 7.9 7.9 na na 146 
kmarcantel 45 LUMCONBayou 12/1/2004 12:14 14 14 13 12 7.5 7.8 7.8 na na 155 
kmarcantel 45 LUMCONBayou 12/1/2004 10:12 14 14 11 11 7.9 7.2 7.8 7.8 na na 137 
kmarcantel 45 LUMCONBayou 12/1/2004 10:04 16 13 14 13 8.2 7.6 8.4 8.1 na na 137 
kmarcantel 45 06 LUMCONBayou 12/2/2004 10:47 18 19 10 7.6 7.8 8.1 8.1 na na 138 
kmarcantel 45 LUMCONBayou 12/2/2004 10:00 14 14 10 8.3 8.3 7.9 7.8 na na 138 
kmarcantel 45 LUMCONBayou 12/2/2004 11:17 14.5 14.5 7.7 7.7 7.8 na na 162 
kmarcantel 45 LUMCONBayou 12/2/2004 9:59 15 16 7.8 7.4 7.5 7.6 na na 177 
kmarcantel 45 LUMCONBayou 12/2/2004 09:59 15 15 10 6.8 5.8 8.1 7.8 na na 167 
kmarcantel 45 LUMCONBayou 12/2/2004 9:00 15 14 8.5 7.5 6.6 7.5 7.5 na na 175 
ginar 16 LUMCONBayou 12/9/2004 09:50 21 21 10 5.6 6.0 7.5 7.2 na na 190 
ginar 16 LUMCONBayou 12/9/2004 10:25 20.5 20.5 10 6.0 5.4 7.8 7.7 na na 184.5 
ginar 16 LUMCONBayou 12/9/2004 09:50 21 20 5.8 5.2 7.6 7.6 na na 190 
ginar 16 LUMCONBayou 12/9/2004 10:30 21.5 21 5.8 7.7 7.7 na na 162 
lgaudet 19 LUMCONBayou 12/13/2004 09:42 17 16 2.2 8.1 7.9 na na 145 
lgaudet 19 LUMCONBayou 12/13/2004 09:42 17 17 6.6 6.2 7.9 na na 145 
lgaudet 19 LUMCONBayou 12/13/2004 09:00 16 19 6.2 6.4 7.3 7.3 na na 146 
lgaudet 19 LUMCONBayou 12/13/2004 09:00 16 16 5.4 4.6 7.4 7.6 na na 146 
Lumcon LUMCONBayou 12/15/2004 11:34 13 13 9.3 11.2 8.0 8.0 na na 140 
Lumcon LUMCONBayou 12/15/2004 11:34 10 10 11 10 8.3 8.0 na na 140 
Lumcon LUMCONBayou 12/15/2004 10:32 10 9.8 7.4 7.4 na na 141 
Lumcon LUMCONBayou 12/15/2004 10:32 10 9.4 10.2 7.5 7.8 na na 141 
Lumcon LUMCONBayou 12/15/2004 10:31 8.6 8.4 7.1 7.5 na na 142 
jennifera 26 LUMCONBayou 12/16/2004 11:40 11 11 9.5 10 8.2 8.1 na na 148 
jennifera 26 LUMCONBayou 12/16/2004 10:40 11 11.5 9.4 9.4 7.4 7.4 na na 151 
jennifera 26 LUMCONBayou 12/16/2004 10:36 11 11 10 7.4 7.3 7.7 na na 151 
jennifera 26 LUMCONBayou 12/16/2004 11:40 13 13 10 8.9 8.2 7.8 na na 148 
jennifera 26 LUMCONBayou 12/16/2004 11:25 10 12 8.4 9.6 8.2 8.1 na na 158.6 
timh 14 LUMCONBayou 1/4/2005 10:53 22 22 15 14 7.2 7.6 8.0 8.0 na na 174 
timh 14 LUMCONBayou 1/4/2005 10:55 20 20 15 15 7.0 7.1 8.2 8.1 na na 174 
timh 14 LUMCONBayou 1/4/2005 10:55 18 18 14 13 8.3 6.7 8.0 7.8 na na 174 
timh 14 LUMCONBayou 1/4/2005 10:15 20 19.5 14 12 7.9 na na 173 
timh 14 LUMCONBayou 1/4/2005 10:02 19 19 15 12 7.0 4.2 8.2 8.1 na na 172.5 
timh 14 LUMCONBayou 1/4/2005 9:57 19 19 13 11 6.8 7.9 7.7 na na 172.5 
paigea 15 LUMCONBayou 1/5/2005 10:10 19 20 12 14 6.4 5.4 8.0 7.9 na na 178 
paigea 15 LUMCONBayou 1/5/2005 10:58 21 28 13 14 6.0 7.0 8.0 8.0 na na 179 
paigea 15 LUMCONBayou 1/5/2005 10:58 26 26 13 14 6.4 6.8 7.8 7.7 na na 182 
paigea 15 LUMCONBayou 1/5/2005 10:16 22 24 12 10 5.5 8.0 7.4 8.0 na na 178 
pboquet 46 LUMCONBayou 1/7/2005 10:20 20 21 10 7.3 7.4 na na 166 
pboquet 46 LUMCONBayou 1/7/2005 10:20 21 21 10 4.8 5.6 7.4 7.4 na na 166 
pboquet 46 LUMCONBayou 1/7/2005 11:15 20 20 10 6.6 7.1 7.3 na na 172 
pboquet 46 LUMCONBayou 1/7/2005 11:07 21 20 10 10 5.6 4.6 6.9 6.9 na na 170 
pboquet 46 LUMCONBayou 1/7/2005 11:15 23 23 10 10 7.0 7.2 7.5 7.4 na na 172 
paigea 15 LUMCONBayou 1/11/2005 10:46 22 22 7.4 7.3 na na 150 
paigea 15 LUMCONBayou 1/11/2005 10:45 25 21.5 5.6 5.4 7.7 7.4 na na 150 
paigea 15 LUMCONBayou 1/11/2005 10:52 24 22 7.2 4.8 7.5 7.2 na na 150 
paigea 15 LUMCONBayou 1/11/2005 10:15 23.5 23 7.0 7.0 5.2 5.2 7.5 7.4 na na 152.5 
paigea 15 LUMCONBayou 1/11/2005 10:25 23 22 4.4 NA 7.8 7.8 na na 152 
paigea 15 LUMCONBayou 1/11/2005 10:12 21 21 4.4 5.1 7.5 7.4 na na 152 
Dchauvin 29 LUMCONBayou 1/20/2005 10:55 14 14 10.0 10.0 8.1 8.0 na na 150 
Lumcon LUMCONBayou 1/23/2005 9:05 10 9.2 7.3 7.4 na na 122 
Lumcon LUMCONBayou 1/23/2005 9:14 8.6 9.2 7.4 7.3 na na 122 
Dchauvin 29 LUMCONBayou 1/27/2005 11:00 16 16 8.2 8.2 7.8 7.8 na na 143 
Dchauvin 29 LUMCONBayou 2/3/2005 13:50 12 12 8.2 8.2 7.8 7.9 na na 183 
Dchauvin 29 LUMCONBayou 2/10/2005 10:40 14 14 7.8 7.8 7.8 7.8 na na 152 
shelia 17 LUMCONBayou 2/15/2005 10:36 17 18 6.8 7.6 7.6 na na 186 
shelia 17 LUMCONBayou 2/15/2005 10:35 20 20 6.6 6.5 7.7 7.7 na na 186 
shelia 17 LUMCONBayou 2/15/2005 10:35 19 19 7.4 7.2 7.8 7.8 na na 186 
shelia 17 LUMCONBayou 2/15/2005 9:35 18 18 7.4 7.6 7.5 7.5 na na 184 
shelia 17 LUMCONBayou 2/15/2005 9:44 17 18 4.8 7.2 7.5 7.5 na na 184 
shelia 17 LUMCONBayou 2/15/2005 9:35 19 18 6.8 6.4 7.6 7.7 na na 184 
rbueche 48 LUMCONBayou 2/16/2005 10:28 20 20 6.6 7.4 7.8 7.8 na na 180 
rbueche 48 LUMCONBayou 2/16/2005 10:30 19 19 6.8 6.8 7.9 7.8 na na 180 
rbueche 48 LUMCONBayou 2/16/2005 10:20 20 20 6.6 7.8 na na 180 
rbueche 48 LUMCONBayou 2/16/2005 9:30 21 20 5.3 7.7 7.5 na na 175 
rbueche 48 LUMCONBayou 2/16/2005 9:35 20 19 6.6 7.8 7.9 na na 177 
rbueche 48 LUMCONBayou 2/16/2005 09:30 20 20 7.4 5.6 7.8 7.8 na na 175 
Lumcon LUMCONBayou 2/17/2005 10:35 19 19 6.2 6.8 7.8 7.6 na na 168 
Lumcon LUMCONBayou 2/17/2005 9:55 19 18 6.2 6.6 8.2 8.2 na na 165 
Lumcon LUMCONBayou 2/17/2005 9:55 20 20 5.6 7.0 8.0 8.0 na na 165 
Lumcon LUMCONBayou 2/17/2005 9:15 16 17.5 4.9 7.5 7.6 na na 165 
Lumcon LUMCONBayou 2/17/2005 10:35 21 20 6.8 6.2 7.8 7.8 na na 168 
Lumcon LUMCONBayou 2/19/2005 10:55 16 17 6.6 7.0 8.2 8.0 na na 172 
Lumcon LUMCONBayou 2/19/2005 10:53 16 17 6.6 7.0 8.2 8.0 na na 172 
Lumcon LUMCONBayou 2/19/2005 10:45 21 16 7.8 7.8 7.9 7.7 na na 73 
Lumcon LUMCONBayou 2/19/2005 10:52 15 14 6.6 7.8 8.1 7.0 na na 173 
Lumcon LUMCONBayou 2/19/2005 10:52 15 14 6.6 7.8 8.1 7.8 na na 173 
Lumcon LUMCONBayou 2/19/2005 10:55 21 16 7.8 7.8 7.9 7.7 na na 173 
Lumcon LUMCONBayou 2/19/2005 09:30 16 17 20 20 7.8 7.8 7.8 8.0 na na NA 
Lumcon LUMCONBayou 2/19/2005 15:00 17 18 8.0 9.0 7.4 7.0 8.2 7.8 na na 188 
Lumcon LUMCONBayou 2/19/2005 15:00 17 18 8.0 9.0 7.4 7.0 8.2 7.8 na na 188 
Lumcon LUMCONBayou 2/19/2005 15:20 15.5 16 10 7.1 7.6 8.3 8.0 na na 189 
Lumcon LUMCONBayou 2/19/2005 15:20 15.5 16 10 7.1 7.6 8.3 8.0 na na 189 
lportier 59 LUMCONBayou 3/1/2005 11:00 17 17 7.2 8.6 7.7 7.6 na na 164 
lportier 59 LUMCONBayou 3/1/2005 11:00 15 17 7.4 6.8 8.2 8.2 na na 162 
lportier 59 LUMCONBayou 3/1/2005 11:00 17 18 7.2 7.8 7.9 7.9 na na 166 
lportier 59 LUMCONBayou 3/1/2005 9:54 16 16 7.2 7.4 7.8 7.8 na na 160 
lportier 59 LUMCONBayou 3/1/2005 9:54 17 19 7.4 7.6 7.8 7.9 na na NA 
lportier 59 LUMCONBayou 3/1/2005 9:54 17 17 7.2 7.6 7.8 7.8 na na 160 
timh 14 LUMCONBayou 3/3/2005 10:00 15 14 9.2 8.2 8.3 8.2 na na 184 
timh 14 LUMCONBayou 3/3/2005 10:00 14 13 9.2 8.4 8.2 na na 184 
timh 14 LUMCONBayou 3/3/2005 10:06 14 13 8.2 8.2 7.7 7.8 na na 184 
Dchauvin 29 LUMCONBayou 3/10/2005 10:50 15 15 8.6 8.5 8.1 8.0 na na 140 
Lumcon LUMCONBayou 3/14/2005 10:40 22 22 8.2 7.7 7.9 na na 170 
Lumcon LUMCONBayou 3/14/2005 10:40 20.5 19.5 3.5 8.5 8.6 5.2 na na 170 
Lumcon LUMCONBayou 3/14/2005 10:40 21 19 6.4 7.6 7.5 7.7 na na 170 
Murt LUMCONBayou 3/23/2005 09:20 20 21 6.4 5.5 7.5 7.9 na na 155 
Dchauvin 29 LUMCONBayou 3/31/2005 14:30 18 23 7.0 6.6 7.8 7.7 na na 196 
Lumcon LUMCONBayou 4/7/2005 13:36 NA 22 NA NA NA 7.6 na na 155 
Lumcon LUMCONBayou 4/7/2005 13:37 NA 22 NA NA 5.5 NA 7.6 na na 155 
Lumcon LUMCONBayou 4/7/2005 13:36 22 NA NA 4.2 NA 7.6 NA na na 155 
wleblanc 47 LUMCONBayou 4/11/2005 10:32 22 22 5.8 5.8 7.5 7.6 na na 190 
wleblanc 47 LUMCONBayou 4/12/2005 9:30 23 23 10 5.6 5.7 7.6 7.6 na na 185 
wleblanc 47 LUMCONBayou 4/12/2005 9:50 22 24 10 10 7.6 7.8 na na 185 
wleblanc 47 LUMCONBayou 4/12/2005 10:32 23 23 10 5.6 5.4 7.8 7.8 na na 190 
wleblanc 47 LUMCONBayou 4/12/2005 10:32 23 22 10 10 6.5 7.1 7.5 7.6 na na 79 
wleblanc 47 LUMCONBayou 4/13/2005 10:43 22 23 5.0 5.0 NA 7.9 7.8 na na 185 
wleblanc 47 LUMCONBayou 4/13/2005 10:57 26 24 5.6 7.4 7.8 7.8 na na 185 
wleblanc 47 LUMCONBayou 4/13/2005 10:45 23 23 5.8 7.7 7.8 na na 185 
wleblanc 47 LUMCONBayou 4/13/2005 9:45 22.5 24 10 3.4 4.4 7.7 na na 184 
wleblanc 47 LUMCONBayou 4/13/2005 9:50 22 22 6.4 7.6 7.6 na na 184 
wleblanc 47 LUMCONBayou 4/13/2005 9:45 25 25 6.4 8.1 na na 184 
jkniola 58 LUMCONBayou 4/14/2005 10:49 22 21.5 6.6 8.1 7.9 na na 178 
jkniola 58 LUMCONBayou 4/14/2005 10:49 22 22 4.0 4.0 5.8 5.8 7.8 7.8 na na 178 
jkniola 58 LUMCONBayou 4/14/2005 10:00 22 21 7.7 8.2 7.7 7.8 na na 173 
jkniola 58 LUMCONBayou 4/14/2005 9:22 20 20 6.2 6.6 7.8 7.8 na na 115 
jkniola 58 LUMCONBayou 4/14/2005 9:22 21 21 7.8 na na 172 
Lumcon LUMCONBayou 4/16/2005 13:05 20 NA NA NA 7.7 NA na na NA 
Lumcon LUMCONBayou 4/16/2005 11:00 23 NA NA NA 7.7 NA na na NA 
Lumcon LUMCONBayou 4/16/2005 11:00 23 NA 4.0 NA NA 7.7 NA na na NA 
Lumcon LUMCONBayou 4/16/2005 11:00 24 NA NA 2.7 NA 8.0 NA na na NA 
Lumcon LUMCONBayou 4/16/2005 11:00 25 NA NA NA 8.3 NA na na NA 
Lumcon LUMCONBayou 4/16/2005 15:15 24 NA NA 13.8 NA 7.9 NA na na NA 
Lumcon LUMCONBayou 4/16/2005 15:18 NA 23 NA NA 6.4 NA 7.6 na na NA 
Dchauvin 29 LUMCONBayou 4/21/2005 12:05 24 25 12 13 5.2 5.6 7.6 7.6 na na NA 
Dchauvin 29 LUMCONBayou 4/28/2005 11:27 23 23 10 6.6 7.0 7.7 7.7 na na 192 
Dchauvin 29 LUMCONBayou 5/5/2005 10:50 21 20 10 14 7.0 7.4 7.9 7.8 na na 175 
Lumcon LUMCONBayou 5/12/2005 14:25 29 30 10 10 5.4 5.4 8.2 8.0 na na 195 
Lumcon LUMCONBayou 5/17/2005 10:56 28 28 10 5.0 5.0 7.6 7.5 na na 183.5 
Lumcon LUMCONBayou 5/17/2005 10:55 28 28 10 10 7.6 7.6 na na 183.5 
Lumcon LUMCONBayou 5/17/2005 10:55 27 27 4.8 5.0 7.6 7.4 na na 183.5 
Lumcon LUMCONBayou 5/17/2005 10:05 26.0 27.0 10 4.2 4.4 7.3 7.4 na na 180 
Lumcon LUMCONBayou 5/17/2005 10:15 27 38 10 4.6 7.5 7.5 na na 180 
Lumcon LUMCONBayou 5/17/2005 10:15 29 30 10 5.2 7.7 na na 180 
Lumcon LUMCONBayou 5/17/2005 10:15 27 38 10 4.6 7.5 7.5 na na 180 
Lumcon LUMCONBayou 5/19/2005 10:00 28 28 12 11 4.8 5.4 7.8 7.6 na na 182 
Lumcon LUMCONBayou 5/19/2005 10:00 28 29 13 12 4.8 7.6 7.7 na na 182 
Lumcon LUMCONBayou 5/19/2005 9:50 27 28 12 11 4.4 7.6 7.5 na na 182 
Lumcon LUMCONBayou 5/19/2005 10:45 30 29 10 10 4.8 7.6 7.7 na na 180 
Lumcon LUMCONBayou 5/26/2005 11:01 28 29 10 10 4.2 7.7 7.6 na na 194 
Lumcon LUMCONBayou 5/26/2005 11:01 31 32 5.2 4.1 7.9 7.8 na na 194 
Lumcon LUMCONBayou 5/26/2005 10:08 29 29 7.5 5.8 4.4 7.5 7.6 na na 190 
Lumcon LUMCONBayou 5/26/2005 10:05 28 29 NA 7.3 7.9 na na 190 
Lumcon LUMCONBayou 5/26/2005 10:07 28 29.5 3.6 3.8 7.7 na na 190 
Dchauvin 29 LUMCONBayou 6/9/2005 10:35 30 31 4.2 4.2 7.7 7.6 na na 200 
lrodrigue 72 LUMCONBayou 6/16/2005 10:06 31 31 8.0 7.8 na na 180 
Dchauvin 29 LUMCONBayou 6/24/2005 10:45 30 30 13 14 4.8 4.8 7.5 7.5 na na 197 
Dchauvin 29 LUMCONBayou 7/7/2005 11:00 29 29 10 5.2 5.4 7.8 7.7 na na 192 
Dchauvin 29 LUMCONBayou 7/22/2005 12:15 31 31 12 12 5.2 4.6 7.6 7.6 na na 203 
Dchauvin 29 LUMCONBayou 8/5/2005 10:45 28 29 10 10 4.6 5.0 7.8 7.9 na na 187 
lrodrigue 72 LUMCONBayou 8/11/2005 11:20 33.5 34.5 3.8 3.8 NA NA na na NA 
Dchauvin 29 LUMCONBayou 8/18/2005 10:40 31 31 14 16 3.4 3.8 7.8 7.8 na na 197 
Dchauvin 29 LUMCONBayou 8/25/2005 11:50 31 31 12 12 3.0 3.2 7.7 7.6 na na 192 
Lumcon LUMCONBayou 9/8/2005 12:50 29 30.5 12 11 3.6 7.9 7.8 na na 180 
Lumcon LUMCONBayou 9/15/2005 13:20 NA 31 NA 14 NA 4.4 NA 7.8 na na 190 
Dchauvin 29 LUMCONBayou 9/29/2005 11:25 30 30 16 14 4.4 5.1 7.4 7.4 na na 193 
Dchauvin 29 LUMCONBayou 10/6/2005 13:15 28 28 22 21 4.6 4.5 7.7 7.7 na na 183 
Dchauvin 29 LUMCONBayou 10/14/2005 11:05 26 27 19 17 5.0 5.2 7.4 7.4 na na 180 
Dchauvin 29 LUMCONBayou 10/20/2005 11:40 26 26 21 24 4.6 4.8 7.6 7.6 na na NA 
Dchauvin 29 LUMCONBayou 11/1/2005 10:47 22 22 23 23 5.8 5.6 7.9 7.9 na na 160 
Jprerost 30 LUMCONBayou 11/1/2005 9:51 20 20 21 20 7.2 6.4 7.9 7.9 na na 160 
Dchauvin 29 LUMCONBayou 11/1/2005 10:47 19 19 24 24 6.7 7.6 7.8 7.6 na na 160 
Dchauvin 29 LUMCONBayou 11/1/2005 10:47 20 20 23 22 3.0 3.6 7.7 7.6 na na 160 
Jprerost 30 LUMCONBayou 11/1/2005 9:54 20 20 22 24 5.6 5.8 7.9 7.8 na na 160 
Jprerost 30 LUMCONBayou 11/1/2005 9:51 19 19 22 22 5.7 6.2 7.7 7.7 na na 160 
kmarcantel 45 LUMCONBayou 11/3/2005 10:44 19 18 20 20 7.6 7.0 7.9 7.9 na na 155 
kmarcantel 45 LUMCONBayou 11/3/2005 9:52 19.0 20.0 24 22 6.8 7.2 7.8 7.6 na na 160 
kmarcantel 45 LUMCONBayou 11/3/2005 9:52 23 21 23 21 7.8 7.7 na na 147 
kmarcantel 45 LUMCONBayou 11/3/2005 9:52 19 20 19 22 6.4 6.2 7.9 7.9 na na 140 
kmarcantel 45 LUMCONBayou 11/3/2005 10:45 18 19 19 21 7.3 6.8 7.9 7.8 na na 155 
lportier 59 LUMCONBayou 11/8/2005 9:50 27 28 24 23 4.2 6.2 7.5 7.4 na na 169 
lportier 59 LUMCONBayou 11/8/2005 09:50 25 25 24 22 2.7 4.8 7.7 7.7 na na 169 
lportier 59 LUMCONBayou 11/8/2005 9:50 24 25 24 24 4.0 4.4 7.6 7.6 na na 169 
lportier 59 LUMCONBayou 11/8/2005 9:50 24 25 30 30 3.9 4.2 7.0 NA na na 169 
lportier 59 LUMCONBayou 11/8/2005 09:50 24 25 24 23 5.4 7.4 7.4 na na 169 
Dchauvin 29 LUMCONBayou 11/17/2005 11:15 11 11 26 26 9.8 9.4 8.2 8.2 na na 100 
Dchauvin 29 LUMCONBayou 12/1/2005 10:35 15 15 25 28 8.4 8.0 7.8 7.3 na na 140 
paigea 15 LUMCONBayou 12/6/2005 10:45 12 13 22 20 8.1 8.8 8.3 8.9 na na 145 
paigea 15 LUMCONBayou 12/6/2005 10:43 11 11 20 20 8.8 7.6 7.6 na na 145 
paigea 15 LUMCONBayou 12/6/2005 10:00 11 11 21 21 NA 6.2 7.1 7.7 na na 145 
paigea 15 LUMCONBayou 12/6/2005 10:00 14 15 23 25 7.7 7.7 na na 111 
paigea 15 LUMCONBayou 12/6/2005 10:50 12 12 20 20 9.2 7.0 8.0 8.0 na na 145 
paigea 15 LUMCONBayou 12/6/2005 10:13 10 11 20 20 5.8 7.2 7.8 7.9 na na 145 
paigea 15 LUMCONBayou 12/8/2005 10:46 13 16 25 30 7.5 8.4 8.3 na na 179 
paigea 15 LUMCONBayou 12/8/2005 10:15 12 12 28 26 7.5 9.0 8.5 8.6 na na 179 
paigea 15 LUMCONBayou 12/8/2005 10:46 13 13 23 21 8.4 na na 179 
paigea 15 LUMCONBayou 12/8/2005 9:51 13 12 27 25 8.2 9.0 7.8 7.9 na na 180 
paigea 15 LUMCONBayou 12/8/2005 10:14 15 15 35 23 8.2 9.0 7.8 7.9 na na 180 
paigea 15 LUMCONBayou 12/8/2005 9:51 14 12 25 26 8.5 8.1 8.1 na na 180 
lcrochet 44 LUMCONBayou 12/14/2005 11:10 16 16 22 22 8.8 8.1 8.1 na na 149 
lcrochet 44 LUMCONBayou 12/14/2005 11:10 14 16 23 20 8.2 7.6 7.8 7.8 na na 149 
lcrochet 44 LUMCONBayou 12/14/2005 10:15 18 17 24 23 6.8 7.8 7.7 na na 145 
lcrochet 44 LUMCONBayou 12/14/2005 11:12 18 18 24 24 7.4 8.0 8.1 8.0 na na 148 
lcrochet 44 LUMCONBayou 12/14/2005 10:20 19 19 23 22 8.2 8.0 8.0 na na 145 
lcrochet 44 LUMCONBayou 12/14/2005 10:20 15 15 22 23 5.2 7.7 7.8 8.0 na na 145 
Dchauvin 29 LUMCONBayou 12/15/2005 11:55 15 15 23 23 7.6 7.4 8.2 8.0 na na 140 
Dchauvin 29 LUMCONBayou 12/22/2005 09:46 20 23 8.7 9.0 8.4 8.2 na na 140 
Dchauvin 29 LUMCONBayou 1/5/2006 11:20 18 18 20 20 6.4 6.6 8.1 7.9 na na 137 
dpate 75 LUMCONBayou 1/12/2006 11:34 18 18 16 18 5.4 7.8 7.9 na na 148 
dpate 75 LUMCONBayou 1/12/2006 10:40 12 17 22 21 5.2 7.4 7.5 na na 145 
dpate 75 LUMCONBayou 1/12/2006 10:43 18 18 19 18 4.9 7.4 7.6 na na 145 
Dchauvin 29 LUMCONBayou 1/19/2006 14:05 15 15 15 13 8.8 9.2 7.8 7.6 na na 147 
Dchauvin 29 LUMCONBayou 1/26/2006 11:45 13 12 15 15 8.4 8.0 8.3 8.0 na na 140 
Murt LUMCONBayou 2/2/2006 10:04 21 21 20 20 5.8 5.5 7.6 7.6 na na 183 
Murt LUMCONBayou 2/2/2006 10:08 19 19 20 17 5.6 7.8 7.7 na na 183 
Murt LUMCONBayou 2/2/2006 10:05 21 23 24 20 4.1 5.1 7.5 7.6 na na 183 
Murt LUMCONBayou 2/2/2006 10:00 20 20 20 15 6.4 5.6 7.4 7.4 na na 183 
abarrios 76 LUMCONBayou 2/7/2006 11:00 13 13 15 15 8.4 8.2 8.3 8.3 na na 137 
Dchauvin 29 LUMCONBayou 2/7/2006 11:00 12.5 12 16 15 8.2 8.4 7.5 7.6 na na 138 
Dchauvin 29 LUMCONBayou 2/7/2006 10:15 11 12 13 11 7.6 7.8 7.2 7.4 na na NA 
Dchauvin 29 LUMCONBayou 2/7/2006 10:09 13 12.5 15 15 8.6 7.6 7.8 na na 120 
pboquet 46 LUMCONBayou 2/14/2006 11:14 13 12 10 10.6 8.2 8.1 na na 141 
pboquet 46 LUMCONBayou 2/14/2006 11:14 12 12 NA 9.6 7.2 7.2 na na 140 
pboquet 46 LUMCONBayou 2/14/2006 11:14 14 13.5 10.0 10.0 8.1 8.1 na na 140 
pboquet 46 LUMCONBayou 2/14/2006 10:03 12 13 13 11 7.4 7.6 7.7 na na 140 
pboquet 46 LUMCONBayou 2/14/2006 9:55 14 14 11 11 6.7 7.8 7.8 7.7 na na NA 
pboquet 46 LUMCONBayou 2/14/2006 10:05 11 11 14 7.8 8.4 7.9 7.8 na na 140 
Dchauvin 29 LUMCONBayou 2/16/2006 11:00 16 17 18 15 8.6 8.4 8.0 7.8 na na 172 
Dchauvin 29 LUMCONBayou 3/2/2006 10:55 21 21 19 19 6.2 6.4 7.7 7.6 na na 170 
btassin 73 LUMCONBayou 3/9/2006 10:57 21 21 21 21 4.6 5.4 7.8 7.8 na na 181 
btassin 73 LUMCONBayou 3/9/2006 10:54 22 23 20 20 5.8 NA 8.1 8.0 na na 181 
btassin 73 LUMCONBayou 3/9/2006 10:00 21 20 20 21 5.4 5.6 7.5 7.5 na na 179 
btassin 73 LUMCONBayou 3/9/2006 10:05 24 24 20 20 5.2 5.8 7.3 7.2 na na 175 
Dchauvin 29 LUMCONBayou 3/23/2006 10:45 16 17 21 20 7.0 7.6 7.8 7.7 na na 161 
Dchauvin 29 LUMCONBayou 3/31/2006 13:55 24 25 26 27 6.4 7.2 7.9 7.8 na na 182 
rbueche 48 LUMCONBayou 4/4/2006 10:30 25 25 15 12 5.6 6.0 8.1 7.7 na na 167 
rbueche 48 LUMCONBayou 4/4/2006 9:46 27 27 16 15 3.6 4.6 7.1 7.3 na na 162 
rbueche 48 LUMCONBayou 4/4/2006 9:46 26 25 18 14 4.8 6.0 7.4 7.4 na na 162 
rbueche 48 LUMCONBayou 4/4/2006 10:31 24 24 15 10 4.0 6.4 7.4 7.4 na na 167 
rbueche 48 LUMCONBayou 4/4/2006 10:34 23 26 15 12 3.6 5.4 7.8 7.9 na na 166 
Dchauvin 29 LUMCONBayou 4/6/2006 10:48 24 24 17 20 5.8 5.4 8.0 7.8 na na 172 
Lumcon LUMCONBayou 4/8/2006 09:35  23.8  17  5.4  7.2  13.9  
Lumcon LUMCONBayou 4/8/2006 9:30 NA 23.8 NA 17 NA 5.4 NA 7.2 NA 13.9 NA 
Lumcon LUMCONBayou 4/8/2006 0930 NA 24 NA 18 NA 6.2 NA 7.3 NA 17 162 
Lumcon LUMCONBayou 4/8/2006 0935 NA 26 NA 17 NA 4.9 NA 7.5 NA 16.2  
Lumcon LUMCONBayou 4/8/2006 09:37  26  17  5.2  7.5  12.0 cm 162 
Lumcon LUMCONBayou 4/8/2006 12:18 na 24 na 5.4 na 5.4 na 7.7 na 10 na 
Lumcon LUMCONBayou 4/8/2006 14:00  26  19  5.7  7.6  22.8 166 
Lumcon LUMCONBayou 4/8/2006 1410  24  20  7.4  7.35  26.2 110 
Lumcon LUMCONBayou 4/8/2006 14:02  25 C  18   7.6  22.8 166 
Lumcon LUMCONBayou 4/8/2006 14:00  25  16   7.3  21.8 166 
Lumcon Five LUMCONBayou 4/8/2006 14:02  25 C  18   7.6  22.8 166 
Lumcon LUMCONBayou 4/8/2006 13:45  23  20  5.7  7.4  21 166 
jenniferp 13 LUMCONBayou 4/11/2006 10:58 24 24 22 20 5.2 5.4 8.6 8.6 NA NA NA 
jenniferp 13 LUMCONBayou 4/11/2006 10:50 23 23 21         
jenniferp 13 LUMCONBayou 4/11/2006 10:50 23 23 21 20 5.8 7.8 8.0 7.9 NA NA 183 
jenniferp 13 LUMCONBayou 4/11/2006 9:45 24 25 23 22 6.4 7.8 7.7 n/a n/a 182 
jenniferp 13 LUMCONBayou 4/11/2006 10:58 24 24 22 20 5.2 5.4 8.6 8.6 NA NA NA 
jenniferp 13 LUMCONBayou 4/11/2006 10:50 24 24 21 19 5.6 6.8 7.6 7.7 NA NA 183 
jenniferp 13 LUMCONBayou 4/11/2006 10:50 23 23 21 20 5.8 7.8 8.0 7.9 NA NA 183 
jenniferp 13 LUMCONBayou 4/11/2006 9:45 26 26 20 20 5.5 7.9 7.9 NA NA 180 
jenniferp 13 LUMCONBayou 4/11/2006 9:43 22 23 22 23 5.3 6.6 7.7 7.6 NA NA NA 
jenniferp 13 LUMCONBayou 4/13/2006 10:52 26.5 28 24 24 4.4 5.4 7.7 7.7 NA NA 171 
jenniferp 13 LUMCONBayou 4/13/2006 NA 24 25 24 26 6.8 7.2 8.3 8.2 NA NA 172 
jenniferp 13 LUMCONBayou 4/13/2006 9:54 24 24 23 22 4.4 5.0 7.4 7.4 NA NA 172 
jenniferp 13 LUMCONBayou 4/13/2006 9:50 24 24 25 21 4.4 6.4 7.7 7.8 NA NA 172 
jenniferp 13 LUMCONBayou 4/13/2006 NA 25 25 24 24 4.4 4.6 7.6 7.6 NA NA 171 
jenniferp 13 LUMCONBayou 4/13/2006 9:40 24 25 24 21 5.      
jenniferp 13 LUMCONBayou 4/13/2006 9:40 24 25 24 21 5.4 8.3 8.2 NA NA 172 
jenniferp 13 LUMCONBayou 4/13/2006 10:15 25 25 24 24 4.4 4.6 7.6 7.6 NA NA 171 
jenniferp 13 LUMCONBayou 4/13/2006 9:50 172  172 25 21 4.4 6.4 8.3 8.4 NA NA 99 
jenniferp 13 #5 LUMCONBayou 4/13/2006 10:52 27 1/2 28 24 24 4.4 5.5 7.7 7.7   171 
Dchauvin 29 LUMCONBayou 4/21/2006 11:00 27 26 20 24 4.6 4.6 8.0 7.8 NA NA 172 
Dchauvin 29 LUMCONBayou 5/4/2006 10:50 26 27 18 16 4.6 5.4 7.6 7.6 NA NA 178 
Dchauvin 29 LUMCONBayou 5/11/2006 10:32 24 23 16 14 6.2 5.0 7.8 7.6 NA NA 160 
Dchauvin 29 LUMCONBayou 5/11/2006  27 28 15 15 13.8 5.6 7.5 7.6 NA NA 150 
Dchauvin 29 LUMCONBayou 5/11/2006  25 26 15 15 4.2 7.4 7.6 7.5 NA NA 150 
Dchauvin 29 LUMCONBayou 5/11/2006 10:16 25 24 14 15 6.6 7.1 7.7 7.7 NA NA 160 
Dchauvin 29 LUMCONBayou 5/18/2006 10:40 24 24 13 11 6.6 6.2 8.3 8.2 NA NA 165 
Dchauvin 29 LUMCONBayou 5/24/2006 10:35 29 30 15 12 3.6 4.2 8.1 8.1 NA NA 185 
Dchauvin 29 LUMCONBayou 6/15/2006 11:10 30 30 20 21 3.9 4.0 8.0 7.7 NA NA 183 
Dchauvin 29 LUMCONBayou 7/14/2006 10:57 31 32 16 16 4.0 3.8 7.9 7.8 NA NA 180 
Cfinelli LUMCONBayou 8/17/2006 11:33 32 32 13 13 4.6 4.6 7.8 7.8 NA 19.8 177 
Cfinelli LUMCONBayou 8/24/2006 11:11 31 31 18 18 3.0 3.8 7.8 7.8 25.6 NA 174 
Lumcon NA LUMCONBayou 9/28/2006 10:18 26 26 16 18 2,2 3.6 7.6 7.5 NA 23 NA 
Lumcon NA LUMCONBayou 10/5/2006 10:20 28 30 19 18 3.2 4.2 7.6 7.7 NA 26.2 NA 
Lumcon NA LUMCONBayou 10/5/2006 10:20 29 30 18 20 2.6 3.0 7.4 7.1 NA 26 NA 
Murt LUMCONBayou 10/25/2006 13:25 20 20 16 20 6.8 7.4 8.2 8.2 30 30  
Lumcon NA LUMCONBayou 12/6/2006  10 16 15 8.4 10 8.5 8.3 40.2 NA NA 
Lumcon NA LUMCONBayou 12/6/2006 9:45 11 10 15 11 8.6 10 8.5 8.3 40.1 NA NA 
Lumcon NA LUMCONBayou 12/6/2006 9:45 10 12 14 15 10 10 8.8 8.4 41.2 NA NA 
Lumcon NA LUMCONBayou 12/7/2006 09:45 13 13 15 15 7.4 9.2 8.8 8.7 NA 44 129 
Lumcon NA LUMCONBayou 12/7/2006 09:45 13 12 9.1 NA 8.4 NA NA 44 129 
Lumcon NA LUMCONBayou 12/8/2006 9:16 15 15 NA 8.3 24 NA 117 
Lumcon NA LUMCONBayou 12/8/2006 9:16 14 6.6 9.4 8.2 8.2 24 NA 117 
Lumcon NA LUMCONBayou 12/8/2006 9:16 14 15 6.5 8.2 14 NA 117 
Lumcon LUMCONBayou 12/11/2006 13:45 19 15 16 20 6.2 8.8 8.2 8.4 24 17 260 
Lumcon LUMCONBayou 12/11/2006  14 15 23 17 13 9.6 8.1 NA 60 260 
Lumcon LUMCONBayou 12/11/2006 13:28 14 15 19 16 10 10 8.2 8.3 60 60 260 
Lumcon NA LUMCONBayou 12/11/2006  14 15 NA 17 NA 14 NA 8.2 54 60 260 
Lumcon NA LUMCONBayou 12/11/2006  15 20 20 18 15 12 8.1 8.2 60 60 200 
Lumcon NA LUMCONBayou 12/11/2006 13:28 11 14 23 17 8.8 10 8.1 8.1 NA 60 260 
Lumcon AC1 LUMCONBayou 12/12/2006 9:50 16 16 20 20 8.4 5.4 8.2 8.0 60 NA NA 
Lumcon LUMCONBayou 12/12/2006 9:50 16 16 20 20 7.2 8.4 7.8 7.8 60 NA NA 
Lumcon LUMCONBayou 12/12/2006 9:50 15 15 20 20 7.3 8.0 7.6 7.5 NA 60 NA 
Lumcon NA LUMCONBayou 12/13/2006 09:33 16 17 24 20 6.8 7.4 8.5 8.5 NA 60+ 168 
Lumcon LUMCONBayou 12/13/2006 09:33 16 15 20 18 6.4 6.8 7.9 8.0 NA 60+ 168 
Lumcon AC2 LUMCONBayou 12/13/2006 09:33 11 17 23 20 6.9 7.8 7.8 NA 60+ 168 
Lumcon NA LUMCONBayou 12/14/2006 09:35 17 17 20 20 7.6 7.8 41 41 NA 
Lumcon NA LUMCONBayou 12/14/2006  16.1 17 18.2 17 6.2 6.4 7.55 7.8 NA 46 171 
Lumcon NA LUMCONBayou 12/14/2006 09:38 17 18 20 20 6.6 6.8 7.4 7.5 NA 41 171 
Lumcon LUMCONBayou 1/11/2007 9:50 19 15 10 10 NA 8.8 8.3 8.3 NA 24.8 159 
Lumcon LUMCONBayou 1/11/2007 09:47 15 14 13 10 7.8 8.1 7.8 7.9 NA 30.3 NA 
Lumcon AC1 LUMCONBayou 1/11/2007 09:45 15 15 13 8.2 8.6 7.8 7.9 NA 24 159 
Lumcon NA LUMCONBayou 1/11/2007 09:47 14 14 7.5 9.2 9.2 7.8 7.8  24.8 NA 
Lumcon NA LUMCONBayou 1/16/2007  13 13 12 10 7.0 8.6 7.8 7.8 NA NA NA 
Lumcon NA LUMCONBayou 1/16/2007 10:30 15 15 12 10 8.9 NA 8.0 7.8 NA NA NA 
Lumcon NA LUMCONBayou 1/16/2007 09:54 14 14 12 12 7.4 7.8 7.8 6.8 6.8 NA 
Lumcon LUMCONBayou 1/18/2007  10 10 8.9 3.6 7.8 7.8 NA 23 140 
Lumcon AC1 LUMCONBayou 1/18/2007  11 10 8.8 8.7 7.8 7.8 NA 22 140 
Lumcon LUMCONBayou 1/25/2007 10:34 14 14 11 4.8 7.2 8.2 8.6 17 NA NA 
Lumcon LUMCONBayou 1/25/2007 10:33 11 13 8.6 8.6 7.5 7.9 14.9 NA 160 
Lumcon LUMCONBayou 1/25/2007 10:33 12 13 NA 10 8.2 8.1 17 NA 160 
Lumcon NA LUMCONBayou 2/6/2007  14 13 8.6 7.8 NA 21.2 155 
Lumcon NA LUMCONBayou 2/6/2007  13 11 8.3 9.3 7.9 7.8 NA 17.2 155 
Lumcon NA LUMCONBayou 2/6/2007  11.5 11 8.3 8.2 8.3 8.3 NA 28.9 155 
Lumcon LUMCONBayou 2/8/2007 10:05 14 13 8.6 9.2 8.6 8.2 NA NA NA 
Lumcon NA LUMCONBayou 2/8/2007 10:10 16 14 9.2 6.4 8.4 8.1 8.2 NA NA 
Lumcon NA LUMCONBayou 2/8/2007 10:00 16 15 8.4 8.0 9.4 NA NA 
Lumcon LUMCONBayou 2/15/2007 09:41 10 9.5 NA 8.2 8.2 NA 16 NA 
Lumcon LUMCONBayou 2/15/2007  10 7.0 10.0 8.3 8.2 NA 16 NA 
Lumcon LUMCONBayou 2/15/2007  10 10 9.6 11.4 7.9 8.1 NA 16.2 NA 
Lumcon LUMCONBayou 3/6/2007  18 18 8.3 8.0 8.0 NA 13 150 
Lumcon LUMCONBayou 3/6/2007  20 17 6.8 7.8 8.1 8.0 NA 17 150 
Lumcon LUMCONBayou 3/6/2007 1015 18 18 6.2 7.2 7.4 8.2 NA 17.1 150 
Lumcon LUMCONBayou 3/6/2007 1000 17 18 8.3 NA 13.2 150 
Lumcon LUMCONBayou 3/8/2007 10:25 18 20 14 6.2 7.8 8.0 NA 27 165 
Lumcon LUMCONBayou 3/8/2007 10:45 20 20 10 7.2 7.2Q 7.8 8.0 NA 31.2 165 
Lumcon 03 LUMCONBayou 3/8/2007 10:10 18 20 10 NA 7.7 8.1 28 28.2 165 
Lumcon LUMCONBayou 4/3/2007 1155 NA 27 NA NA NA 6.0 NA 7.52 NA 27.6 NA 
Lumcon LUMCONBayou 4/3/2007 1155 NA 27 NA NA NA 7.9 NA 7.72 NA 27.2 191 
Lumcon LUMCONBayou 4/3/2007 1155 NA 26 NA NA NA 5.5 NA  NA 30.1 NA 
Lumcon LUMCONBayou 4/3/2007 1155 NA 27 NA NA NA 6.1 NA 9.79 NA 40.8 NA 
renen 28 LUMCONBayou 4/17/2007 11:23 21 21 4.35 5.6 7.4 7.8 NA 27.2 173 
renen 28 LUMCONBayou 4/17/2007 9:15 20 21 6.4 7.8 7.8 7.8  22.1 173 
renen 28 LUMCONBayou 4/17/2007 11:24 20 21 6.8 6.1 7.0 6.8  43 173 
renen 28 LUMCONBayou 4/19/2007 9:55 22 22.5 6% 5% 6.2 8.1 8.2 14,4cm 14.4cm 1.89m 
renen 28 LUMCONBayou 4/19/2007 9:55 23 23 6.1 8.5 8.3 16.6 16.6 189 
renen 28 LUMCONBayou 4/19/2007 9:55 21 22 7.8 6.4 8.3 8.3 NA 13.9 139 
Lumcon LUMCONBayou 4/26/2007 10:20 26 26 13 15 6.3 7.4 7.4 NA 20.1 NA 
Lumcon LUMCONBayou 4/26/2007  25 26 14 14 7.6 5.6 7.6 7.6 NA 25 NA 
Lumcon LUMCONBayou 4/26/2007  25 25 10 10 4.5 8.0 7.4 7.2 NA 28 NA 
Lumcon LUMCONBayou 5/9/2007 10:30 25 27 25 47 4.2  7.8 NA 23 NA 178 
Lumcon LUMCONBayou 5/9/2007 10:30 25 27 25 47 4.2  7.8 NA 23 NA 178 
Lumcon #3 LUMCONBayou 5/9/2007 10:00 25c 27c 15 10 6.0 5.2 7.1 7.3 NA 22 1.78 
Lumcon LUMCONBayou 5/9/2007 10:30 25 27 17 15 NA 5.0 7.8 7.8 NA 19.4 178 
Lumcon LUMCONBayou 5/9/2007 10:30 25 27 17 15 NA 5.0 7.8 7.8 NA 19.4 178 
Lumcon LUMCONBayou 5/10/2007 10:10 27 27 12 3.8 4.4 7.7 8.1 17 17 160 
Lumcon LUMCONBayou 5/10/2007 10:10 27 25 10 3.5 5.2 7.8 7.9 16 16 160 
Lumcon LUMCONBayou 5/10/2007 10:10 29 30 10 3.4 mg/L 5.6 mg/L 7.6 7.7 NA 15 160  
Lumcon LUMCONBayou 7/3/2007 19:07 31.5 32 5.2 4.2 7.4 NA NA 106 
Lumcon LUMCONBayou 7/3/2007 12:10 32 31 10 13 2.2 7.4 7.1 NA 26 180 
Lumcon LUMCONBayou 7/3/2007 20:00 32 31 5.3 4.2 7.6 7.6 NA NA NA 
Lumcon LUMCONBayou 7/3/2007 13:20 32 32 3.2 3.2 7.5 7.4 NA 26.5 180 
Lumcon LUMCONBayou 7/3/2007 21:00 31 31 10 4.3 4.2 7.6 7.7 NA NA NA 
Lumcon LUMCONBayou 7/3/2007 14:10 32 32 10 10 4.8 5.8 7.6 7.6  29 180 
Lumcon LUMCONBayou 7/3/2007 22:00 31 30 10 4.5 4.4 7.8 7.8 NA NA NA 
Lumcon LUMCONBayou 7/3/2007 15:14 32 31 10 4.2 5.2 7.6 7.8 NA 35 180 
Lumcon LUMCONBayou 7/3/2007 23:00 30 29 11 4.2 4.2 7.7 7.8 NA NA NA 
Lumcon LUMCONBayou 7/3/2007 16:09 32 31 10 10 4.4 6.2 7.7 7.8 NA 40 180 
Lumcon LUMCONBayou 7/3/2007 17:05 32 32 10 10 4.8 4.6 7.7 7.7 NA 34 170 
Lumcon LUMCONBayou 7/3/2007 17:46 32 32 10 10 4.8 4.6 7.7 7.8 NA 32 165 
Lumcon LUMCONBayou 7/4/2007 8:20 30 30 4.3 3.2 7.4 7.6 NA NA NA 
Lumcon LUMCONBayou 7/4/2007 3:59 30 30 10 10 3.4 3.2 7.6 7.6 NA NA NA 
Lumcon LUMCONBayou 7/4/2007 9:00 31 30 11 12 4.8 3.4 7.6 7.8 NA NA NA 
Lumcon LUMCONBayou 7/4/2007 5:05 30 30 10 10 4.2 3.6 7.6 7.8 NA NA NA 
Lumcon LUMCONBayou 7/4/2007 6:05 30 30 10 10 7.6 7.8 NA NA NA 
Lumcon LUMCONBayou 7/4/2007 10:00 30 31 10 12 3.4 3.4 7.4 7.6 NA NA NA 
Lumcon LUMCONBayou 7/4/2007 7:00 30 29 10 11 3.4 7.6 7.7 NA NA NA 
Lumcon LUMCONBayou 7/4/2007 00:00 30 29 10 6.3 4.2 7.8 7.9 NA NA NA 
Lumcon LUMCONBayou 9/21/2007 1028 28 28 16 17 4.2 5.4 7.0 7.8 NA 25 NA 
Lumcon LUMCONBayou 9/21/2007 1027 NA 28 NA 15 NA 4.4 NA 6.7 NA 17.4 NA 
Lumcon LUMCONBayou 9/21/2007 1027 28 28 15 15 3.5 7.6 7.6 NA 29 NA 
Lumcon LUMCONBayou 10/31/2007  NA NA NA NA NA NA NA NA NA NA NA 
Lumcon LUMCONBayou 10/31/2007 10:05 19.5 20 16 17 4.2 7.3 4.2 NA 31.4 70 
Lumcon LUMCONBayou 10/31/2007 10:05 22 22 15 25 5.4 3.4 7.8 7.8 NA 27.6 70 
Lumcon LUMCONBayou 10/31/2007 10:09 20 21 15 16 4.5 5.8 7.9 8.0 NA 25 NA 
Lumcon LUMCONBayou 10/31/2007 10:05 21 21 23 27 5.25 7.4 7.5 NA 26.4 75 
Lumcon LUMCONBayou 10/31/2007  21 22 19 20 3.5 7.8 7.9 23 25.2 70 
Bdrickamer 89 LUMCONBayou 11/8/2007 10:10 19 NA NA NA NA NA NA NA NA NA NA 
Bdrickamer 89 LUMCONBayou 11/8/2007 10:08 18 19 18 20 5.2 1.6 8.1 NA 42.3 NA 
Bdrickamer 89 LUMCONBayou 11/8/2007 10:10 18 18 15 18 5.8 5.3 7.8 7.9 NA 38 NA 
Bdrickamer 89 LUMCONBayou 11/8/2007 10:10 19 19 16 17 7.4 6.4 7.8 7.9 NA 42.4 NA 
Bdrickamer 89 LUMCONBayou 11/8/2007 10:10 16 16 20 20 5.4 6.8 7.8 7.8 NA 36 NA 
Lumcon LUMCONBayou 11/9/2007 10:20 18 18 17 20 7.6 7.8 NA NA NA 
Lumcon LUMCONBayou 11/9/2007 10:20 22 20 15 15 NA NA 7.7 7.8 NA 36.4 NA 
Lumcon LUMCONBayou 11/9/2007 10:30 20 c NA 21 20 6.2 6.4 7.7 7.8 NA NA NA 
jenniferp 13 LUMCONBayou 12/5/2007 10:25 19 NA 19 NA 7.2 NA 7.8 NA NA NA NA 
jenniferp 13 LUMCONBayou 12/5/2007 10:25 19 18 19 18 7.2 7.8 7.8 8.1 39.2 39.2 55 
jenniferp 13 LUMCONBayou 12/5/2007 1025 18C 15C 16 15 6.0 6.8 7.9 8.6 28.2 28.2 55 
jenniferp 13 LUMCONBayou 12/5/2007 10:25 16 17 16 15 6.1 6.2 8.0 8.0 NA 41 55 
Lumcon LUMCONBayou 12/6/2007 10:12 15 15 20 20 7.6 8.6 8.0 8.0 NA 35.4 55 
Lumcon LUMCONBayou 12/6/2007 10:10 15 15 15 14 7.5 8.1 8.3 NA 50 NA 
Lumcon LUMCONBayou 12/6/2007 10:10 15 15 16 16 7.1 7.8 7.8 NA 47 55 
Lumcon LUMCONBayou 12/6/2007 10:12 15 15 20 20 7.6 8.6 8.0 8.0 NA 35.4 55 
Lumcon LUMCONBayou 12/12/2007 10:07 25 25 10 30 7.6 7.7 NA NA 40 
Lumcon LUMCONBayou 12/12/2007 10:08 22 23 21 20 5.2 7.8 7.8 NA 23.4 40 
Lumcon LUMCONBayou 12/12/2007 10:07 23 25 25 20 6.2 4.4 7.6 7.8 NA 32.1 40 
Lumcon LUMCONBayou 12/12/2007 10:07 28 26 18 20 7.6 7.8 NA NA 40 
Lumcon LUMCONBayou 12/13/2007 10:30 23 23 21 21 3.2 3.3 7.5 7.5 NA 18 55 
Lumcon 10 LUMCONBayou 12/13/2007 10:30 25 28 20 20 7.6 7.5 NA 22.3 55 
Lumcon LUMCONBayou 12/13/2007 10:30 24 23 24 30 3.0 3.8 7.7 7.8 NA 40 55 
Lumcon LUMCONBayou 12/13/2007 10:30 27 26 20 20 7.6 7.8 NA 22.2 55 
Lumcon LUMCONBayou 12/13/2007 10:30 23 23 20 20 NA 5.6 7.8 7.5 NA 26 55 
Lumcon 10 LUMCONBayou 12/14/2007 10:52 24 NA 20 NA 5.4 NA 7.9 NA 28 NA NA 
Lumcon 10 LUMCONBayou 12/14/2007 10:52 24 NA 20 NA 5.4 NA 7.9 NA 28 NA 155 
Lumcon LUMCONBayou 12/14/2007 10:52 NA 23 NA 20 NA NA 7.7 NA 25 155 
Lumcon LUMCONBayou 12/14/2007 10:52 NA 22 NA 20.3 NA 6.3 NA 7.8 NA 34 155 
Lumcon LUMCONBayou 12/14/2007 10:52 NA 23 NA 20 NA 2.3 NA 7.7 NA 34 155 
Lumcon LUMCONBayou 12/14/2007 10:52 NA 24 NA 19 NA NA 7.6 NA 27 155 
Lumcon LUMCONBayou 12/14/2007 10:52 26 NA 19 NA 4.4 NA 7.6 NA NA 26 155 
Lumcon LUMCONBayou 12/14/2007 10:52 21 NA 20 NA NA NA 7.8 NA 26.2 NA 155 
Lumcon LUMCONBayou 12/14/2007 10:52 NA 22 NA 20 NA 3,8 NA 7.7 NA 25,4 NA 
Lumcon LUMCONBayou 12/14/2007 10:52 24 NA 20 NA 5.2 NA 7.8 NA NA NA 155 
Lumcon LUMCONBayou 12/14/2007 10:52 21 NA 20 NA 4.8 NA 7.7 NA NA NA 155 
Lumcon LUMCONBayou 1/23/2008 09:40 15 15 15 15 10 8.4 NA 30 NA 
Lumcon LUMCONBayou 1/23/2008 09:38 13 13 15 15 8.6 7.5 7.9 8.3 NA 34 150 
Lumcon LUMCONBayou 1/23/2008 09:38 13 14 15 16 7.2 8.6 8.2 8.1 NA 34.2 150 
Lumcon LUMCONBayou 1/23/2008 09:40 14 15 16 15 8.2 8.1 8.3 NA 29 150 
Lumcon LUMCONBayou 1/23/2008 09:40 15 15 15 15 10 8.4  30 NA 
Lumcon LUMCONBayou 1/24/2008 9:45 13 13 15 17 6.4 5.7 8.2 8.6 NA 20 115 
Lumcon LUMCONBayou 1/24/2008 9:48 17 15 17 17 5.4 6.8 7.9 NA 14.8 115 
Lumcon LUMCONBayou 1/24/2008 9:40 12 14 15 16 6.4 NA NA 25 115 
Lumcon LUMCONBayou 1/30/2008 9:30 13.5 14 26 26 7.6 7.6 8.1 8.1 NA 12.5 NA 
Lumcon LUMCONBayou 1/30/2008 9:37 15 15 15 15 6.8 6.6 8.3 8.5 NA NA NA 
Lumcon LUMCONBayou 1/30/2008 9:30 10 10 10.6 10.5 8.3 8.1 16 19 NA 
Lumcon LUMCONBayou 1/30/2008 9:37 12 12 16 15 5.8 8.1 7.8 NA 15 NA 
Lumcon 01 LUMCONBayou 1/30/2008 9:30 12 13 15 15 17 17.8 8.3 8.2 NA 15 NA 
Lumcon LUMCONBayou 2/1/2008 10:10 11 11 15 18 8.4 7.1 7.8 7.8  20.6 NA 
Lumcon 10 LUMCONBayou 2/1/2008 10:10 11 12 17 16 8.8 7.8 7.7 7.9 23.4  155 
Lumcon LUMCONBayou 2/1/2008 10:10 10.0 10.0 20.0 18.0 8.4 7.0 7.8 7.8 NA 26 NA 
Lumcon LUMCONBayou 2/1/2008 10:10 12 12 15 16 8.6 NA 7.9 8.1 NA 16.8 155 
Lumcon LUMCONBayou 2/1/2008 10:10 13 15 20 17 NA 9.2 8.0 7.9 NA 24.8 NA 
Lumcon LUMCONBayou 2/12/2008 09:34 15 15 14 13 8.6 7.9 8.3 8.3 NA 15 140 
Lumcon LUMCONBayou 2/13/2008 09:33 13 14 11 10 9.4 7.9 NA 12 140 
Lumcon LUMCONBayou 2/13/2008 09.34 13 15 15 15 7.2 8.6 8.1 7.9 NA 12 140 
Lumcon LUMCONBayou 2/18/2008 10:29 20 21 15 15 7.2 6.5 7.8 NA 25 160 
kellieb LUMCONBayou 2/19/2008 0947 17 18 13 14 6.2 8.0 8.2 NA 40 120 
kellieb LUMCONBayou 2/19/2008 9:30 14 15 12 10 NA 8.2 8.4 NA 40 120 
kellieb LUMCONBayou 2/19/2008 10:40 15 12 13 12 6.6 6.4 7.9 7.9 NA 31.4 120 
kellieb LUMCONBayou 2/19/2008 09:40 16 12 15 15 6.0 6.6 7.8 8.0 NA 38.4 120 
kellieb LUMCONBayou 2/20/2008 09:35 17 19 11 10 6.4 8.1 8.3 NA 30 140 
kellieb LUMCONBayou 2/20/2008 9;37 19 19 13 12 6.5 8.1 NA 30 140 
kellieb LUMCONBayou 2/20/2008 9:37 17 18 10.5 10.4 5.6 7.8 7.6 7.8 NA 32 140  
Lumcon LUMCONBayou 2/22/2008 10:25 23 24 10 3.8 7.8 7.9 NA 29 170 
Lumcon LUMCONBayou 2/22/2008 22:20 22 22 10 5.5 76 78 NA 24 177 
Lumcon LUMCONBayou 2/22/2008 10:18 23 22 10.1 10 4.2 5.4 6.9 7.6 NA 20.14 170 
Lumcon LUMCONBayou 2/22/2008 10:20 23 23 10 6.4 8.1 8.2 8.1  25 170 
Lumcon LUMCONBayou 2/22/2008 10:18 24 25 10 7.8 7.8 NA 24.8 170 
Lumcon LUMCONBayou 2/27/2008 10:25 15 15 8.2 8.2 8.5 8.2 NA 
Lumcon LUMCONBayou 2/27/2008 10:26 15 17 8.2 9.2 8.5 8.6 NA 8.4 NA 
Lumcon 10 LUMCONBayou 2/27/2008 10:25 14 AS 7.7 8.4 NA 150 
Lumcon LUMCONBayou 2/27/2008 10:25 13 14 7.8 8.0 NA 9.6 150 
Lumcon LUMCONBayou 4/8/2008 10:05 27 25 10 11 6.4 6.0 8.1 8.3 NA 11 NA 
Lumcon LUMCONBayou 4/8/2008 10:05 23 25 11 13 4.8 5.0 8.1 8.3 NA 13.5 200 
Lumcon 10 LUMCONBayou 4/8/2008 10:05 23 25 12 13 5.1 4.6 8.2  16.8 207 
Lumcon LUMCONBayou 4/8/2008 10:05 25 23 13 14 5.0 5.2 7.8 8.2 NA 7.2 200 
Lumcon LUMCONBayou 7/16/2008 11:00 31 31 4.8 7.8 8.1 8.5 NA 19.2 160 
Lumcon LUMCONBayou 11/17/2008 10:52 15 17 18 16 NA 8.4 8.4 NA 32 100 
Lumcon LUMCONBayou 11/18/2008 11:00 15  15  17 17 NA 10 8.1 7.8 NA 27.1 100 
Lumcon LUMCONBayou 11/18/2008 10:51 16 16 20 15 NA 7.9 7.9 NA NA 100 
Lumcon NA LUMCONBayou 11/18/2008 10:55 16 16 20 20 8.5 8.1 8.2 NA 35 100 
Lumcon LUMCONBayou 11/18/2008 11:00 17 14 14 16 NA 7.1 8.4 8.5 NA 40 100  
Lumcon LUMCONBayou 11/19/2008 10:40 15  15 NA NA   36 120 
Lumcon LUMCONBayou 11/19/2008 10:40 NA 20 NA 15 NA 10 NA 8.1 NA 60 120 
Lumcon LUMCONBayou 11/19/2008 10:40 NA 15 NA 15 NA NA 7.8 NA 48.4 120 
Lumcon LUMCONBayou 11/19/2008 10:40 NA 16 NA 15 NA 10 NA 8..1 NA 60 120 
Lumcon LUMCONBayou 11/19/2008 10:40 16 NA 15 NA 7.4 NA 8.4 NA NA 40 120 
Lumcon LUMCONBayou 11/20/2008 10:27 NA 18 NA 15 NA 10 NA 8.2 NA 48 125 
Lumcon LUMCONBayou 11/20/2008 10:50 NA 18 NA 15 NA NA 8.1 NA 49.8 125 
Lumcon LUMCONBayou 11/20/2008 10:47 19 NA 16 NA 7.4 NA 8.2 NA NA 44.6 125 
Lumcon  LUMCONBayou 11/20/2008 10:47 NA 18 NA 20 NA 8.4 NA 8.1 NA 43.3 125 
Lumcon NA LUMCONBayou 11/20/2008 10:47 18 NA 17 NA 10 NA 7.8 NA NA 49.8 125 
Lumcon LUMCONBayou 11/20/2008 10:58 15 NA 16 NA 10.5 NA 8.5 NA 52.4 NA 82 
Lumcon LUMCONBayou 11/21/2008 10:58 15 NA 20% NA NA 8.2 NA 43.6 NA 82 
Lumcon LUMCONBayou 11/21/2008 10:59 NA NA NA NA NA NA NA NA NA NA NA 
Lumcon LUMCONBayou 11/21/2008 10:58 NA 10.4 NA 18 NA 9.4 NA 8.1 NA 52.4 NA 
Lumcon LUMCONBayou 11/21/2008 10:58 15 NA NA NA NA NA NA NA NA NA NA 
Lumcon LUMCONBayou 11/21/2008 10:58 14 NA 20 NA 9.0 NA 8.2 NA 38 NA 82 
lrauhaus 81 LUMCONBayou 1/29/2009 09:55 13 15 12 12 7.6 6.9 8.2 8.1 NA 22.6 NA 
lrauhaus 81 LUMCONBayou 1/29/2009 09:57 14 15 14 14 6.8 7.8 8.0 8.1 NA 27 NA 
lrauhaus 81 10 LUMCONBayou 1/29/2009 09:55 12 12 13 13 7.8 7.4 8.2 8.2 NA 27 NA 
lrauhaus 81 LUMCONBayou 1/30/2009 10:00 10 11 10 10 8.6 10 8.4 8.2 NA 28 NA 
Lumcon NA LUMCONBayou 2/13/2009 10 NA NA NA NA NA NA NA NA NA NA NA 
Lumcon LUMCONBayou 2/13/2009 10:00 23 22 16 17 2.2 7.6 7.6 NA 26.2 170 
Lumcon LUMCONBayou 2/13/2009 10:00 20 22 16 25 6.4 6.6 8.1 NA 25.4 170 
Lumcon LUMCONBayou 2/13/2009 10:00 20 20 16 18 20 10 8.0 8.1  25 170 
Lumcon LUMCONBayou 2/13/2009 1000 22 22 18 17 NA 18 8.0 8.2 NA 23 170 
Lumcon NA LUMCONBayou 2/18/2009  20 20 14 20 6.2 7.8 7.9 NA 18 116 
Lumcon NA LUMCONBayou 2/18/2009  20 20 14 20 6.2 7.8 7.9 NA 18 116 
Lumcon LUMCONBayou 2/18/2009 10:29 20 20 15 15 7.2 7.9 NA 17.6 24 
Lumcon LUMCONBayou 2/18/2009 10 30 20 20 14 20 6.2 7.8 7.9 NA 18 116 
Lumcon LUMCONBayou 2/18/2009 1029 20 20 14 15 5.8 7.9 6.8 22.5 22.5 160 
Lumcon LUMCONBayou 2/20/2009 09:50 15 15 10 10 7.8 10 8.1 8.0 NA 18.6 43 
Lumcon LUMCONBayou 2/20/2009 09:50 15 15 10 10 8.3 7.8 8.0 8.1 NA 12 43 
Lumcon LUMCONBayou 2/20/2009 9:50 16 20 14 13 7.2 8.6 7.2 7.2 NA 18cm. NA 
Lumcon LUMCONBayou 2/20/2009 9:50 17 17 13 15 7.6 6.4 8.1 8.1 NA 15 43 
kellieb LUMCONBayou 2/26/2009 09:50 21 21 13 15 6.8 6.3 7.9 7.9 NA 38.8 106 
kellieb LUMCONBayou 2/26/2009 09:50 19 20 15 20 4.2 6.4 7.9 8.2 NA 34.4 160 
kellieb LUMCONBayou 2/26/2009 09:50 20 19 15 20 7.8 8.1 NA 43.2 1.60 
kellieb LUMCONBayou 2/26/2009 09:50 21 21 16 15 NA 2.8 7.4 7.5 NA 33 160 
kellieb LUMCONBayou 2/27/2009 09:50 20 20 17 20 6.2 7.9 8.0 NA 43 175 
kellieb LUMCONBayou 2/27/2009 09;50 20 20 18 18 6.05 6.1 8.0 8.1 NA 35 175 
kellieb 10 LUMCONBayou 2/27/2009 09:50 23 21 16 19 6.8 6.2 8.1 NA 28.3 175 
kellieb LUMCONBayou 2/27/2009 09:50 22 20 20 20 5.2 5.8 7.8 7.8 NA 37 175 
Lumcon LUMCONBayou 3/3/2009 10:15 14 13 NA NA 10 7.2 8.2 8.1 NA 16 NA 
Lumcon #1 LUMCONBayou 3/3/2009 10:15 14 15 10 10 8.8 8.4 8.2 8.3 NA 13.4 NA 
Lumcon 10 LUMCONBayou 3/3/2009 10:15 12 12 10 9.2 9.4 8.3 8.2 NA 14cm NA 
Lumcon LUMCONBayou 3/3/2009 11:24 13 14 10 10 8.2 7.7 7.6 NA 12.9 NA 
Lumcon LUMCONBayou 3/3/2009 10:15 12 13 10 10 9.4 8.2 8.3 NA 15 NA 
Lumcon LUMCONBayou 3/4/2009 10:15 15 15 13 10 8.9 6.6 8.1 8.1 NA 20.9 155 
Lumcon LUMCONBayou 3/4/2009 10:15 15 16 11 10 4.5 NA 21 NA 
Lumcon LUMCONBayou 3/4/2009 10:15 13 19 12 11 8.6 8.6 8.2 8.2  20.6 155 
Lumcon NA LUMCONBayou 3/4/2009  17 16 13 13 NA 8.3 8.2 8.3 NA 18.0 NA 
Lumcon 10 LUMCONBayou 3/4/2009 10:15 13 13 12 10 9.2 8.1 9.2 8.1 NA 26 155 
Lumcon LUMCONBayou 3/4/2009 10:15 16 17 10 14 NA 8.8 7.6 7.7 NA 15.9 155 
Lumcon LUMCONBayou 3/4/2009 10:15 15 16 10.1 10.1 8.2 8.0 8.2 8.2 NA 20 NA 
Lumcon  LUMCONBayou 3/4/2009 10:15 14 14 12 16 8.2 9.4 8.5 8.5 NA NA 155 
Lumcon LUMCONBayou 3/4/2009 10:14 18 18 13 13 7.8 7.8  23 178 
Lumcon LUMCONBayou 3/5/2009 10:05 18 18 15 15 6.2 7.6 7.7 25.8 25.8 178 
Lumcon NA LUMCONBayou 3/5/2009  17 17 15 15 8.2 8.2 NA 23.2 178 
Lumcon LUMCONBayou 3/5/2009 10:10 17 18 16 14 5.5 4.1 8.1 8.1  14 178 
Lumcon LUMCONBayou 3/5/2009 10:04 17 17 13 13 8.2 8.1 8.1 NA 22.4 178 
Lumcon LUMCONBayou 3/5/2009 10:14 19 18 11 17 7.7 7.4 8.1 8.1 NA 26.2 178 
Lumcon LUMCONBayou 3/5/2009 10:10 16 16 16 15 8.3 8.2 NA 18 178 
Lumcon LUMCONBayou 3/5/2009 10:03 16 17 14 12 9.0 8.0 8.0 8.2 NA 27 178 
Lumcon LUMCONBayou 3/5/2009 10:10 19 20 13 15 6.6 7.6 8.1  15.2 178 
Lumcon LUMCONBayou 3/5/2009 10:04 17 C 19 C 15 15 6.2 8.2 8.1 8.1 NA 15.2 178 cm 
Lumcon LUMCONBayou 3/11/2009 10:00 25 25 15 22 4.6 4.6 7.7 7.6 NA 29.8 NA 
Lumcon LUMCONBayou 3/11/2009 10:00 25 25 20 23 5.4 5.2 7.8 7.8 NA 33 NA 
Lumcon LUMCONBayou 3/11/2009 10:00 25 25 15 22 4.6 4.6 7.7 7.6 NA 29.8 NA 
Lumcon LUMCONBayou 3/11/2009 10:00 25 23 20 20 5.5 7.7 7.8 NA 25.4 175 
Lumcon LUMCONBayou 3/11/2009 10:00 25 24 16 17 7.6 7.6  23.8 NA 
Lumcon LUMCONBayou 3/11/2009 10:00 26 25 21 20 5.4 4.5 7.8 7.8 NA 27 NA 
Lumcon LUMCONBayou 3/11/2009 10:00 25 25 1.013 1.014 2.4 4.5 7.5 7.8  30.6 176 
Lumcon LUMCONBayou 3/11/2009 10:00 25 24 20 20 NA 6.9 7.1 NA 31 108 
Lumcon LUMCONBayou 3/11/2009 1000 25 25 18 18 6,2 7.2 7.6 7,8 NA 26 NA 
Lumcon LUMCONBayou 3/11/2009 10:00 25 24 16 18 4.4 5.5 7.6 7.5  32.4 NA 
Lumcon 10 LUMCONBayou 3/11/2009 10:00 25 24 16 18 4.5 7.6 7.8 NA 28 175 
Lumcon LUMCONBayou 3/12/2009 11:57 26 24 15 11 5.3 8.6 7.5 8.6 NA 35 NA 
Lumcon LUMCONBayou 3/12/2009 10:04 24 23 16 12 4.2 7.1 7.6 7.9 NA 27.2 170 
Lumcon LUMCONBayou 3/12/2009 10:04 24 23 15 11 4.2 7.2 7.6 7.6 NA 26.9 170 cm 
Lumcon LUMCONBayou 3/12/2009 10;03 24 22 15 12 5.1 7.7 7.9 NA 35 170 
Lumcon 09 LUMCONBayou 3/12/2009 10:00 23 22 25 50 4.6 7.6 7.9 NA 33 170 
Lumcon LUMCONBayou 3/12/2009 10:04 24 25 14 16 4.1 7.6 7.9 NA 27.1 170 
Lumcon LUMCONBayou 3/12/2009 10:04 25C 23C 15 13 2.6 7.6 NA 25 170cm 
Lumcon LUMCONBayou 3/12/2009 10:04 25 25 15 11 6.2 7.2 7.6 27.2 NA 170 
Lumcon LUMCONBayou 3/12/2009 10:03 24 23 15 12 8.3 NA 8.3 8.0 28 28 NA 
Lumcon LUMCONBayou 3/12/2009 10:04 24 23 20 20 6.4 6.1 7.8 8.1 NA 25 170 
Lumcon NA LUMCONBayou 3/24/2009 09:50 23 21 25 26 5.0 5.0 7.8 7.8 NA NA 195 
Lumcon NA LUMCONBayou 4/17/2009 9:25 24 24 15 15 6.0 6.2 7.8 na 16.0 NA 
Lumcon NA LUMCONBayou 5/13/2009 10:44 30 30 5.0 5.8 8.4 8.6 NA 12.4 90 
Lumcon NA LUMCONBayou 6/30/2009 9:52 32 32 4.0 4.0 8.4 8.5 na 29.2 185 
Lumcon NA LUMCONBayou 7/22/2009 8:55 29 29 4.0 4.6 8.6 8.7 NA 15.6 190 
Lumcon NA LUMCONBayou 8/4/2009 9:21 34 36 4.6 8.8 8.9 NA 15.2 165 
Lumcon NA LUMCONBayou 8/24/2009 10:18 29 30 3.6 3.6 8.9 9.1 NA 25 195 
renen 28 LUMCONBayou 11/11/2009 10:20 18 18 12 13 5.6 6,4 7.7 8.0  38 130 
renen 28 LUMCONBayou 11/11/2009 10:20 22 21 14 15 5.1 NA 7.9 8.1  25 NA 
renen 28 10 LUMCONBayou 11/11/2009 10:20 NA 19 NA 15 NA NA  38 130 
renen 28 LUMCONBayou 11/11/2009 10:20 19 19 10 11 5.2 4.8 7.6 7.5  25 130 
renen 28 LUMCONBayou 11/11/2009 10:20 20 22 12 15 6.4 6.5 7.8 7.8  34.6 130 
renen 28 LUMCONBayou 11/11/2009 10:20 18 19 14 15 6.6 6.4 8.2 8.2  28 130 
kellieb LUMCONBayou 11/16/2009 9:40 21 22 10 8.2  40 90 
kellieb 10 LUMCONBayou 11/16/2009 9:40 20 20 10 10 5.6 5.4 7.75 7.8  37.2 90 
kellieb LUMCONBayou 11/16/2009 09:40 22 22 10 11 6.4 4.2 7.8  24.2 90 
kellieb LUMCONBayou 11/16/2009 09:40 23 21 10 10 4.2 3.3 8.2  35 90 
kellieb LUMCONBayou 11/16/2009 09:40 21 22 14 3.1 3.3 7.7 7.8  37 NA 
kellieb LUMCONBayou 11/16/2009 0940 20 21 10 5.8 4.6 7.5 7.8  37.8 NA 
btassin 73 LUMCONBayou 11/17/2009 10;00 17 18 10 10 7.7 7.5  20 NA 
btassin 73 LUMCONBayou 11/17/2009 9:50 18 18 10 11 4.5 7.8 8.0  23.8 NA 
btassin 73 LUMCONBayou 11/17/2009 09:50 16 17 12 12 6.6 7.8 7.8  30 NA 
btassin 73 LUMCONBayou 11/17/2009 10:00 17 17 10 10 7.4 7.6 8.2 8.4  28 NA 
Lumcon LUMCONBayou 11/18/2009 10:10 18 17 6.1 8.6 7.7 7.8  25 NA 
Lumcon 10 LUMCONBayou 11/18/2009 10:19 15 16 10 10 3.2 6.6 7.8 7.8  25 NA 
Lumcon LUMCONBayou 11/18/2009 10:19 18 18 10 7.2 7.1 7.8 8.0  30  NA 
Lumcon LUMCONBayou 11/18/2009 10:19 27 18 3.0 5.4 7.8 8.0  30.6 NA 
Lumcon LUMCONBayou 11/18/2009 10:10 12 18 10 10 6.2 NA  38 NA 
Lumcon LUMCONBayou 11/20/2009 09:58 16 16 10 6.4 7.2 7.7 7.7  31 NA 
Lumcon 10 LUMCONBayou 11/20/2009 10:00 17 18 10 10 7.8 7.9  34 NA 
Lumcon LUMCONBayou 11/20/2009 10:00 16 16 10 10 5.8 3.0 8.2 8.2  40.2 NA 
Lumcon LUMCONBayou 11/20/2009 10:00 16 16 10 10 5.8 3.0 8.2 8.2  40.2 NA 
Lumcon LUMCONBayou 11/20/2009 10:00 20 20 13 10 5.8 6.5 7.8 7.9  33.2 NA 
Lumcon NA LUMCONBayou 1/21/2010 9:40 15 17 7.4 7.2 8.5 8.7  31 180 
Lumcon LUMCONBayou 2/1/2010 10:07 11 10 NA 8.7 7.6 6.9  28.4 100 
Lumcon LUMCONBayou 2/1/2010 1007 10 10 9.8 9.2 8.0 7.8  25.4 100 
Lumcon LUMCONBayou 2/1/2010 10:07 11 11 13 8.8 10 13.5 8.0  24 100 
Lumcon LUMCONBayou 2/1/2010 10:07 11 11.5 3.5 NA 13.2 8.6 8.3  24 100 
Lumcon LUMCONBayou 2/2/2010 10:14 14 14 8.1 7.5 6.9 7.1  39.4 100 
Lumcon LUMCONBayou 2/2/2010 10:14 10.3 10.3 7.9 7.9 8.2  28.6 100 
Lumcon LUMCONBayou 2/2/2010 10:14 10.3 10.3 7.9 7.9 8.2  28.6 100 
Lumcon LUMCONBayou 2/2/2010 10:14 13 13 5.8 6.9 8.0 8.0  27.4 NA 
Lumcon LUMCONBayou 2/2/2010 10:14 14 13 6.45 7.4 7.7 7.4  31.25 100 
Lumcon LUMCONBayou 2/2/2010 10:14 13 13.5 7.8 8.1  27.5 100 
Lumcon LUMCONBayou 2/2/2010 10:14 12 13 9.4 8.2 7.8  30.6 100 
Lumcon 10 LUMCONBayou 2/2/2010 10:14 12 13 7.6  30.6 100 
Lumcon LUMCONBayou 2/3/2010 10:10 12 12 8.63 8.75 8.0 8.2  21.8 175 
Lumcon 10 LUMCONBayou 2/3/2010 10:10 11 12 8.8 8.1 8.2  18 175 
Lumcon LUMCONBayou 2/3/2010 10:10 12 13 8.8 8.5 8.2 8.4  18.8 175 
Lumcon LUMCONBayou 2/3/2010 10:10 13 14 8.5  23 175 
Lumcon LUMCONBayou 2/3/2010 10:10 13 14 9.2 9.8 6.9 7.1  20.8 175 
Lumcon LUMCONBayou 2/3/2010 10:00 13 15 9.2 9.0 8.0 8.0  21.4 175 
Lumcon LUMCONBayou 2/3/2010 10:10 13 13 7.2 8.2 8.2  21.4 175 
Lumcon NA LUMCONBayou 2/18/2010 17:00 NA 12 NA NA 15.2 NA 8.3  15 165 
Lumcon NA LUMCONBayou 2/18/2010 17:00 NA 11 NA NA 10.4 NA 8.3  14.3 165 
Lumcon NA LUMCONBayou 2/18/2010 17:00 NA 11 NA NA 13.2 NA 8.6  14.2 165 
Lumcon NA LUMCONBayou 2/18/2010 17:00 NA 12 NA NA 14.2 NA 8.6  14.8 165 
Lumcon NA LUMCONBayou 2/18/2010 17:00 NA 11 NA NA 12 NA 8.2  15 165 
Lumcon LUMCONBayou 3/8/2010 9:53 20 21 8.9 8.9  18 25 
Lumcon LUMCONBayou 3/9/2010 09:55 17 17 7.8 8.4 8.4  43  170 
Lumcon LUMCONBayou 3/9/2010 09:55 18 20 9.2 8.1  13 177 
Lumcon LUMCONBayou 3/10/2010 10:05 20 18 5.2 8.1 7.9  24 175 
Lumcon LUMCONBayou 3/10/2010 10:24 18 19 6.2 NA 7.9  27 NA 
Lumcon LUMCONBayou 3/10/2010 10:13 19 19 3.4 3.2 8.2 8.3  23 113 
Lumcon LUMCONBayou 4/9/2010 9:55 20 18 7.9 7.9 8.1 8.1  22  170  
Lumcon 10 LUMCONBayou 5/19/2010 11:57 31 31 5.2 5.0 8.2 8.3  20.8 180 
Lumcon LUMCONBayou 7/28/2010 12:05 34 34 4.0 4.2 8.2 8.7  11.6 190 
Lumcon LUMCONBayou 8/16/2010 10:43 32 32 3.6 3.4 8.3 8.3  16.8 180 
Lumcon LUMCONBayou 8/24/2010 10:33 32 32 4.0 4.4 8.2 8.3  15.2 190 
Lumcon LUMCONBayou 8/31/2010 10:33 29 29 2.4 2.4 8.0 8.0  15.6 195 
Lumcon LUMCONBayou 10/4/2010 10:55 26 26 12 12 6.4 5.0 7.9 8.1  29.4 175 
Lumcon LUMCONBayou 10/18/2010 12:57 26 28 16 15 5.0 7.0 8.0 8.2  19.6 180 
Lumcon LUMCONBayou 10/26/2010 12:24 29 29 14 14 4.2 4.4 7.7 7.9  23.0 170 
Lumcon LUMCONBayou 10/28/2010 9:40 22 22 15 14 5.6 8.0 8.1  16.1 117 
Lumcon LUMCONBayou 10/29/2010 0900 20 21 13 15 6.0 6.0 7.8 8.0  17.2 117 
Lumcon NA LUMCONBayou 10/29/2010  20 20 18 18 7.6 7.8 7.8  13 117 
Lumcon LUMCONBayou 10/29/2010 9:41 19 18 16 15 8.2 9.0 8.2 7.9  20.6 117 
Lumcon LUMCONBayou 11/1/2010 13:25 25 26 12 12 6.2 7.0 8.1 8.2  23.0 165 
Lumcon LUMCONBayou 11/10/2010 10:00 19 20 11 10 8.4 8.5  23.2 89 
Lumcon LUMCONBayou 11/10/2010 10:00 22 20 16 11 8.2 8.3  18 89 
Lumcon LUMCONBayou 11/10/2010 10:00 20 25 12 14 6.0 6.2 7.9 8.0  22.6 89 
Lumcon LUMCONBayou 11/11/2010 9:50 20 22 12 15 7.8 8.1 8.2  19 120 
Lumcon LUMCONBayou 11/11/2010 9:50 23 23 15 12 4.2 6.6 8.5 8.5  23.3 120 
Lumcon LUMCONBayou 11/11/2010 09:55 20 20 4.4 4.6 8.2 8.3  NA 120 
Lumcon LUMCONBayou 11/12/2010 10:07 21 20 12 15 8.1 8.1  23.6 170 
Lumcon LUMCONBayou 11/12/2010 10:00 20 22 10 12 8.2 8.3  15 170 
Lumcon LUMCONBayou 11/12/2010 1000 21 23 14 12 5.8 8.1 8.1  21 170 
Lumcon LUMCONBayou 11/12/2010 10:07 23 22 13 14 6.2 8.1  22.2 170 
Lumcon NA LUMCONBayou 1/19/2011 10 NA NA NA NA NA NA NA NA  NA NA 
Lumcon NA LUMCONBayou 1/25/2011  13 14 20 20 8.8 8.8 8.1 8.2  32.8 110 
Lumcon NA LUMCONBayou 1/25/2011  13 14 20 20 8.8 8.8 8.1 8.2  32.8 110 
Lumcon LUMCONBayou 1/25/2011 9:40 16 16 20 20 8.2 8.2 8.2 8.2  27.9 110 
Lumcon LUMCONBayou 1/25/2011 09:40 15 15 21 21 8.8 7.6 8.1 8.2  36 110 
Lumcon 10 LUMCONBayou 1/25/2011 9:40 15 11 20 20 8.1 8.2  33 110 
Lumcon 10 LUMCONBayou 1/25/2011 9:40 15 11 20 20 8.1 8.2  33 110 
Lumcon LUMCONBayou 1/25/2011 9:40 13 14 20 20 8.8 8.8 8.1 8.2  32.8 110 
Lumcon LUMCONBayou 1/25/2011 09:40 13 15 20 20 8.4 8.1 8.1  36 110 
Lumcon LUMCONBayou 1/27/2011 10:00 NA 10 NA 10 NA 6.0 NA 8.1  82 
Lumcon LUMCONBayou 1/27/2011 12:45 NA 15 NA 10 NA 9.2 NA 8.1  110 
Lumcon LUMCONBayou 1/27/2011 12:45 NA 15 NA 12 NA 7.4 NA 8.4  12 110 
Lumcon LUMCONBayou 1/27/2011 10:00 NA 12 NA 13 NA NA NA 8.2  NA 82 
Lumcon NA LUMCONBayou 1/27/2011 10:00 NA 12 NA 10 NA 8.4 NA 8.2  NA 82 
Lumcon NA LUMCONBayou 1/27/2011 11:45 NA 14 NA 10 NA 11 NA 8.2  NA 110 
Lumcon NA LUMCONBayou 1/27/2011 10:00 NA 13 NA 10 NA 8.0 NA 8.1  NA 82 
Lumcon NA LUMCONBayou 1/27/2011 12:45 NA 15 NA NA 9.8 NA 8.1  NA 110 
Lumcon NA LUMCONBayou 1/27/2011 10:00 NA 12 NA 10 NA 7.8 NA 8.1  8.4 82 
Lumcon NA LUMCONBayou 1/27/2011 12:45 NA 15 NA NA 10 NA 8.4  NA 110 
Lumcon NA LUMCONBayou 1/27/2011 10:00 NA 10 NA 13 NA 9.6 NA 8.3  NA 82 
Lumcon NA LUMCONBayou 1/27/2011 12:45 NA 13 NA 10 NA 8.0 NA 8.2  NA 110 
Lumcon 10 LUMCONBayou 1/27/2011 10:00 NA 12 NA 10 NA 6.6 NA 8.2  NA 82 
Lumcon 10 LUMCONBayou 1/27/2011 12:45 NA 13 NA 10 NA 7.3 NA 8.0  NA 110 
Lumcon  LUMCONBayou 1/28/2011 NA NA NA NA NA NA NA NA  NA 83 
Lumcon NA LUMCONBayou 1/28/2011  14 15 14 14 7.2 8.2 8.1 8.1  24 83 
Lumcon LUMCONBayou 1/28/2011 12:00 14 15 15 15 4.4 6.8 8.2 8.2  25 83 
Lumcon 10 LUMCONBayou 1/28/2011 10:18 15 15 15 15 8.4 8.1 8.3  35 83 
Lumcon LUMCONBayou 1/28/2011 10:18 13 14 14 15 8.2 7.4 8.2 8.2  22 83 
Lumcon NA LUMCONBayou 1/28/2011 10:18 12  14  14 15 7.5 8.2 8.0  24 83 
Lumcon NA LUMCONBayou 1/28/2011 10:18 13 13 12 12 8.1 8.1  24 83 
Lumcon NA LUMCONBayou 1/28/2011 12:13 14 20 14 15 8.5 8.2 8.2  28 83 
Lumcon LUMCONBayou 1/28/2011 10:18 13 14 14 15 8.2 7.4 8.2 8.2  22 83 
Lumcon LUMCONBayou 1/28/2011 10:18 12 10 15 15 4.4 6.75 8.1 8.1  20 83 
Lumcon LUMCONBayou 1/28/2011 10:18 12 10 15 15 4.4 6.75 8.1 8.1  20 83 
Lumcon LUMCONBayou 1/28/2011 10:18 12 10 15 15 4.4 6.75 8.1 8.1  20 83 
Lumcon LUMCONBayou 2/14/2011 10:20 15 NA 10 NA 8.4 NA 8.4 NA  16.2 98 
Lumcon LUMCONBayou 2/14/2011 10:20 15 NA 10 NA 8.4 NA 8.4 NA  16.2 98 
Lumcon LUMCONBayou 2/14/2011 10:20 NA 10.2 NA 11 NA 9.7 NA 8.6  17.8 NA 
Lumcon LUMCONBayou 2/14/2011 10:20 NA 14 NA 10 NA 8.5 NA 7.3  11 98 
Lumcon NA LUMCONBayou 2/14/2011 10:20 18 NA 11 NA 10 NA 8.3 NA  NA 98 
Lumcon LUMCONBayou 2/14/2011 10:20 15 NA 15 NA NA 8.5 NA  NA 98 
Lumcon NA LUMCONBayou 2/14/2011 10:20 14 NA 11 NA 5.1 NA 8.5 NA  NA NA 
Lumcon LUMCONBayou 2/14/2011 10:20 15 NA 12 NA 9.5 NA 8.4 NA  NA 98 
Lumcon LUMCONBayou 2/14/2011  NA 17 NA 10 NA 9.5 NA 8.4  15.2 NA 
Lumcon  LUMCONBayou 2/14/2011 10:20 NA 13 NA 10 NA 10 NA 8.4  15.1 15.1 
Lumcon LUMCONBayou 2/14/2011 10:20 NA 15 NA 11 NA 8.2 NA 8.5  15 98 
Lumcon LUMCONBayou 2/15/2011 10:11 15 15 10 10 NA 8.4 8.4  13 -90 
Lumcon LUMCONBayou 2/15/2011 10:08 15 18 10 10 7.7 7.2 8.5 8.5  39.2 90 
Lumcon LUMCONBayou 2/15/2011 10:11 15 17 10 10 NA 10 8.5 8.4  17 -90 
Lumcon LUMCONBayou 2/15/2011 10:11 15 18 10 10 10 10 8.4 8.3  25 -90 
Lumcon LUMCONBayou 2/15/2011 10:10 17 16 11 15 10 10 8.4 8.4  16.5 NA 
Lumcon LUMCONBayou 2/15/2011 10:11 15 17 10 10 7.6 8.6 8.2 8.4  20.8 NA 
Lumcon 1  LUMCONBayou 2/15/2011 10:11 18  16 10 10 10 8.2 8.3  21  -90 
Lumcon 10 LUMCONBayou 2/15/2011 10:11 16 16 10 10 8.9 8.9  19 -90 
Lumcon LUMCONBayou 2/15/2011 10:11 20 18 10 10 3.1 4.4 8.4 8.4  20  90 
Lumcon LUMCONBayou 2/15/2011 10:11 20 18 10 10 3.1 4.4 8.4 8.4  20  90 
Lumcon LUMCONBayou 2/16/2011 10:10 19 NA NA NA NA NA NA NA  NA NA 
Lumcon NA LUMCONBayou 2/16/2011 10:10 NA NA NA NA NA NA NA NA  NA NA 
Lumcon LUMCONBayou 2/16/2011 10:10 19 18 11 10 8.2 8.4 NA  23 NA 
Lumcon LUMCONBayou 2/16/2011 10:10 19 18 11 10 8.2 8.4 NA  23 NA 
Lumcon LUMCONBayou 2/16/2011 10:10 23 20 13 12 7.2 8.4 8.5  19.2 NA 
Lumcon LUMCONBayou 2/16/2011 10:10 20 20 11 11 6.9 7.3 8.4 8.4  24.4 NA 
Lumcon LUMCONBayou 2/16/2011 10:10 18 18 8.3 8.3  15.6 -90 
Lumcon LUMCONBayou 2/16/2011 10:10 18 18 12 11 8.3 8.3  15 NA 
Lumcon LUMCONBayou 2/16/2011 10:10 23 20 13 12 7.2 8.4 8.5  19.2 NA 
Lumcon LUMCONBayou 2/16/2011 1010 19 17 10 10 8.0 8.2 8.9 8.9  26 NA 
Lumcon LUMCONBayou 2/16/2011 10:10 19 20 10 10 7.2 8.2 8.4 8.4  20.8 NA 
Lumcon LUMCONBayou 2/16/2011 10:10 18 20 11 8.4 8.4  18 NA 
Lumcon LUMCONBayou 2/16/2011 10:10 18 18 11 11 8.5 7.6 8.6 8.5  19 NA 
Lumcon LUMCONBayou 2/17/2011 10:12 18 19 12 15 8.5 8.2  17 120 
Lumcon LUMCONBayou 2/17/2011 10:12 18 19 18 15 8.2 8.2  20 120 
Lumcon LUMCONBayou 2/17/2011 10:12 20 20 11 11 7.2 7.6 8.3 8.3  17.4 120 
Lumcon NA LUMCONBayou 2/17/2011 10:12 19 20 11 11 7.1 8.3 8.2  17 120 
Lumcon 10 LUMCONBayou 2/17/2011 10:12 19 20 13 8.3 10 8.7 8.9  17.2 120 
Lumcon 10 LUMCONBayou 2/17/2011 10:12 19 20 13 8.3 10 8.7 8.9  17.2 120 
Lumcon LUMCONBayou 2/17/2011 10:12 19 22 10 11 4.8 8.3 8.2  20 120 
Lumcon LUMCONBayou 2/17/2011 10:12 20 20 12 13 8.2 8.2  15.2 120 cm 
Lumcon LUMCONBayou 2/17/2011 10:12 18 18 14 14 6.3 5.3 8.2 8.3  20.6 120 
Lumcon LUMCONBayou 2/17/2011 10:12 18 19 18 15 8.2 8.2  20 120 
Lumcon LUMCONBayou 2/28/2011 10:19 NA 22  NA 15 NA 6.4 NA 7.7  24 130 
Lumcon LUMCONBayou 2/28/2011 10:15 NA 25 NA 15 NA NA NA 7.7  28 130 
Lumcon LUMCONBayou 2/28/2011 10:15 NA 25 NA 15 NA 6.2 NA 7.7  26 130 
Lumcon LUMCONBayou 2/28/2011 10:18 NA 24 NA 1.01 NA NA 8.0  25 130 
Lumcon NA LUMCONBayou 2/28/2011 10:13 NA 23 NA 15 NA 6.4 NA 7.9  24 NA 
Lumcon LUMCONBayou 2/28/2011 10:15 NA 22 NA 17 NA 2.6 NA 7.7  25 130 
Lumcon NA LUMCONBayou 2/28/2011 10:15 NA 22 NA 15 NA 6.2 NA 7.8  25 130 
Lumcon LUMCONBayou 2/28/2011 10:15 NA 25 NA 15 NA NA NA 7.7  28 130 
Lumcon NA LUMCONBayou 2/28/2011 10:15 NA 23 NA 15 NA 6.4 NA 7.8  26 130 
Lumcon NA LUMCONBayou 2/28/2011 10:15 NA 24C NA 10 NA NA NA NA  25 130 
Lumcon LUMCONBayou 2/28/2011 10:15 NA 22 NA 16 NA 6.3 NA 7.7  18.5 130 
Lumcon 10 LUMCONBayou 3/2/2011 9:55 21 22 15 15 8.2 8.1  20 125 
Lumcon 10 LUMCONBayou 3/2/2011 9:55 21 22 15 15 8.2 8.1  20 165 
Lumcon LUMCONBayou 3/2/2011 09:55 21 22 15 15 7.2 7.6 7.7  21 165 
Lumcon LUMCONBayou 3/2/2011 9:55 21 22 15 14 NA 4.2 7.8 7.8  24.1 165 
Lumcon LUMCONBayou 3/2/2011 09:55 22 22 15 14 5.3 4.3 7.7 7.9  24.4 165 
Lumcon LUMCONBayou 3/2/2011 09:55 20 25 17 15 4.9 8.1 7.8  23 165 
Lumcon LUMCONBayou 3/2/2011 09:55 21 20 15 15 4.0 7.8 7.6 7.7  35.3 165  
Lumcon LUMCONBayou 3/2/2011 09:55 23 23 14 11 6.6 6.2 7.7 7.6  23 165 
Lumcon LUMCONBayou 6/10/2011 11:45 30 32 4.2 4.6 8.3 8.2  20.6 180 
Lumcon LUMCONBayou 6/15/2011 12:37 30 30 5.8 6.2 8.3 8.2  16 195 
Lumcon LUMCONBayou 6/22/2011 11:17 30 31 12 12 4.2 5.0 7.8 8.1  19.8 200 
Lumcon LUMCONBayou 6/29/2011 10:06 30 31 4.2 4.8 8.0 8.3  17.6 190 
Lumcon 10 LUMCONBayou 7/6/2011 13:29 35 36 4.4 4.6 8.4 8.4  21.8 195 
Lumcon 10 LUMCONBayou 7/20/2011 11:04 33 33 5.4 5.6 8.9 9.1  18.6 185 
Lumcon LUMCONBayou 8/8/2011 12:49 33 32 4.6 5.0 7.9 8.0  16 180 
Lumcon LUMCONBayou 8/25/2011 9:29 31 32 6.2 6.6 8.7 8.8  24.4 180 
Lumcon LUMCONBayou 9/6/2011 11:08 25 25 11 11 4.4 4.8 7.9 7.8  15.4 NA 
Lumcon LUMCONBayou 9/28/2011 12:04 30 30 5.4 5.6 8.2 8.2  14.2 160 
Lumcon LUMCONBayou 10/6/2011 13:19 NA 28 NA NA NA  NA 185 
Lumcon LUMCONBayou 10/6/2011 13:19 NA 28 NA NA NA  17.5 185 
Lumcon LUMCONBayou 10/6/2011 13:19 NA 28 NA NA 6.1 NA 7.9  16.2 185 
Lumcon 10 LUMCONBayou 10/6/2011 13:19 NA 28 NA NA NA  13 185 
Lumcon LUMCONBayou 10/6/2011 13:19 NA 28 NA NA 4.8 NA 8.2  15.6 185 
Lumcon LUMCONBayou 10/6/2011 13:19 NA 28 NA NA 5.8 NA 8.1  20.4 185 
Lumcon LUMCONBayou 10/6/2011 15:08 29 NA NA NA NA  15 175 
Lumcon 10 LUMCONBayou 10/6/2011 15:08 29 NA NA NA 7.9 NA  34 175 
Lumcon LUMCONBayou 10/6/2011 15:08 28 NA NA NA 7.9 NA  15.4 175 
Lumcon NA LUMCONBayou 10/6/2011 15:08 28 NA NA NA NA  16.8 175 
Lumcon LUMCONBayou 10/6/2011 15:08 29 NA NA NA 8.1 NA  18.4 175 
Lumcon LUMCONBayou 10/6/2011 15:08 27 NA NA 5.6 NA NA  18.8 175 
Lumcon LUMCONBayou 11/1/2011 10:30 20 20 14 15 4.7 6.5 8.3  23 NA 
Lumcon 10 LUMCONBayou 11/1/2011 10:30 19 20 10 5.2 8.1  23.6 NA 
Lumcon NA LUMCONBayou 11/1/2011 NA NA NA NA NA NA NA NA  NA NA 
Lumcon LUMCONBayou 11/1/2011 10:30 21 20 10 15 7.8 6.6 8.1 8.3  19.5 NA 
Lumcon LUMCONBayou 11/1/2011 10:30 19 19 16 16 NA 8.2 8.2  20 NA 
Lumcon LUMCONBayou 11/1/2011 10:30 19 20 11 12 6.4 8.1 8.1  22.6 NA 
Lumcon LUMCONBayou 11/1/2011 10:30 19 20 15 15 7.4 8.3 8.3  18 NA 
Lumcon LUMCONBayou 11/1/2011 10:30 19 20 15 15 6.7  20 NA 
Lumcon LUMCONBayou 11/15/2011 9:40 NA 23 NA 24 NA 6.4 NA 7.8  33 NA 
Lumcon NA LUMCONBayou 11/15/2011 09:40 NA 23 NA 20 NA 1.0 NA 7.8  28 NA 
Lumcon LUMCONBayou 11/15/2011 9:40 NA 23 NA 20 NA NA 7.8  30 NA 
Lumcon NA LUMCONBayou 11/15/2011 9:40  23 NA 1.013 NA 6.6 NA 7.8 NA  NA NA 
Lumcon LUMCONBayou 11/15/2011 9:40 NA 24 NA 20 NA 4.6 NA 7.9  35 130 
Lumcon NA LUMCONBayou 11/15/2011 9:40 NA 23 NA 15 NA 5.6 NA 7.8  25 NA 
Lumcon NA LUMCONBayou 11/15/2011 9:40 NA 23 NA 15 NA 5.6 NA 7.8  25 NA 
Lumcon NA LUMCONBayou 11/15/2011 9:40 NA 23 NA 15 NA 4.5 NA 8.0  22.4 NA 
Lumcon NA LUMCONBayou 11/15/2011 9:35 NA 23 NA 20 NA NA 8.4  23.5 NA 
Lumcon LUMCONBayou 11/17/2011 9:55 22 21 21 25 5.6 5.6 8.3 8.1  17.8 NA 
Lumcon LUMCONBayou 11/17/2011 9:55 23 23 20 30 7.6 7.9 7.9  17 93 
Lumcon group 1 LUMCONBayou 11/17/2011 9:55 22 21 25 27 6.3 6.2 7.8 8.0  13.2 93 
Lumcon LUMCONBayou 11/17/2011 9:55 21 21 23.5 27.5 6.1 8.0 8.1  20.8 93 
Lumcon LUMCONBayou 11/17/2011 21:55 21 21 17 22 7.7 7.8  14.5 93 
Lumcon LUMCONBayou 11/17/2011 9:55 22 22 35 30 7.3 NA 7.8 7.9  15 93 
Lumcon 10 LUMCONBayou 11/17/2011 09:55 21 23 16.9 14.9 7.1 14.2 7.9 8.0  22 93 
Lumcon LUMCONBayou 11/18/2011 NA NA NA NA NA NA NA NA  NA NA 
Lumcon LUMCONBayou 11/18/2011 9:40 NA 18 NA 20 NA NA  31 116 
Lumcon LUMCONBayou 11/18/2011 9:40 NA 17 NA 20 NA 6.2 NA 8.0  29.2 116 
Lumcon NA LUMCONBayou 11/18/2011  NA 17 NA 16 NA 5.8 NA 7.9  35 116 
Lumcon LUMCONBayou 11/18/2011 9:40 NA 20 NA 22 NA NA 7.9  32.4 116 
Lumcon LUMCONBayou 11/18/2011 9:40  18 NA 50 NA NA 8.3  33 116 
Lumcon LUMCONBayou 11/18/2011 9:40 NA 18 NA 20 NA 7.2 NA 8.1  28 NA 
Lumcon LUMCONBayou 11/18/2011 9:40 NA 18 NA 19 NA 7mg/L NA 8.0  31cm NA 
Lumcon LUMCONBayou 11/18/2011 9:40  17 NA 30 NA 7.8   35 116 
Lumcon LUMCONBayou 1/10/2012 10:18 16 17 20 15 7.7 7.2 7.9 7.7  36.2 NA 
Lumcon LUMCONBayou 1/17/2012 10:10 17 18 11 13 6.8 6.3 8.0 13  23 170 
Lumcon NA LUMCONBayou 1/17/2012 10:08 18 18 72 5.4 8.4 8.4  18.1 NA 
Lumcon LUMCONBayou 1/17/2012 10:10 18 20 10 7.9 NA 8.0  18 130 
Lumcon LUMCONBayou 1/17/2012 10:13 18 18 7.2 8.1 8.2  17.9 170 
Lumcon 10  LUMCONBayou 1/18/2012 10:23 17 17 8.6 8.6 8.4 8.7  22.2 97 
Lumcon LUMCONBayou 1/18/2012 10:23 18 18 13 12 6.4 6.6 8.0 8.2  12.2 97 
Lumcon LUMCONBayou 1/18/2012 10:23 17 18 10 8.9 8.7 8.5 8.1  28 97 
Lumcon NA LUMCONBayou 1/18/2012 10:23 18 18 17 16 2.8 7.4 7.9  21.6 97 
Lumcon LUMCONBayou 1/18/2012 11:57 18 17 16 5.6 5.5 8.1  25.2 NA 
Lumcon LUMCONBayou 1/18/2012 10:23 17 18 6.8 4.8 NA  20 97 
Lumcon LUMCONBayou 1/18/2012 11:58 20 18 5.8 8.4 8.7  23 97 
Lumcon 10 LUMCONBayou 1/19/2012 10;26 16 17 9.2 7.8 7.9  33.3 67 
Lumcon LUMCONBayou 1/19/2012 10:31 18 16 NA NA 8.1 8,3  24.8 67 
Lumcon LUMCONBayou 1/19/2012 10:26 18 18 4.4 6.6 8.3  27.8 67 
Lumcon LUMCONBayou 1/19/2012 10:31 19 19 10 10 6.4 5.4 7.8 7.8  22.8 67 
Lumcon LUMCONBayou 1/19/2012 1031 17 18 2.85 6.97 NA NA 8.2 8.3  24 67 
Lumcon LUMCONBayou 1/19/2012 10:26 17 18 5.0 5.8 6.0 8.0 6.0  48.2 67 
Murt LUMCONBayou 1/19/2012 10:31 18 17 13 15 5.4 6.1 7.7 7.8  28.6 87 
Lumcon 10 LUMCONBayou 1/30/2012 11:03 19 19 7.9 7.2  16.2 NA 
Lumcon LUMCONBayou 1/30/2012 11:03 16 17 7.1 7.1 8.1 7.9  16 63 
Lumcon LUMCONBayou 1/30/2012 11:03 16 15 6.5 8.3 8.4  13.5 63 
Lumcon LUMCONBayou 1/30/2012 11:03 12 17 8.2 8.0 8.1 8.3  15 63 
Lumcon LUMCONBayou 1/30/2012 11:03 16 16 11 10 7.8 8.1  15.5 63 
Lumcon N5 LUMCONBayou 1/30/2012 11;30 16 NA NA NA NA NA NA  NA NA 
Lumcon LUMCONBayou 1/30/2012 11:03 15 16 7.5 8.1 8.1  16.4 NA 
Lumcon LUMCONBayou 1/30/2012 11:03 15 16 7.5 8.1 8.1  16.4 63 
Lumcon LUMCONBayou 1/30/2012 11:03 16 16 11 10 7.8 8.1  15.5 63 
Lumcon 10 LUMCONBayou 1/30/2012 11:03 19 19 7.9 7.2  16.2 63 
Lumcon LUMCONBayou 1/30/2012 11:03 15 16 7.5 8.1 8.1  16.4 63 
Lumcon N5 LUMCONBayou 1/30/2012 11;30 16 17 7.1 8.5 8.1 8.3  13.2 cm 7 cm 
Lumcon LUMCONBayou 1/30/2012 1103 16 17 7.2 8.4 7.2 8.4  19.2 63 
Lumcon NA LUMCONBayou 2/3/2012  NA NA NA NA NA NA NA NA  NA NA 
Lumcon LUMCONBayou 2/3/2012 10:13 21 22 10 6.3 6.1 8.1 8.4  33 73 
Lumcon LUMCONBayou 2/3/2012 10:13 21 22 10 6.3 6.1 8.1 8.4  33 73 
Lumcon LUMCONBayou 2/3/2012 10:13 22 21 10 8.3 8.2  30 NA 
Lumcon LUMCONBayou 2/3/2012 10:13 21 22 10 6.3 6.1 8.1 8.4  33 73 
Lumcon LUMCONBayou 2/3/2012 10:13 21 23 7.7 7.8  34.2 NA 
Lumcon LUMCONBayou 2/3/2012 10:13 22 22 10 15 7.7 7.8  34 73 
Lumcon LUMCONBayou 2/3/2012 10:13 23 22 10 6.5 7.8 8.0  35.4 72 
Lumcon LUMCONBayou 2/3/2012 10:13 21 22 10 6.3 6.1 8.1 8.4  33 73 
Lumcon 10 LUMCONBayou 2/3/2012 10:13 22 21 10  10 4.1 3.1 7.9 8.0  35  NA 
Lumcon LUMCONBayou 2/3/2012 10:13 21 22 NA NA 5.5 7.9 7.7  35 NA 
Lumcon LUMCONBayou 2/3/2012 10:13 21 23 7.7 7.8  34.2 NA 
Lumcon LUMCONBayou 2/6/2012 10:30 17 17 15 15 6.6 6.4 7.8 7.8  25.3 NA 
Lumcon LUMCONBayou 2/6/2012 10;29 19 18 14 16 7.7 7.9 7.9  23.5 NA 
Lumcon LUMCONBayou 2/6/2012 1105 17 17 11 13 6.2 6.4 7.6 8.0  24.2 NA 
Lumcon LUMCONBayou 2/6/2012 10:49 17 18 12 11 6.8 6.2 7.8 8.2  27.4 NA 
Lumcon LUMCONBayou 2/6/2012 10:30 17 17 15 15 6.6 6.4 7.8 7.8  25.3 NA 
Lumcon LUMCONBayou 2/6/2012 10:30 16 17 12 12 8.2 8.0 7.8 7.8  25 NA 
Lumcon LUMCONBayou 2/6/2012 11:05 18 17 13 15 6.2 6.9 7.7 7.8  21.8 NA 
Lumcon LUMCONBayou 2/6/2012 10:30 16 17 15 14 7.0 6.8 8.0 8.2  28 NA 
Lumcon LUMCONBayou 2/6/2012 10:30 17 17 10 10 7.0 6.8 7.9 7.9  28 NA 
Lumcon NA LUMCONBayou 2/6/2012 1030 17 16 15 15 7.4 6.8 8.5 8.3  30.2 NA 
Lumcon LUMCONBayou 2/7/2012 10:20 15 15 10 10 6.6 8.4  33.2 NA 
Lumcon LUMCONBayou 2/7/2012 10:20 18 19 10 10 7.9 7.8  28  
Lumcon LUMCONBayou 2/7/2012 10:20 18 18 10 11 7.9 7.9  15 NA 
Lumcon 10 LUMCONBayou 2/7/2012 12:07 17 20 10 7.9 7.8  16 NA 
Lumcon LUMCONBayou 2/7/2012 12:08 20 19 10 15 6.8 6.8 7.7 7.7  NA 
Lumcon LUMCONBayou 2/7/2012 12:06 18 19 1.07 1.09 7.4 7.6 7.8  16  
Lumcon LUMCONBayou 2/7/2012 10:21 18 19 10 10 6.6 8.1  42 70 
Lumcon LUMCONBayou 2/7/2012 10:20 17 18 1.01 15 7.1 7.7 7.8  NA 
Lumcon LUMCONBayou 2/7/2012 10:20 16 17 11 12 12.4 8.4 8.3 8.4  17 NA 
Lumcon LUMCONBayou 2/7/2012 10:20 17 18 10 10 7.5 7.7 7.8  14  
Lumcon LUMCONBayou 2/8/2012 10:25 17 18 10 11 NA NA NA  NA NA 
Lumcon 10 LUMCONBayou 2/8/2012 10:25 18 17 12 12 8.8 6.8 7.9  18.8 NA 
Lumcon LUMCONBayou 2/8/2012 10:25 16 18 15 15 7.2 7.8  24.8 NA 
Lumcon LUMCONBayou 2/8/2012 10:25 16 17 15 15 6.4 7.9  22 NA 
Lumcon LUMCONBayou 2/8/2012 10:25 18 18 15 15 6.1 6.4 7.8  21.4 NA 
Lumcon NA LUMCONBayou 2/8/2012  17 18 11 10 7.5 8.0 8.0 8.1  25 NA 
Lumcon LUMCONBayou 2/8/2012 12:14 17 18 13 10 5.4 6.1 7.9  26 NA 
Lumcon LUMCONBayou 2/8/2012 10:25 17 18 10 11 7.9 7.8  21.2 NA 
Lumcon LUMCONBayou 2/8/2012 10:25 18 17 13 15 4.6 7.7 7.8  27.1 NA 
Lumcon LUMCONBayou 2/8/2012 10:25 17 17 13 13 3.6 7.8 7.8  21 cm NA 
Lumcon LUMCONBayou 2/9/2012 10:25 18 17 10 15 7.9 7.8  39 NA 
Lumcon LUMCONBayou 2/9/2012 10:25 16 17 15 15 7.3 5.6 7.8 7.8  25.4 NA 
Lumcon LUMCONBayou 2/9/2012 10:23 15 15 15 12 8.6 7.7 7,9  34 NA 
Lumcon LUMCONBayou 2/9/2012 10:25 17 16.5 10 11 7.2 7.3 7.9 8.0  27 NA 
Lumcon LUMCONBayou 2/9/2012 10:23 15.5 16 11 11 7.9 5.6 8.0 8.0  46 NA 
Lumcon LUMCONBayou 2/9/2012 10:23 15 16 11 12 6.8 13.8 7.9 8.1  29 NA 
Lumcon NA LUMCONBayou 2/9/2012 10:25 16 16 11 10 4.6 4.6 7.8  27  
Lumcon LUMCONBayou 2/9/2012 10:25 16 16 11 10 7.9 7.6 7.9  33.4 NA 
Lumcon 10 LUMCONBayou 2/9/2012 10:25 20 15 10 11 6.8 6.8 7.9 8.0  29.8 NA 
Lumcon LUMCONBayou 2/9/2012 10:25 16 15 10 10 7.1 8.5  27 NA 
Lumcon LUMCONBayou 2/9/2012 10:25 17 17 13 5.1 8.5 8.5  18.2 NA 
Lumcon LUMCONBayou 2/10/2012 10 16 16 NA NA NA NA NA NA  NA NA 
Lumcon NA LUMCONBayou 2/10/2012 10:18 15 16 15 12 6.5 5.5 7.7 7.8  38.5 NA 
Lumcon 10 LUMCONBayou 2/10/2012 10;18 13 27 15 15 6.5 8.0 7.8  38 NA 
Lumcon LUMCONBayou 2/10/2012 10:18 16 16 15 15 8.4 7.9  34 NA 
Lumcon LUMCONBayou 2/10/2012 10:20 16 17 10.5 15 6.8 6.4 7.8 7.8  37.6 NA 
Lumcon LUMCONBayou 2/10/2012 10:18 16 16 15 10 7.9  38.2 NA 
Lumcon LUMCONBayou 2/10/2012 10:18 16 17 15 11 8.4 5.4 7.9  41.3 NA 
Lumcon LUMCONBayou 2/10/2012 10:18 16 16 15 11 7.2 7.2 8.4 8.4  17.2 NA 
Lumcon LUMCONBayou 2/10/2012 10:35 16 17 16 13 7.2 7.9  36.7 NA 
Lumcon LUMCONBayou 2/10/2012 10:20 16 11 15 12 7.5 8.6 7.9 7.9  42 NA 
Lumcon LUMCONBayou 2/13/2012 10:31 13 14 15 18 5.4 4.2 8.1  16.3 NA 
Lumcon LUMCONBayou 2/13/2012 10:33 15 10 15 15 9.3 8.4 8.8 8.8  20.6 70 
Lumcon LUMCONBayou 2/13/2012 10:35 11 11 15 14 8.2 8.2  16 NA 
Lumcon LUMCONBayou 2/13/2012 10:35 13 13 15 15 8.1  22.2 70 
Lumcon 10 LUMCONBayou 2/13/2012 10:31 12 11 85 90 9.8 5.2 8.2 8..2  25 NA 
Lumcon LUMCONBayou 2/13/2012 10:31 13 11 20 15 3.8  15 NA 
Lumcon NA LUMCONBayou 2/13/2012 10:35 10 10 17 15 9.4 8.1 8.1  17.4 
Lumcon LUMCONBayou 2/13/2012 10:36 11.5 11.5 14 15 8.2 8.2  NA 70 
Lumcon NA LUMCONBayou 2/13/2012 10:36 11 12 15 15 8.2  15 70 
Lumcon LUMCONBayou 2/15/2012 10:15 21 20 15 15 7.2 7.8 7.8  30 82 
Lumcon LUMCONBayou 2/15/2012 10:25 15 16 15 15 3.8 8.4 7.8 7.9  32 82 
Lumcon 10 LUMCONBayou 2/15/2012 10;25 15 15 15 15 7.4 7.9 8.1  38 NA 
Lumcon LUMCONBayou 2/15/2012 10:25 18 16 13 14 NA 6.6 8.0 8.0  31.1 82 
Lumcon LUMCONBayou 2/15/2012 10:25 16 16 15 15 8.4 8.5  33 82  
Lumcon LUMCONBayou 2/15/2012 1025 16 16 15 15 7.84 7.2 7.9  28.3 82 
Lumcon LUMCONBayou 2/15/2012 10:25 16 17 14 15  28.75 82 
Lumcon LUMCONBayou 2/15/2012 10:25 18 17 15 16 7.2 7.2 7.8 7.8  37 82 
Lumcon  LUMCONBayou 2/16/2012 10 NA NA NA NA NA NA NA NA  NA NA 
Lumcon LUMCONBayou 2/16/2012 10:30 20 19 10 13 5.8 7.8 7.9  34.2 82 
Lumcon LUMCONBayou 2/16/2012 10:30 19 19 10 10 5.6 5.6 8.5 8.5  29.2 82 
Lumcon LUMCONBayou 2/16/2012 10:30 17 20 10 10 7.8 7.8  34 NA 
Lumcon LUMCONBayou 2/16/2012 10:30 19 19 11 14 6.2 6.6 7.7 7.7  29.6 82 
Lumcon LUMCONBayou 2/16/2012 10:30 20 20 10 7.2 6.8 7.8 7.8  29 82 
Lumcon LUMCONBayou 2/16/2012 10:30 19 19 10 10 6.2 7.8 7.9  28.6 82 
Lumcon LUMCONBayou 2/16/2012 10:30 19 19 10 22 NA 5.4 NA 7.9  30 82 
Lumcon LUMCONBayou 2/16/2012 10:30 18 19 10 6.8 6.0 7.7 7.8  29.4 NA 
Lumcon LUMCONBayou 2/16/2012 10:30 18 19 10 6.8 6.0 7.7 7.8  29.4 NA 
Lumcon LUMCONBayou 2/16/2012 10:30 19 19 10 22 6.3 5.4 7.9 7.9  30 82 
Lumcon LUMCONBayou 2/17/2012 10:42 18 19 10 10 3.6 8.1  20.4 92 
Lumcon LUMCONBayou 2/17/2012 10:22 20 20 10 10 7.6 7.7  26 92 
Lumcon LUMCONBayou 2/17/2012 10:42 19 19 10 10 6.5 6.3 7.6 7.7  25 92 
Lumcon NA LUMCONBayou 2/17/2012 10:42 19 18 10 10 NA NA 8.2 8.4  25.7 92 
Lumcon LUMCONBayou 2/17/2012 10:42 19 19 10 10 7.9 7.8  23.5 92 
Lumcon LUMCONBayou 2/17/2012 10:42 18 20 10 13 7.7 7.9  26.2 92 
Lumcon LUMCONBayou 2/24/2012 10:47 21 21 10 8.1 7.9 7.9  29.1 180cm 
Lumcon LUMCONBayou 2/28/2012 10:30 20c 19c 10 10 6.3 7.8 7.8  NA NA 
Lumcon LUMCONBayou 2/28/2012 12:40 19 19 10 11 6.4 6.2 8.0 7.7   NA 
Lumcon LUMCONBayou 2/28/2012 10:30 20 20 10 10 6.7 6.7 7.8 NA  NA NA 
Lumcon LUMCONBayou 2/28/2012 10:45 20 19 10 6.2 7.2 7.9 8.0   NA 
Lumcon LUMCONBayou 2/28/2012 10:44 19 19 10 7.6 7.6 7.8 7.9  NA NA 
Lumcon 10 LUMCONBayou 2/28/2012 10:45 18 19 20 13 8.5 7.9 7.9  NA NA 
Lumcon LUMCONBayou 2/28/2012 10:45 19 19 10 10 7.2 5.4 8.0 8.1  NA NA 
Lumcon 10 LUMCONBayou 2/29/2012 10:34 21 21 15 16 2.4 1.5 7.9 7.9  23.4 180 cm 
Lumcon LUMCONBayou 2/29/2012 10:34 20 21 10 5.8 9.1 7.7 7.7  28.2 180 
Lumcon LUMCONBayou 2/29/2012 10:34 21 22 10 5.8 8.2 8.0 8.0  27 180 
Lumcon LUMCONBayou 3/1/2012 10:25 22 22 1.4 6.4 8.3 8.3  17 173 
Lumcon LUMCONBayou 3/1/2012 10:25 26 25 5.6 7.7 7.9  22.8 173cm 
Lumcon LUMCONBayou 3/1/2012 10:25 23 23 7.4 7.7 7.7  16.2 173 
Lumcon LUMCONBayou 3/1/2012 10:25 24 27 10 10 7.7 7.7  16.2 173 
Lumcon 10 LUMCONBayou 3/1/2012 10:25 23 22 6.6 6.8 7.9 7.9  17 173 
Lumcon LUMCONBayou 3/1/2012 10:25 24 23 2.5 7.9  18 NA 
Lumcon LUMCONBayou 3/1/2012 10:25 24 24 7.7 7.7  17.6 173 
Lumcon NA LUMCONBayou 6/14/2012 10:47 NA 31.5 NA 16 NA 6.1 NA 8.2  36  
Lumcon LUMCONBayou 9/9/2012 15:47 20 NA 20 NA NA 7.8 NA  27 NA 
Lumcon LUMCONBayou 9/10/2012 1600 20 NA 21 NA 5.7 NA 8.2 NA  31.2 NA 
Lumcon NA LUMCONBayou 10/16/2012 9:50 25 25 30 35 5.0 5.6 7.6 7.8  20.2  
Lumcon NA LUMCONBayou 10/16/2012 10:00 25 25 14 13 5.5 5.5 8.3 8.4  26.2 NA 
Lumcon NA LUMCONBayou 10/16/2012 9:48 25.5 25 17 22 4.2 3.9 7.7 7.7  22.0 NA 
Lumcon NA LUMCONBayou 10/16/2012 0948 26 25 18 20 6.2 4.4 7.8 7.8  16.3 NA 
Lumcon NA LUMCONBayou 10/16/2012 0952 25 26 9.8 7.62 8.1 8.2  23.2 NA 
Lumcon NA LUMCONBayou 10/16/2012 0948 27 27 9.3 15 7.6 7.7  23.6 NA 
Lumcon NA LUMCONBayou 10/16/2012 0955 24.5 24 10 12 4.3 4.5 7,6 7.7  17.2 NA 
Lumcon NA LUMCONBayou 10/16/2012 0955 26 25 19 21 4.4 4.2 8.0 8.2  23.8  NA 
Lumcon NA LUMCONBayou 10/16/2012 0945 25 25 12 3.1 2.4 7.8 8.1  22 NA 
Lumcon LUMCONBayou 10/18/2012 1010  27 NA 10 NA NA 7.8  NA NA 
Lumcon NA LUMCONBayou 10/18/2012 1010 26 NA 20 NA 2.3 NA 7.6 NA  NA NA 
Lumcon 4NA LUMCONBayou 10/18/2012 1010 26 NA 19 NA NA 7.8 NA  NA NA 
Lumcon LUMCONBayou 10/18/2012 1010 NA 25 NA 15 NA 4.2 NA 7.8  NA NA 
Lumcon NA LUMCONBayou 10/18/2012 1010 NA 20 NA 18 NA NA 7.6  NA NA 
Lumcon 10 LUMCONBayou 10/18/2012 1010 25 NA 10 NA 5.8 NA 7.6 NA  NA NA 
Lumcon NA LUMCONBayou 10/18/2012  NA 21 NA 15 NA NA 8.6  NA NA 
Lumcon LUMCONBayou 10/18/2012 1010 26 NA 15 NA 4.5 NA 7.7 NA  NA NA 
Lumcon LUMCONBayou 10/18/2012 1010 NA 26 NA 23 NA 4.5 NA 7.8  NA NA 
Lumcon LUMCONBayou 10/19/2012 1025 23 NA 12 NA 3.4 NA 8.0 NA  NA NA 
Lumcon 5NA LUMCONBayou 10/19/2012 1025 22 NA 10.9 NA 3.2 NA 7.8 NA  21.2 NA 
Lumcon LUMCONBayou 10/19/2012 1023 NA 24 NA 25 NA NA 7.5  20 NA 
Lumcon LUMCONBayou 10/19/2012 1023 24 NA 25 NA 3.4 NA 7.9 NA  19 NA 
Lumcon LUMCONBayou 10/19/2012 NA NA 25 NA 25 NA NA 7.8  18 NA 
Lumcon NA LUMCONBayou 10/19/2012 1024 25 NA 22 NA 5.6 NA 7.7 NA  20 NA 
Lumcon NA LUMCONBayou 10/19/2012 1025 NA 34 NA 20 NA 8.6 NA 8.1  19.8 NA 
Lumcon NA LUMCONBayou 10/19/2012 1025 NA 23 NA 17 NA 3.6 NA 7.8  21 NA 
Lumcon LUMCONBayou 10/25/2012 1010 NA 27 NA 26 NA NA NA 7.9  23.8 NA 
Lumcon 7NA LUMCONBayou 10/25/2012 0959 26 NA 20 NA 3.4 NA 7.7 NA  26.7 NA 
Lumcon NA LUMCONBayou 10/25/2012 1022 NA 27 NA 20 NA NA 7.8  30 NA 
Lumcon LUMCONBayou 10/25/2012 NA 24 NA 25 NA 3.8 NA 8.2 NA  20.8 NA 
Lumcon LUMCONBayou 10/25/2012 1000 NA 26 NA 20 NA 9.6 NA 7.8  23.9 NA 
Lumcon NA LUMCONBayou 10/25/2012 27 NA 25 NA 4.5 NA 7.8 NA  20.3 NA 
Lumcon LUMCONBayou 10/25/2012 1010 NA 26 NA 28 NA NA 7.7  20 NA 
Lumcon LUMCONBayou 10/25/2012 NA NA 26 NA 20 NA 4.2 NA 8.1  25 NA 
Lumcon NA LUMCONBayou 10/26/2012 10:06 28 NA 25 NA 2.4 NA 7.5 NA  23 NA 
Lumcon 10 LUMCONBayou 10/26/2012 10:26 26 NA 16 NA 3.9 NA 7.7 NA  22.4 NA 
Lumcon LUMCONBayou 10/26/2012 10:06 NA 23 NA 20 NA 2.4 NA 7.6  26.9 NA 
Lumcon LUMCONBayou 10/26/2012 10:05 26 NA 20 NA NA 7.5 NA  25.6 NA 
Lumcon LUMCONBayou 10/26/2012 10:06 NA 26 NA 30 NA NA 7.9  28.4 NA 
Lumcon LUMCONBayou 10/28/2012 NA NA 17 NA 25 NA 5.8 NA 7.7  39.2 NA 
Lumcon LUMCONBayou 11/1/2012 10:00 NA 21 NA 21 NA 5.1 NA 8.0  14 NA 
Lumcon LUMCONBayou 11/1/2012 10:01 21 NA 10 NA 5.4 NA 8.3 NA  19  
Lumcon LUMCONBayou 11/1/2012 10:00 NA 20 NA 15 NA 3.5 NA  20 NA 
Lumcon LUMCONBayou 11/1/2012 10:05 20 NA 20 NA NA 7.9 NA  25.8 NA 
Lumcon LUMCONBayou 11/1/2012 10:00 NA 21 NA 17 NA 8.4 NA 8.1  22.8 NA 
Lumcon LUMCONBayou 11/1/2012 10:00 20 NA 18 NA NA 7.9 NA  NA NA 
Lumcon 10 LUMCONBayou 11/1/2012 10:00 NA 20 NA 15 NA 7.2 NA  21 NA 
Lumcon LUMCONBayou 11/5/2012 10:00 28 NA 16 NA NA 7.8 NA  27 NA 
Lumcon LUMCONBayou 11/5/2012 10:00 23 NA 20 NA NA 7.7 NA  27 NA 
Lumcon LUMCONBayou 11/5/2012 10:15 NA 33 NA 13 NA 4.25 NA 7.3  27.6 NA 
Lumcon LUMCONBayou 11/5/2012 10:00 NA 35 NA 25 NA NA 7.9  25 NA 
Lumcon LUMCONBayou 11/5/2012 10:00 NA 25 NA 15 NA NA 7.7  23 NA 
Lumcon LUMCONBayou 11/5/2012 10:00 25 NA 20 NA NA 8.0 NA  20.3 NA 
Lumcon LUMCONBayou 11/5/2012 10:00 26 NA 20 NA NA 7.5 NA   NA 
Lumcon LUMCONBayou 11/9/2012 NA 25 NA 18 NA 7.2 NA 8.2 NA  21 NA 
Lumcon 5NA LUMCONBayou 11/9/2012 15:30 21 NA 14 NA 3.4 NA 8.0 NA  27 NA 
Lumcon 6NA LUMCONBayou 11/9/2012 15:30 20 NA NA NA 7.8 NA 8.1 NA  40 NA 
Lumcon LUMCONBayou 11/16/2012 0943 17 17 22 25 16.8 7.9 8.0  33 NA 
Lumcon LUMCONBayou 11/16/2012 0943 18 17 17 20 6.8 8.1 8.3  36.8  
Lumcon 10 LUMCONBayou 11/16/2012 0943 14 16 19 22 20 20  21 NA 
Lumcon LUMCONBayou 11/16/2012 0943 15 15 32 28 10 10  26 NA 
Lumcon LUMCONBayou 11/16/2012 0943 16 16 35 30 7.9  40.8 NA 
Lumcon LUMCONBayou 11/16/2012 0943 15 15 26 25 7.4 7.9  26 NA 
Lumcon NA LUMCONBayou 11/16/2012 0943 16 16 NA NA 8.2 6.6 8.0 8.1  28 NA 
Lumcon LUMCONBayou 11/17/2012 0943 16 16 25 25 8.4 6.7 8.0 8.1  31 NA 
Lumcon LUMCONBayou 11/26/2012 NA NA 17 NA 25 NA 5.8 NA 7.9  NA NA 
Lumcon 10 LUMCONBayou 11/27/2012 NA 18 19 22 22 6.6 6.5 7.8 7.8  31.4 NA 
Lumcon NA LUMCONBayou 11/27/2012 09:32 18 19 25 21 6.2 5.4 7.8 7.7  32.2 NA 
Lumcon LUMCONBayou 11/27/2012 09:32 18 20 30 30 2.5 7.7 7.8  33.1 NA 
Lumcon NA LUMCONBayou 11/27/2012 NA 18 19 20 17 6.2 6.6 7.9 7.9  34.8 NA 
Lumcon LUMCONBayou 11/27/2012 09:30 18 19 25 24 6.1 7.6 7.6  30.2 NA 
Lumcon LUMCONBayou 11/28/2012 10:02 18 NA 24 NA 6.6 NA 7.7 NA  42 NA 
Lumcon 10 LUMCONBayou 11/28/2012 NA NA 12 NA 24 NA NA 7.9  34.6 NA 
Lumcon 1NA LUMCONBayou 11/28/2012 10:04 16.5 NA 35 NA 6.8 NA 7.9 NA  42 NA 
Lumcon LUMCONBayou 11/29/2012 NA 16 12 25 20 7.8 10.4 8.3 8.3  43 NA 
Lumcon LUMCONBayou 11/29/2012 09:52 16 17 23 22 5.6 7.5 7.8  44.2 NA 
Lumcon NA LUMCONBayou 11/29/2012 09:54 16 18 15 32 6.8 7.8 8.4  47.8 NA 
Lumcon LUMCONBayou 11/29/2012 NA 17 17 36 31 7.8 7.8  45.8 NA 
Lumcon LUMCONBayou 11/29/2012 09:52 16.5 16.5 25 26 6.4 7.9 8.2  60.8 NA 
Lumcon NA LUMCONBayou 11/29/2012 9:54 17 17 22 22 6.75 5.75 7.9 7.9  46.2 NA 
Lumcon LUMCONBayou 11/29/2012 NA 18 29 25 25 8.3 8.3  33 NA 
Lumcon NA LUMCONBayou 12/3/2012 10;10 22 22 20 20 7.7 7.6  29 NA 
Lumcon LUMCONBayou 12/3/2012 10:15 25 23 20 20 4.6 6.0 7.9 8.0  28 NA 
Lumcon LUMCONBayou 12/3/2012 10:15 24 23 25 25 5.4 5.7 7.7 7.7  27.7 NA 
Lumcon LUMCONBayou 12/3/2012 10:15 21 24 25 27 7.3 6.8 7.7 7.6  24 NA 
Lumcon LUMCONBayou 12/3/2012 11:17 23 20 7.6 7.7 20 20  38 NA 
Lumcon LUMCONBayou 12/10/2012 1002 24 25 25 20 4.4 5.4 7.7 7.7  36 NA 
Lumcon NA LUMCONBayou 12/10/2012  24 25 10 15 6.1 6.2 7.6 7.6  45 NA 
Lumcon LUMCONBayou 12/10/2012 10:30 24 25 17.83 NA NA 7.6 1.7  40.5 NA 
Lumcon LUMCONBayou 12/10/2012 10:13 24 24 NA 17.83 5.2 4.8 NA 7.6  37.2 NA 
Lumcon LUMCONBayou 12/11/2012 10 17 16 25 30 7.4 7.4  43 NA 
Lumcon LUMCONBayou 12/11/2012 10:00 15 21 16 23 6.6 8.2 8.4 8.4  16 NA 
Lumcon LUMCONBayou 12/11/2012 10:00 16 15 25 28 NA 8.0 7.9  37 NA 
Lumcon LUMCONBayou 12/11/2012 10:00 17 15 35 37 3.4 4.2 7.8 7.7  36.2 NA 
Lumcon NA LUMCONBayou 12/11/2012  NA NA NA NA NA NA NA NA  NA NA 
Lumcon LUMCONBayou 12/11/2012 10:00 15 15 27 30 7.5 8.1  34 NA 
Lumcon LUMCONBayou 12/11/2012 10:00 15 14 35 37 7.4 8.6 7.9 7.8  35 NA 
Lumcon LUMCONBayou 12/11/2012 10:00 15 14 25 27 6.25 7.50 7.9 7.9  41.9 NA 
Lumcon LUMCONBayou 12/11/2012 10:00 12 15 30 34 6 1/5 6 4/5 8.0 8.0  42 NA 
Lumcon LUMCONBayou 12/11/2012 10am 15 15 20 25 7.6 7.9 7.9  20 NA 
Lumcon LUMCONBayou 12/12/2012 1000 15 14 25 NA 8.1 7.9  30.8 NA 
Lumcon LUMCONBayou 12/12/2012 10:00 12 13 36 35 7.5 7.5 7.8 7.9  36.6 NA 
Lumcon LUMCONBayou 12/12/2012 10:00 12 12 34 31 7.9 7.4 7.5  30.8 NA 
Lumcon LUMCONBayou 12/12/2012 10:05 13 13 22 20 8.4 8.2 8.0 8.0  35 NA 
Lumcon LUMCONBayou 12/12/2012 10:00 12 13 32 30 9.4 8.5 8.2 8.1  38.2 NA 
Lumcon LUMCONBayou 12/12/2012 10:08 31 25 8.4 7.6 8.0 8.1  34.3 NA 
Lumcon LUMCONBayou 12/12/2012 10:05 11 13 32 30 7.5 8.2 8.2  24.2 NA 
Lumcon NA LUMCONBayou 1/24/2013 14:45 18 19 12 10 6.4 7.0 7.8 7.8  12 NA 
Lumcon LUMCONBayou 1/25/2013 10:30 20c 20c 10 10 7.8  24 NA 
Lumcon LUMCONBayou 1/25/2013 10;30 20 21 10 6.2 5.4 7.7 7.8  16.2 NA 
Lumcon LUMCONBayou 1/25/2013 10:30 20 20 10 10 6.1 7.7 7.8  28.3  
Lumcon NA LUMCONBayou 1/25/2013 10:30 20 19 10 10 6.1 7.7 7.8  28.6 NA 
Lumcon LUMCONBayou 1/25/2013 10:30 20 19 10 10 2.4 7.6 7.8  20 NA 
Lumcon LUMCONBayou 1/25/2013 10:30 19 19 10 10 7.2 2.2 7.8 7.8  29.5 NA 
Lumcon LUMCONBayou 1/25/2013 10:30 19 20 10 5.2 7.7 7.9  26.2 NA 
Lumcon LUMCONBayou 1/25/2013 1155 20 19 11 7.9 8.2  30.75  
Lumcon LUMCONBayou 1/25/2013 10:30 19.5 19 10 7.9 7.1 7.6 7.7  24.1 NA 
Lumcon LUMCONBayou 1/29/2013 10:05 23 22 10 7.6 7.6  30.2 NA 
Lumcon NA LUMCONBayou 1/29/2013 11:27 23 24 11.1 9,8 7.5 7.6  33.8 NA 
Lumcon LUMCONBayou 1/29/2013 10:50 22 23 11 10 NA 7.5 7.7  33.6 NA 
Lumcon LUMCONBayou 1/29/2013 10:05 24 23 11 10 4.2 3.8 7.6 7.9  25.2 NA 
Lumcon LUMCONBayou 1/29/2013 10:05 22 23 12 13 3.8 7.8 7.6 7.8  38 NA 
Lumcon LUMCONBayou 1/29/2013 10:06 23 23 12 12 7.5 7.6  28.6 NA 
Lumcon LUMCONBayou 1/29/2013 10:05 23 23 10 3.6 4.8 7.9  35.6 NA 
Lumcon  LUMCONBayou 1/30/2013 10:16 NA 21 NA 10 NA 7.2 NA  12.4 NA 
Lumcon LUMCONBayou 1/31/2013 10:00 16 18 11 6.2 6.2 7.6 7.7  13 NA 
Lumcon  LUMCONBayou 1/31/2013 1200 NA NA NA 10 7.4 8.0 7.8 8.0  7.4 NA 
Lumcon LUMCONBayou 1/31/2013  18 18 9.2 8.9 7.9 7.8  9.2 NA 
Lumcon LUMCONBayou 1/31/2013 1103 17 18 7.6 7.7 7.8  11.8 NA 
Lumcon LUMCONBayou 1/31/2013  18 18 9.2 8.9 7.9 7.8  9.2 NA 
Lumcon LUMCONBayou 1/31/2013 12:00 16 17 10 7.8 8.0  13 NA 
Lumcon LUMCONBayou 1/31/2013 10:00 16 20 10 7.3 8.2 7.9 8.2  NA 
Lumcon 10 LUMCONBayou 1/31/2013  16c 18c 10 8.2mg 8mg 7.9 8.2  15 NA 
Lumcon LUMCONBayou 1/31/2013 11:03 15 18 10 5.95 6.4 8.4 8.5  10.2 NA 
Lumcon NA LUMCONBayou 2/1/2013 10;01 17 18 NA NA NA NA  NA NA 
Lumcon NA LUMCONBayou 2/1/2013  17 20 6.4 7.8  NA NA 
Lumcon LUMCONBayou 2/1/2013 10:01 17 17 8.6 8.5  NA NA 
Lumcon LUMCONBayou 2/1/2013 10:01 17 13 7.5 7.6  NA  
Lumcon LUMCONBayou 2/1/2013 10:01 25 23 10 8.0 8.0  NA NA 
Lumcon NA LUMCONBayou 2/1/2013 10:01 16 16 1.005 1.004 5.9 7.8 7.9  NA NA 
Lumcon NA LUMCONBayou 2/1/2013 10;01 17 18 6.2 4.6 7.8 7.7  NA NA 
Lumcon NA LUMCONBayou 2/1/2013 10:01 17 20 10 10 7.6 7.9  NA NA 
Lumcon NA LUMCONBayou 2/1/2013 10:01 16 19 6.1 5.1 7.7 7.7  NA NA 
Lumcon LUMCONBayou 2/6/2013 10:08 18 18 10 10 6.2 6.6 7.8 7.7  15 NA 
Lumcon LUMCONBayou 2/6/2013 10:11 19 19 10 10 5.2 5.4 7.6 7.5  14.2 NA 
Lumcon LUMCONBayou 2/6/2013 10:11 19 18 10.7 10.9 4.6 7.8 7.7  15 NA 
Lumcon NA LUMCONBayou 2/6/2013 10:11 18 19 10 10 6.5 7.7 7.7  15 NA 
Lumcon NA LUMCONBayou 2/6/2013 10:08 19 19 10 10 6.3 5.25 8.1 8.2  10 NA 
Lumcon LUMCONBayou 2/6/2013 12:02 18 20 10 10 NA 3.6  14 NA 
Lumcon LUMCONBayou 2/6/2013 10:08 19 19 10 10 5.2 4.4 7.7 7.4  43 NA 
Lumcon 10 LUMCONBayou 2/6/2013 10:07 18 19 10 10 5.3 7.7 7.7  14.2 NA 
Lumcon LUMCONBayou 2/6/2013 10;10 20 19 7.4 7.7 7.8  15 NA 
Lumcon LUMCONBayou 2/6/2013 12:04 35 19 10 10 NA NA 7.5 7.5  10.9 NA 
Lumcon NA LUMCONBayou 2/18/2013 14:30 17 16 2.6 3.4 8.2 8.0  NA  
Lumcon LUMCONBayou 3/13/2013 10:33 16 16 10 9.2  20 NA 
Lumcon LUMCONBayou 3/14/2013 10:35 16 16 7.4 7.9 7.5  28 NA 
Lumcon LUMCONBayou 3/14/2013 10:33 16 12 5.9 NA 8.3 8.5  19 NA 
Lumcon LUMCONBayou 3/14/2013 10:32 16 16 7.7 7.9 7.9  26 NA 
Lumcon NA LUMCONBayou 3/14/2013 10:32 15 16 10 7.8 8.0 7.9  18.2 NA 
Lumcon NA LUMCONBayou 3/14/2013 10:30 16 16 10 8.8 7.5 8.2 8.0  18.2 NA 
Lumcon LUMCONBayou 3/14/2013 10:33 17 16 9.4 8.0 7.9 8.0  21.1 NA 
Lumcon LUMCONBayou 3/14/2013 10:32 17 17 7.2 6.8 7.8 7.7  25.2 NA 
Lumcon NA LUMCONBayou 3/14/2013 10;32 16 17 8.4 8.3 7.7  17 NA 
Lumcon LUMCONBayou 3/15/2013 10:05 18 18 10 NA NA 7.8 7.8  20 NA 
Lumcon LUMCONBayou 3/15/2013 10:05 16 18 10 7.2 7.8 7.8  20.5 NA 
Lumcon NA LUMCONBayou 3/15/2013 10:05 15 18 10 10 6.8 7.9 7.9  16.7 NA 
Lumcon NA LUMCONBayou 3/15/2013 10:05 18 18 10 7.2 7.9 7.9  23 NA 
Lumcon 10 LUMCONBayou 3/15/2013 10:05 10.6 17 10 10 7.2 8.8 7.8 7.8  19 NA 
Lumcon NA LUMCONBayou 3/15/2013 10:05 18 18 10 10 6.8 9.4 7.9  19 NA 
Lumcon NA LUMCONBayou 3/15/2013 10:05 16 17 10 5.6 5.1 6.7 6.8  20.6 NA 
Lumcon NA LUMCONBayou 3/15/2013 10:05 19 18 10 10 7.5 7.7 7.7 7.7  21.8 NA 
Lumcon NA LUMCONBayou 3/28/2013 NA 19 19 7.8 8.0 7.6 7.7  NA NA 
Lumcon NA LUMCONBayou 3/28/2013 NA NA 19 NA NA 7.2 NA 8.4  NA NA 
Lumcon NA LUMCONBayou 4/10/2013 16:50 NA 25 NA 20 NA NA 7.6  NA NA 
Lumcon NA LUMCONBayou 4/10/2013 16:40 NA 25 NA 20 NA 5.4 NA 7.6  NA NA 
Lumcon NA LUMCONBayou 4/10/2013 16:40 28 NA NA NA 4.6 NA 7.4 NA  NA NA 
Lumcon LUMCONBayou 4/10/2013 16;40 NA 27 NA 20 NA 5.8 NA 7.8  NA NA 
Lumcon LUMCONBayou 4/10/2013 16:40 NA 27 NA 20 NA 5.7 NA  NA NA 
Lumcon NA LUMCONBayou 4/10/2013 16:40 NA 25 NA NA NA NA NA 6.7  NA NA 
Lumcon NA LUMCONBayou 4/10/2013 16:40 NA 27 NA 20 NA 5.0 NA 7.6  NA NA 
Lumcon NA LUMCONBayou 4/10/2013 16:40 NA 27 NA 20 NA NA 7.8  NA NA 
Lumcon NA LUMCONBayou 4/10/2013 16:40 NA 22 NA 20 NA NA 7.5  NA NA 
Lumcon LUMCONBayou 4/22/2013 10:30 NA NA NA NA NA NA NA NA  NA NA 
Lumcon LUMCONBayou 4/22/2013 10:30 22 22 13 11 4.4 4.0 7.6 7.6  NA NA 
Lumcon LUMCONBayou 4/22/2013 10:30 23 22 15 10 7.6 7.8  NA NA 
Lumcon LUMCONBayou 4/22/2013 10:30 23 21 15 10 7.7 7.8  NA NA 
Lumcon LUMCONBayou 4/22/2013 10:30 21 22 15 10 4.4 NA 6.7 6.8  NA NA 
Lumcon LUMCONBayou 4/22/2013 10:30 22 21 10.5 10 5.8 6.2 7.5 7.8  NA NA 
Lumcon NA LUMCONBayou 4/22/2013  20 20 14 10 NA 7.7  NA NA 
Lumcon NA LUMCONBayou 4/22/2013  20.2 20.2 15 10 4.4 5.2 7.5 7.5  NA NA 
Lumcon LUMCONBayou 4/22/2013 10:30 20 20 15 15 8.75 7.0 8.0  NA NA 
Lumcon LUMCONBayou 4/22/2013 10:30 23 20 15 12 5.4 5.2 7.8 7.7  NA  
Lumcon LUMCONBayou 4/24/2013 10:10 25 25 18 17 7.2 7.2  NA NA 
Lumcon NA LUMCONBayou 4/24/2013 10:10 25 21 20 17 NA NA 7.8 7.9  NA NA 
Lumcon LUMCONBayou 4/24/2013 10:10 25 23 19 19 7.8 7.8  NA NA 
Lumcon NA LUMCONBayou 4/24/2013 10:10 25 26 26 18 7.7 7.7  NA NA 
Lumcon LUMCONBayou 4/24/2013 10:10 25 21 20 20  10 7.7 7.7  NA NA 
Lumcon LUMCONBayou 4/24/2013 10:10 25 25 18 15 6.8 6.8  NA NA 
Lumcon NA LUMCONBayou 4/24/2013 10:10 25 26 19 17 7.1 7.8 7.7  NA NA 
Lumcon LUMCONBayou 4/24/2013 10:10 25 25 18 17 10 8.0 7.9  NA NA 
Lumcon 10 LUMCONBayou 4/24/2013 10:10 25 27 18 18 7.7 7.7  NA NA 
Lumcon LUMCONBayou 4/24/2013 10:10 24 25 20 18 NA 7.8 7.8  NA NA 
Lumcon LUMCONBayou 4/24/2013 10:10 25 21 20 20  10 7.7 7.7  NA NA 
Lumcon NA LUMCONBayou 6/7/2013 3:00 32 33 5.6 5.8 7.9 7.8  18.4 NA 
Lumcon NA LUMCONBayou 6/21/2013 11:30 33 34 3.0 5.2 8.0 7.8  13.1 NA 
Lumcon NA LUMCONBayou 7/8/2013 13:20 31 32 4.8 5.2 7.6 7.6  19.6 NA 
Lumcon 10 LUMCONBayou 8/1/2013 12:55 34 33 4.1 5.2 8.1 8.0  13.4 NA 
Lumcon NA LUMCONBayou 9/13/2013 14:30 33 32 11 11 4.0 4.0 7.6 7.6  18 NA 
Lumcon NA LUMCONBayou 9/20/2013 10:30 30 31 15 15 2.2 2.3 7.4 7.4  16.6 NA 
Lumcon NA LUMCONBayou 9/27/2013 10:24 31 31 13 15 2.....8 7.7 7.5  24 NA 
Lumcon LUMCONBayou 9/27/2013 10:25 30 30 10 12 2.4 NA 7.6 7.5  27 NA 
Lumcon LUMCONBayou 9/27/2013 10:25 29.9 30 11 14 3.4 3.6 7.9 7.8  28.2 NA 
Lumcon 4NA LUMCONBayou 9/27/2013 10;24 30 30 14 13 2.2 2.2 7.6 7.7  25 NA 
Lumcon LUMCONBayou 9/27/2013 10:24 31 29.5 24 15 2.4 7.5 7.8  27 NA 
Lumcon LUMCONBayou 9/27/2013 10;24 31 30 10 10 1.6 2.2 7.4 7.6  20 NA 
Lumcon 10 LUMCONBayou 9/27/2013 10:25 30 30 15 14 2.5 7.6 7.7  28 NA 
Lumcon LUMCONBayou 9/27/2013 10:24 30 30 13 14 7.5 7.7  29.6 NA 
Lumcon LUMCONBayou 9/27/2013 10:24 31 30 10 12 4.4 7.4 7.4  26 NA 
Lumcon LUMCONBayou 9/27/2013 10:24 31 31 10 14 1.8 2.4 7.3 7.4  25 NA 
Lumcon LUMCONBayou 9/30/2013 10:00 31 30 10 15 5.5 7.6 7.7  28 NA 
Lumcon 10 LUMCONBayou 9/30/2013 10:00 29 29 15 16 4.6 5.6 7.9 7.7  26.4 NA 
Lumcon LUMCONBayou 9/30/2013 10:00 30 30 15 13 4.6 5.8 7.7 8.0  25 NA 
Lumcon LUMCONBayou 9/30/2013 10:00 30 29 14 15 7.4 7.6  29.8 NA 
Lumcon NA LUMCONBayou 9/30/2013 10:00 29 29 15 13 3.2 7.7 7.8 NA  24 NA 
Lumcon LUMCONBayou 9/30/2013 10:00 29 29 11 15 5.9 4.0 7.9 7.6  23.2 NA 
Lumcon LUMCONBayou 9/30/2013 10:00 30 29 13 15 4.5 4.4 8.1 8.0  17.3 NA 
Lumcon LUMCONBayou 9/30/2013 10:00 30 30 14 13 4.8 4.2 7.6 7.7  26 NA 
Lumcon NA LUMCONBayou 10/15/2013 10:35 28.5 28 10 12 2.9 2.75 7.7 7.8  26 NA 
Lumcon NA LUMCONBayou 10/15/2013 10:30 27 28 15 15 3.4 3.4 7.8 7.9  17.2 NA 
Lumcon NA LUMCONBayou 10/15/2013 10:30 29 29 12 15 3.2 7.6 7.6  23 NA 
Lumcon NA LUMCONBayou 10/15/2013 10:30 29 29 10 10 7.8 7.8  36  
Lumcon NA LUMCONBayou 10/15/2013 10:30 29 29 10 10 3.8 2.9 8.4  25 NA 
Lumcon NA LUMCONBayou 10/15/2013 10:30 29 29 13 12 4.5 7.6 7.6  20.6 NA 
Lumcon NA LUMCONBayou 10/15/2013 10:30 28 29 11 12 2.5 7.6 7.8  27.75  
Lumcon NA LUMCONBayou 10/15/2013 10:30 28 28 10 10 3.4 3.6 7.7 7.9  28.6 NA 
Lumcon NA LUMCONBayou 10/17/2013 10:30 NA 27 NA 11 NA 3.4 NA 8.4  NA 26.4 
Lumcon NA LUMCONBayou 10/17/2013 10:30 NA 29 NA 13 NA 3.5 NA 7.7  24.8 NA 
Lumcon NA LUMCONBayou 10/17/2013 10:30 NA 29 NA NA 4.4 NA 13  26.2 NA 
Lumcon NA LUMCONBayou 10/17/2013 10:30 NA 28 NA 13 NA NA 7.7  27 NA 
Lumcon NA LUMCONBayou 10/17/2013 10:30 29 NA 11 NA 3.4 NA 7.7 NA  30.8 NA 
Lumcon NA LUMCONBayou 10/17/2013 10:30 29 NA 1.009 NA 3.5 NA 7.5 NA  31.4 NA 
Lumcon LUMCONBayou 10/28/2013 10:30 24 23 16 17 6.2 7.7 7.8  30 NA 
Lumcon NA LUMCONBayou 10/28/2013 10:18 24 24 16 18 5.2 7.9 7.9   NA 
Lumcon LUMCONBayou 10/28/2013 10:19 24 28 15 15 7.7 7.9  26 NA 
Lumcon LUMCONBayou 10/28/2013 10:20 22 23 15 15 4.1  8.4 7.9  25.6 NA 
Lumcon LUMCONBayou 10/28/2013 10:30 23 24 17 15 7.6 7.2  21.6 NA 
Lumcon LUMCONBayou 10/28/2013 10:05 24 26 14 15  3.5 7.7 7.8  32.6 NA 
Lumcon LUMCONBayou 10/28/2013 10:37 23 23 15 15 7.7 7.9  32.9 NA 
Lumcon LUMCONBayou 10/28/2013 10:20 23 24 15 15 6.4 7.7  26.8 NA 
Lumcon NA LUMCONBayou 10/29/2013 1110 25 25 15 15 5.1 7.7 7.8  27.2 NA 
Lumcon NA LUMCONBayou 10/29/2013 1107 23.5 24 16 15 4.6 4.6 7.8 7.8  40 NA 
Lumcon NA LUMCONBayou 10/29/2013 1034 23 20 13 0.8 4.8 7.7 8.4  35 NA 
Lumcon LUMCONBayou 10/29/2013 1033 23 24 13 16 10 6.5 7.7 7.8  32 NA 
Lumcon LUMCONBayou 10/29/2013  24 24 15 15 3.2 7.7 7.8  34 NA 
Lumcon NA LUMCONBayou 10/29/2013 10:33 25 25 18 16 3.9 4.8 7.5 7.6  28.6 NA 
Lumcon LUMCONBayou 10/29/2013  24 24 15 15 6.75 7.7 7.7  31 NA 
Lumcon LUMCONBayou 10/29/2013 10:33 24 24 17 16 4.6 4.9 7.6 7.6   NA 
Lumcon 10 LUMCONBayou 10/29/2013 10:33 24.9 24 18 16 6.3 6.4 7.8 7.9  28.1 NA 
Lumcon 10 LUMCONBayou 11/14/2013 10:10 13 13 19 19 8.4 8.2 8.2 8.2  21.9 NA 
Lumcon LUMCONBayou 11/14/2013 10:16 13 13 19 20 8.0 7.1 8.0 8.0  23.2 NA 
Lumcon LUMCONBayou 11/14/2013 10:10 20 20 8.6 8.4 7.7 7.8  23.6 NA 
Lumcon LUMCONBayou 11/14/2013 10:10 14 14 19 18 8.0 8.2 8.1 8.2  19.2 NA 
Lumcon LUMCONBayou 11/14/2013 10:10 13 12 15 17 3.6  24 NA 
Lumcon LUMCONBayou 11/14/2013 10:14 13 14 19 19 NA 7.4 8.1 8.3  22 NA 
Lumcon NA LUMCONBayou 11/14/2013 10:14 13.5 13.2 20 19 NA 2.4 8.0 8.1  21 NA 
Lumcon LUMCONBayou 11/16/2013 11:45 22 NA 19.8 NA 6.9 NA 8.0 NA  NA 26 
Lumcon LUMCONBayou 12/2/2013 10;31 15 17 17 16 8.0 8.1  20 NA 
Lumcon LUMCONBayou 12/2/2013 10:51 20 20 20 18 NA NA 7.8 7.9  40.8 NA 
Lumcon LUMCONBayou 12/2/2013 10:40 15 17 20 16 NA NA 7.7  15 NA 
Lumcon 10 LUMCONBayou 12/2/2013 11:00 19 18 16 15 5.9 8.3 8.1 8.2  38.8 NA 
Lumcon LUMCONBayou 12/2/2013 10:40 17 18 15 15 7.6 7.8 7.9  20 NA 
Lumcon LUMCONBayou 12/2/2013 10:51 21 17 20 15 7.5 7.9 8.1  25 NA 
Lumcon NA LUMCONBayou 12/4/2013 10:56 23.6 21.5 10.5 0.014 6.4 7.6 7.9 7.9  28.5 NA 
Lumcon LUMCONBayou 12/4/2013 NA 23 21 15 15 4.5 7.8 7.8  30.4 NA 
Lumcon NA LUMCONBayou 12/4/2013  22 22 18 19 65 8.0 7.9  43.2 NA 
Lumcon LUMCONBayou 12/4/2013  22 21 15 10 NA 7.0 8.1 7.9  37 NA 
Lumcon LUMCONBayou 12/4/2013 10:57 22 22 20 20 3.1 6.1 7.6 7.7  44.6 NA 
Lumcon LUMCONBayou 12/4/2013 10:57 22 22 27 18 4.6 4.4 7.7 7.9  37.6 NA 
Lumcon LUMCONBayou 12/4/2013 10:57 23 22 16 18 5.6 5.4 7.8 8.0  28 NA 
Lumcon LUMCONBayou 12/4/2013 10:57 23 22 18 17 NA 6.2 7.7 7.8  32 NA 
Lumcon LUMCONBayou 12/5/2013   24 NA 27 NA 4.4 NA 7.8  24 NA 
Lumcon LUMCONBayou 12/5/2013  NA 25 NA 17 NA NA 7.7  24.4 NA 
Lumcon 10 LUMCONBayou 12/5/2013  NA 25 NA 15 NA 6.2 NA 7.8  25 NA 
Lumcon LUMCONBayou 12/5/2013 10:53 24 NA 18 NA 5.5 NA 7.7 NA  28.15 NA 
Lumcon LUMCONBayou 12/5/2013  NA 23 NA 20 NA 4.5 NA 7.6  29 NA 
Lumcon LUMCONBayou 12/5/2013  24 NA 14 NA NA 7.7 NA  29 NA 
Lumcon LUMCONBayou 12/5/2013 11:01 24 NA 18 NA 4.4 NA 7.6 NA  17.3 NA 
Lumcon LUMCONBayou 12/5/2013 11:01 NA 24 NA 20 NA NA 7.8  31 NA 
Lumcon LUMCONBayou 12/9/2013 10:15 15 15 15 17 6.9 6.9 8.2 8.2   NA 
Lumcon LUMCONBayou 12/9/2013 10:15 15 16 20 20 7.6 7.8 7.8  NA NA 
Lumcon LUMCONBayou 12/9/2013 10:15 15 16 20 17 7.3 8.1 8.2  55 NA 
Lumcon LUMCONBayou 12/9/2013 10;15 14 14 17 17 6.0 8.6  NA NA 
Lumcon LUMCONBayou 12/9/2013 10:15 15 15 19 19 7.4 7.8 7.7 7.8  NA NA 
Lumcon LUMCONBayou 12/9/2013 10:15 17 16 17 10 7.4 7.9 7.9  NA 
Lumcon NA LUMCONBayou 12/9/2013 10:15 15 15 17 10 7.8  55 NA 
Lumcon LUMCONBayou 12/9/2013 10:15 15 15 19 10.7 8.8 6.2 7.9 8.0   NA 
Lumcon NA LUMCONBayou 12/9/2013 10:15 15 15 10 16 NA 8.1 8.1  NA NA 
Lumcon LUMCONBayou 12/10/2013 10:30 12 13  17  8.2 8.2  NA NA 
Lumcon LUMCONBayou 12/10/2013 10:30 12 13 NA 20 8.4 8.3 NA 8.1  NA NA 
Lumcon LUMCONBayou 12/10/2013 10:30 13 14 15 20 9.8 9.5 7.9 8.0  NA NA 
Lumcon LUMCONBayou 12/10/2013 10:30 12 12 15 20 6.8 9.4 8.9 9.3  NA NA 
Lumcon LUMCONBayou 12/10/2013 10:30 14 13 18 19 7.2 7.8 7.9  NA NA 
Lumcon LUMCONBayou 12/10/2013 10:30 12 13 16 20 NA 8.5 8.1 8.1  NA NA 
Lumcon LUMCONBayou 12/10/2013 10:30 12 13 13 10 7.5 8.1 8.2  NA NA 
Lumcon LUMCONBayou 12/10/2013 10:30 12 13 NA 20 NA 7.9 NA 8.2  NA NA 
Lumcon LUMCONBayou 12/10/2013 10:30 10 15 20 20 9.8 8.1 8.1  NA NA 
Lumcon 10 LUMCONBayou 12/10/2013 10:30 13 15 18 20 8.3 8.4  NA NA 
Lumcon LUMCONBayou 12/11/2013 10:35 15 14 17 17  7.9 8.1  NA NA 
Lumcon LUMCONBayou 12/11/2013 10:39 12 12 17  9.3 9.2  NA NA 
Lumcon LUMCONBayou 12/11/2013 10:35 13 13 15 20 8.2 NA 8.1 8.1  NA NA 
Lumcon LUMCONBayou 12/11/2013 10:35 12 15 15 10 24 22 8.2 8.1  NA NA 
Lumcon LUMCONBayou 12/11/2013 10:35 13 15 15 15 8.2 8.1  NA NA 
Lumcon LUMCONBayou 12/11/2013 10:35 13 12 17 11  0.2 8.2 8.2   NA 
Lumcon LUMCONBayou 12/11/2013 10:39 15 14 16 18 10 12 7.8 7.8  NA NA 
Lumcon NA LUMCONBayou 12/11/2013 10:30 12 14 18 17 8.3 8.3  NA NA 
Lumcon LUMCONBayou 12/11/2013 10:35 14 15 20 20  8.0 8.0  NA NA 
Lumcon LUMCONBayou 12/11/2013 10:35 14 13 18 20  8.1 8.1  NA NA 
Lumcon LUMCONBayou 12/12/2013 10:50 14 15 15 19 9.9 8.2 7.9  44.2 NA 
Lumcon LUMCONBayou 12/12/2013 10:50 13 14 15 19 7.8 8.0 8.0 8.0  35.8 NA 
Lumcon LUMCONBayou 12/12/2013 10;50 14 15 20  20 8.2 8.2 8.7 9.3  30 NA 
Lumcon LUMCONBayou 12/12/2013 10:50 14 15 13 17 7.2 7.6 7.4 7.9  33 NA 
Lumcon LUMCONBayou 12/12/2013 10:50 14 16 17 10 10 10 8.0 8.2  24 NA 
Lumcon NA LUMCONBayou 12/12/2013 10:50 15 14 17 18 9.2 8.6 8.2 8.2  31 NA 
Lumcon LUMCONBayou 12/12/2013 10:50 19 15 15 25 7.6 7.7  32.3 NA 
Lumcon NA LUMCONBayou 12/12/2013 10:50  14 NA 19 NA 9.5 NA 8.1  33 NA 
Lumcon LUMCONBayou 12/12/2013 10:50 15 15 20 20 7.6 8.4 8.0 8.1  32 NA 
Lumcon NA LUMCONBayou 12/13/2013 10:38 14 15 18 20 6.5 8.1 8.1   NA 
Lumcon LUMCONBayou 12/13/2013 10:38 15 16 20 20 8.1   NA 
Lumcon LUMCONBayou 12/13/2013 10:38 13 14 18 20 6.6 8.2 7.9  NA NA 
Lumcon NA LUMCONBayou 12/13/2013 10:38 14 14 10 15 8.2 8.1 8.0 8.1  NA NA 
Lumcon LUMCONBayou 12/13/2013 10:38 14 13 18 19 7.5 8.1 8.1  NA NA 
Lumcon NA LUMCONBayou 12/13/2013 10:38 13 15 16 18 3.8 7.8 8.3 8.2  NA NA 
Lumcon NA LUMCONBayou 12/13/2013 10:38 14 14 20 20 7.8 8.8 7.6 7.7  NA NA 
Lumcon NA LUMCONBayou 12/13/2013 10:38 13 15 21 20 10 7.9 8.0  NA NA 
Lumcon LUMCONBayou 12/13/2013 10:38 14 14 16 18 7.4 8.6  NA NA 
Lumcon NA LUMCONBayou 12/13/2013 10:38 12 13 10 6.4 9.5 9.3  NA NA 
Lumcon NA LUMCONBayou 12/16/2013 09:45 NA 11 NA 20 NA 10 NA 8.2  38 NA 
Lumcon 10 LUMCONBayou 12/16/2013 09:45 NA 22 NA 1.013 NA NA 8.4  42.5 NA 
Lumcon LUMCONBayou 12/16/2013 09:45 NA 11 NA 18 NA NA 8.1  45.4 NA 
Lumcon LUMCONBayou 12/16/2013 09:45 NA 11 NA 1.013 NA NA 7.9  46 NA 
Lumcon LUMCONBayou 12/16/2013 09:45 NA 11 NA 1.014 NA NA  45 NA 
Lumcon LUMCONBayou 12/16/2013 09:45 NA 11 NA 19 NA NA  49 NA 
Lumcon NA LUMCONBayou 1/14/2014 11:00 NA 15 NA 12 NA 6.6 NA 7.9  38 NA 
Lumcon LUMCONBayou 1/14/2014 11:00 NA 15 NA NA 7.5 NA   NA 
Lumcon LUMCONBayou 1/14/2014 11:00 NA 15.2 NA 12 NA 6.9 NA 7.9  33.3 NA 
Lumcon N9 LUMCONBayou 1/17/2014 10:30 28 NA 10 NA NA 7.8 NA  33 NA 
Lumcon LUMCONBayou 2/5/2014 11:00 NA 15 NA 13 NA NA 8.2  NA NA 
Lumcon LUMCONBayou 2/5/2014 11:00 NA 15 NA 11 NA 8.1 NA 8.2   NA 
Lumcon LUMCONBayou 2/5/2014 11:00 NA NA 12 NA 5.5 NA 8.2  NA NA 
Lumcon NA LUMCONBayou 2/5/2014 11:00 NA NA 12 NA 5.5 NA 8.2  NA NA 
Lumcon LUMCONBayou 2/5/2014 11:00 NA 15 NA 10 NA 7.8 NA 8.1  NA NA 
Lumcon 10 LUMCONBayou 2/5/2014 11:00 NA 15 NA 1.0 NA NA 7.9  NA NA 
Lumcon LUMCONBayou 2/5/2014 11:00 NA  NA 10 NA 8.3 NA  NA NA 
Lumcon LUMCONBayou 2/5/2014 11:00 NA 15 NA NA 7.5 NA   NA 
Lumcon NA LUMCONBayou 2/5/2014 11:00 NA 15 NA 12 NA 6.6 NA 7.9  38 NA 
Lumcon NA LUMCONBayou 2/5/2014 11:00 NA 15 NA 11 NA 8.2 NA 8.1  32 NA 
Lumcon NA LUMCONBayou 2/5/2014 11:00 NA 15 NA 11 NA 7.1 NA 7.9  32 NA 
Lumcon LUMCONBayou 2/5/2014 11:00 NA 14.8 NA 12.5 NA 6.6 NA 7.8  38.4 NA 
Lumcon LUMCONBayou 2/15/2014 11:00 NA 15 NA 10 NA NA 8.2  NA NA 
Lumcon LUMCONBayou 2/17/2014 10:30 18 NA 16 NA 4.8 NA NA NA  NA NA 
Lumcon LUMCONBayou 2/17/2014 10:30  20 NA 10 NA NA 7.2  25 NA 
Lumcon LUMCONBayou 2/17/2014 10:30 19 NA NA  NA 7.9 NA  38 NA 
Lumcon NA LUMCONBayou 2/17/2014 10:30 NA 18 NA 10 NA NA NA 8.2  24.1 NA 
Lumcon NA LUMCONBayou 2/17/2014 10:30 20 NA 10 NA NA NA  36 NA 
Lumcon LUMCONBayou 2/17/2014 11:11 17 NA 10 NA 5.8 NA 8.0 NA  30 NA 
Lumcon 10 LUMCONBayou 2/17/2014 10:30 NA 20 NA 10 NA NA 7.9  31 NA 
Lumcon LUMCONBayou 2/17/2014 10:30 NA 18 NA 10 NA NA 8.3  25 NA 
Lumcon LUMCONBayou 2/19/2014 10:35 21 NA 1.0 NA 7.5 NA 8.2 NA  24 NA 
Lumcon  LUMCONBayou 2/19/2014 10;35 20 NA NA NA 8.2 NA  35  
Lumcon NA LUMCONBayou 2/19/2014 10:35 20 NA 1.5 NA NA 7.9 NA  27 NA 
Lumcon LUMCONBayou 2/19/2014 10:35 21 NA NA 6.0 NA 8.0 NA  33 NA 
Lumcon LUMCONBayou 2/19/2014 10:35 21 NA NA 6.0 NA 8.0 NA  33 NA 
Lumcon LUMCONBayou 2/19/2014 10:35 20 NA 1.0 NA 7.0 NA NA  28 NA 
Lumcon LUMCONBayou 2/19/2014 10:35 22 NA NA NA 7.8 NA  35 NA 
Lumcon LUMCONBayou 2/19/2014 10:35 21 NA 15 NA NA 7.8 NA  33 NA 
Lumcon LUMCONBayou 3/19/2014 1010 16 20 7.2 7.2 8.0 8.2  17 
Lumcon LUMCONBayou 3/19/2014 1010 18 18 NA 6.4 8.1 8.2  15.4 NA 
Lumcon 10 LUMCONBayou 3/19/2014 1010 20 20 NA 5.2 7.9 7.9  16 NA 
Lumcon LUMCONBayou 3/19/2014 1010 18 17 8.0 7.9 8.7  13.6 NA 
Lumcon LUMCONBayou 3/19/2014 1010 18 17 4.7 8.0 8.5  NA NA 
Lumcon LUMCONBayou 3/19/2014 1010 18 18 9.5 7.9 8.0  15.3 
Lumcon LUMCONBayou 3/19/2014 1010 19 20 7.9 7.8  19 NA 
Lumcon NA LUMCONBayou 3/19/2014 1010 NA NA NA NA NA NA NA NA  NA NA 
Lumcon LUMCONBayou 3/19/2014 1010 19 20 7.9 7.8  19 NA 
Lumcon LUMCONBayou 3/19/2014 1010 18 18 6.4 6.4 8.1 8.2  14.2 
Lumcon LUMCONBayou 3/19/2014 1010 19 20 7.5 7.8 8.1 8.4  15 NA 
Lumcon LUMCONBayou 3/20/2014 1017 23 23 6.3 7.2 7.8 7.9  14.2 NA 
Lumcon LUMCONBayou 3/20/2014 1016 20 21 7.1 6.8 7.1  12 NA 
Lumcon LUMCONBayou 3/20/2014 1016 19 19 6.6 6.2 8.1 8.3  17.6 NA 
Lumcon LUMCONBayou 3/20/2014 1019 21 20 6.4 5.7 7.9 8.1  14.2 NA 
Lumcon LUMCONBayou 3/20/2014 1012 20 20 5.1 NA 8.5 8.5  10.2 NA 
Lumcon LUMCONBayou 3/20/2014 1016 19 20 7.4 8.1 8.4  20.6 NA 
Lumcon LUMCONBayou 3/20/2014 1016 19 19 NA 8.3 8.7  10.1 NA 
Lumcon NA LUMCONBayou 3/20/2014 NA 20 20 5.2 7.9  13.8 NA 
Lumcon LUMCONBayou 3/20/2014 1016 19 19 6.6 6.2 8.1 8.3  17.6 NA 
Lumcon 10 LUMCONBayou 3/20/2014 1018 22 21 6.2 7.9  13.1 NA 
Lumcon LUMCONBayou 3/20/2014 1016 20 21 7.1 6.8 7.1  12 NA 
Lumcon LUMCONBayou 3/20/2014 1019 21 20 6.4 5.7 7.9 8.1  14.2 NA 
Lumcon LUMCONBayou 3/20/2014 1017 23 23 6.3 7.2 7.8 7.9  14.2 NA 
Lumcon LUMCONBayou 3/20/2014 1016 19 20 7.4 8.1 8.4  20.6 NA 
Lumcon LUMCONBayou 3/20/2014 1018 20 20 7.2 9.8 7.8  39 NA 
Lumcon NA LUMCONBayou 3/20/2014 1018 20 20 5.2 7.9  13.8 NA 
Lumcon LUMCONBayou 3/20/2014 1016 19 19 NA 8.3 8.7  10.1 NA 
Lumcon LUMCONBayou 3/20/2014 1012 20 20 5.1 NA 8.5 8.5  10.2 NA 
Lumcon LUMCONBayou 3/27/2014 10:35 14 16 19 15 7.2 6.9 7.9 7.9  27.2 NA 
Lumcon LUMCONBayou 3/27/2014 10:40 11 12 17 14 8.2 8.3  30 NA 
Lumcon LUMCONBayou 3/27/2014 10;35 17 18 10 5.0 7.4 8.0 8.4  46.2 NA 
Lumcon LUMCONBayou 3/27/2014 10;35 17 18 10 5.0 7.4 8.0 8.4  46.2 NA 
Lumcon 07 LUMCONBayou 3/27/2014 10:35 15 15 17 15 6.1 7.9 7.9  30 NA 
Lumcon LUMCONBayou 3/27/2014 12:09 15 16 19 16 6.6 7.7 7.8  29 NA 
Lumcon LUMCONBayou 3/27/2014 10:35 15  16 17 15 6.4  29.2 NA 
Lumcon LUMCONBayou 3/27/2014 10:40 15 15 15 15 8.1  31  
Lumcon LUMCONBayou 3/27/2014 10:30 10.2 10.2 15 15 6.8 6.8 7.9 7.9  25 NA 
Lumcon NA LUMCONBayou 3/28/2014 10:31 19 22 14 15 6.8 6.4 7.8 7.7  3.8 NA 
Lumcon NA LUMCONBayou 3/28/2014 10:15 20 18 15 15 NA 7.8  37 NA 
Lumcon LUMCONBayou 3/28/2014 10:15 20c 20c 13 15 NA 6.4 7.5 7.7  35 NA 
Lumcon LUMCONBayou 3/28/2014 10:15 20c 20c 13 15 NA 6.4 7.5 7.7  35 NA 
Lumcon NA LUMCONBayou 3/28/2014 10:31 19 22 14 15 6.8 6.4 7.8 7.7  3.8 NA 
Lumcon  LUMCONBayou 3/28/2014 10:20 20 19 17 18 3.8 3.8 7.6 7.6  36.8  
Lumcon  LUMCONBayou 3/28/2014 10:20 20 19 17 18 3.8 3.8 7.6 7.6  36.8  
Lumcon LUMCONBayou 3/28/2014 10:15 NA NA 15 15 21 21 7.7 8.0  31 NA 
Lumcon NA LUMCONBayou 3/28/2014 10:15 19 20 15 10 4.5 5.5 8.5 8.5  33 NA 
Lumcon 10 LUMCONBayou 3/29/2014 10:20 20 20 15 15 4.2 7.8 7.7  30 NA 
Lumcon LUMCONBayou 12/16/2014 09:45 NA 12 NA 20 NA 8.5 NA 7.9  45.2 NA